<?xml version="1.0" encoding="UTF-8" standalone="no" ?><gpx xmlns="http://www.topografix.com/GPX/1/1" xmlns:gpxx="http://www.garmin.com/xmlschemas/GpxExtensions/v3" xmlns:wptx1="http://www.garmin.com/xmlschemas/WaypointExtension/v1" xmlns:gpxtpx="http://www.garmin.com/xmlschemas/TrackPointExtension/v1" creator="GuideVTT.com" version="1.1" xmlns:xsi="http://www.w3.org/2001/XMLSchema-instance" xsi:schemaLocation="http://www.topografix.com/GPX/1/1 http://www.topografix.com/GPX/1/1/gpx.xsd http://www.garmin.com/xmlschemas/GpxExtensions/v3 http://www8.garmin.com/xmlschemas/GpxExtensionsv3.xsd http://www.garmin.com/xmlschemas/WaypointExtension/v1 http://www8.garmin.com/xmlschemas/WaypointExtensionv1.xsd http://www.garmin.com/xmlschemas/TrackPointExtension/v1 http://www.garmin.com/xmlschemas/TrackPointExtensionv1.xsd">
<metadata><link href="http://www.garmin.com"><text>Garmin International</text></link><time>2013-06-22T15:13:50Z</time></metadata>
<trk><name>saleve.gpx</name><extensions><gpxx:TrackExtension><gpxx:DisplayColor>Cyan</gpxx:DisplayColor></gpxx:TrackExtension></extensions><trkseg>
<trkpt lat="46.14238878" lon="6.13990584"><ele>477.912476</ele><time>2007-04-14T08:28:13Z</time></trkpt>
<trkpt lat="46.14225768" lon="6.13989025"><ele>479.354492</ele><time>2007-04-14T08:28:21Z</time></trkpt>
<trkpt lat="46.14210606" lon="6.14002747"><ele>479.354492</ele><time>2007-04-14T08:28:31Z</time></trkpt>
<trkpt lat="46.14206012" lon="6.14034732"><ele>480.315918</ele><time>2007-04-14T08:28:41Z</time></trkpt>
<trkpt lat="46.14176776" lon="6.14081469"><ele>481.277222</ele><time>2007-04-14T08:28:56Z</time></trkpt>
<trkpt lat="46.14143793" lon="6.14131509"><ele>483.199829</ele><time>2007-04-14T08:29:13Z</time></trkpt>
<trkpt lat="46.14145244" lon="6.14183536"><ele>485.603027</ele><time>2007-04-14T08:29:27Z</time></trkpt>
<trkpt lat="46.14146166" lon="6.14238705"><ele>489.448364</ele><time>2007-04-14T08:29:41Z</time></trkpt>
<trkpt lat="46.14123794" lon="6.14296792"><ele>491.851685</ele><time>2007-04-14T08:29:58Z</time></trkpt>
<trkpt lat="46.14110542" lon="6.14304839"><ele>491.851685</ele><time>2007-04-14T08:30:05Z</time></trkpt>
<trkpt lat="46.14107072" lon="6.14303984"><ele>491.851685</ele><time>2007-04-14T08:30:09Z</time></trkpt>
<trkpt lat="46.14085036" lon="6.14277547"><ele>492.332397</ele><time>2007-04-14T08:30:19Z</time></trkpt>
<trkpt lat="46.14033999" lon="6.14216267"><ele>492.332397</ele><time>2007-04-14T08:30:35Z</time></trkpt>
<trkpt lat="46.13987169" lon="6.14133555"><ele>493.293579</ele><time>2007-04-14T08:30:53Z</time></trkpt>
<trkpt lat="46.13971218" lon="6.14106665"><ele>496.658325</ele><time>2007-04-14T08:31:02Z</time></trkpt>
<trkpt lat="46.13969592" lon="6.14104184"><ele>496.658325</ele><time>2007-04-14T08:31:03Z</time></trkpt>
<trkpt lat="46.13954647" lon="6.14077773"><ele>500.50354</ele><time>2007-04-14T08:31:14Z</time></trkpt>
<trkpt lat="46.13953449" lon="6.14075443"><ele>500.50354</ele><time>2007-04-14T08:31:15Z</time></trkpt>
<trkpt lat="46.13944715" lon="6.14056810"><ele>503.387451</ele><time>2007-04-14T08:31:23Z</time></trkpt>
<trkpt lat="46.13937305" lon="6.14041513"><ele>504.829468</ele><time>2007-04-14T08:31:29Z</time></trkpt>
<trkpt lat="46.13923282" lon="6.14019485"><ele>507.713501</ele><time>2007-04-14T08:31:39Z</time></trkpt>
<trkpt lat="46.13914666" lon="6.14005286"><ele>511.078003</ele><time>2007-04-14T08:31:46Z</time></trkpt>
<trkpt lat="46.13913459" lon="6.14003166"><ele>511.558716</ele><time>2007-04-14T08:31:47Z</time></trkpt>
<trkpt lat="46.13886829" lon="6.13965866"><ele>514.92334</ele><time>2007-04-14T08:32:05Z</time></trkpt>
<trkpt lat="46.13855515" lon="6.13940419"><ele>516.845947</ele><time>2007-04-14T08:32:20Z</time></trkpt>
<trkpt lat="46.13820336" lon="6.13921878"><ele>517.807251</ele><time>2007-04-14T08:32:34Z</time></trkpt>
<trkpt lat="46.13784352" lon="6.13892307"><ele>521.171997</ele><time>2007-04-14T08:32:48Z</time></trkpt>
<trkpt lat="46.13736274" lon="6.13839434"><ele>521.652588</ele><time>2007-04-14T08:33:06Z</time></trkpt>
<trkpt lat="46.13713760" lon="6.13790986"><ele>522.133179</ele><time>2007-04-14T08:33:19Z</time></trkpt>
<trkpt lat="46.13680936" lon="6.13727720"><ele>524.055786</ele><time>2007-04-14T08:33:38Z</time></trkpt>
<trkpt lat="46.13651155" lon="6.13679130"><ele>526.939819</ele><time>2007-04-14T08:33:55Z</time></trkpt>
<trkpt lat="46.13629446" lon="6.13645057"><ele>529.34314</ele><time>2007-04-14T08:34:07Z</time></trkpt>
<trkpt lat="46.13602758" lon="6.13601698"><ele>532.227051</ele><time>2007-04-14T08:34:24Z</time></trkpt>
<trkpt lat="46.13578484" lon="6.13567860"><ele>535.110962</ele><time>2007-04-14T08:34:38Z</time></trkpt>
<trkpt lat="46.13554076" lon="6.13537509"><ele>537.514282</ele><time>2007-04-14T08:34:51Z</time></trkpt>
<trkpt lat="46.13525779" lon="6.13498223"><ele>538.475708</ele><time>2007-04-14T08:35:08Z</time></trkpt>
<trkpt lat="46.13513592" lon="6.13474058"><ele>538.956299</ele><time>2007-04-14T08:35:17Z</time></trkpt>
<trkpt lat="46.13523382" lon="6.13433439"><ele>537.033691</ele><time>2007-04-14T08:35:25Z</time></trkpt>
<trkpt lat="46.13530607" lon="6.13404572"><ele>533.668945</ele><time>2007-04-14T08:35:30Z</time></trkpt>
<trkpt lat="46.13533633" lon="6.13391086"><ele>532.227051</ele><time>2007-04-14T08:35:32Z</time></trkpt>
<trkpt lat="46.13534002" lon="6.13385528"><ele>532.227051</ele><time>2007-04-14T08:35:33Z</time></trkpt>
<trkpt lat="46.13517900" lon="6.13360223"><ele>533.188354</ele><time>2007-04-14T08:35:41Z</time></trkpt>
<trkpt lat="46.13514564" lon="6.13360349"><ele>533.188354</ele><time>2007-04-14T08:35:42Z</time></trkpt>
<trkpt lat="46.13484456" lon="6.13362084"><ele>536.072388</ele><time>2007-04-14T08:35:54Z</time></trkpt>
<trkpt lat="46.13448087" lon="6.13327215"><ele>538.475708</ele><time>2007-04-14T08:36:13Z</time></trkpt>
<trkpt lat="46.13408483" lon="6.13291953"><ele>540.878906</ele><time>2007-04-14T08:36:32Z</time></trkpt>
<trkpt lat="46.13381619" lon="6.13280285"><ele>543.762817</ele><time>2007-04-14T08:36:44Z</time></trkpt>
<trkpt lat="46.13339039" lon="6.13265374"><ele>546.646851</ele><time>2007-04-14T08:37:04Z</time></trkpt>
<trkpt lat="46.13308612" lon="6.13253874"><ele>549.530762</ele><time>2007-04-14T08:37:18Z</time></trkpt>
<trkpt lat="46.13274096" lon="6.13242919"><ele>552.414551</ele><time>2007-04-14T08:37:32Z</time></trkpt>
<trkpt lat="46.13237366" lon="6.13231092"><ele>555.779297</ele><time>2007-04-14T08:37:48Z</time></trkpt>
<trkpt lat="46.13220016" lon="6.13215384"><ele>556.740723</ele><time>2007-04-14T08:37:57Z</time></trkpt>
<trkpt lat="46.13193939" lon="6.13231419"><ele>559.144043</ele><time>2007-04-14T08:38:10Z</time></trkpt>
<trkpt lat="46.13167645" lon="6.13252214"><ele>562.508545</ele><time>2007-04-14T08:38:24Z</time></trkpt>
<trkpt lat="46.13137244" lon="6.13274133"><ele>564.431152</ele><time>2007-04-14T08:38:40Z</time></trkpt>
<trkpt lat="46.13105862" lon="6.13287636"><ele>567.315186</ele><time>2007-04-14T08:38:55Z</time></trkpt>
<trkpt lat="46.13059393" lon="6.13283839"><ele>569.237793</ele><time>2007-04-14T08:39:15Z</time></trkpt>
<trkpt lat="46.13052612" lon="6.13282984"><ele>570.679688</ele><time>2007-04-14T08:39:18Z</time></trkpt>
<trkpt lat="46.13006445" lon="6.13289656"><ele>573.083252</ele><time>2007-04-14T08:39:39Z</time></trkpt>
<trkpt lat="46.12982464" lon="6.13329805"><ele>573.563965</ele><time>2007-04-14T08:39:54Z</time></trkpt>
<trkpt lat="46.12941292" lon="6.13396232"><ele>575.967041</ele><time>2007-04-14T08:40:17Z</time></trkpt>
<trkpt lat="46.12901545" lon="6.13446708"><ele>578.851074</ele><time>2007-04-14T08:40:37Z</time></trkpt>
<trkpt lat="46.12874002" lon="6.13464796"><ele>581.734863</ele><time>2007-04-14T08:40:49Z</time></trkpt>
<trkpt lat="46.12838589" lon="6.13483840"><ele>585.099609</ele><time>2007-04-14T08:41:04Z</time></trkpt>
<trkpt lat="46.12800384" lon="6.13511760"><ele>588.464355</ele><time>2007-04-14T08:41:20Z</time></trkpt>
<trkpt lat="46.12761785" lon="6.13543192"><ele>591.348145</ele><time>2007-04-14T08:41:36Z</time></trkpt>
<trkpt lat="46.12736640" lon="6.13561842"><ele>594.232178</ele><time>2007-04-14T08:41:46Z</time></trkpt>
<trkpt lat="46.12726992" lon="6.13569804"><ele>595.674072</ele><time>2007-04-14T08:41:50Z</time></trkpt>
<trkpt lat="46.12700287" lon="6.13592964"><ele>599.038574</ele><time>2007-04-14T08:42:03Z</time></trkpt>
<trkpt lat="46.12671202" lon="6.13618017"><ele>602.403076</ele><time>2007-04-14T08:42:19Z</time></trkpt>
<trkpt lat="46.12637616" lon="6.13647823"><ele>605.287354</ele><time>2007-04-14T08:42:38Z</time></trkpt>
<trkpt lat="46.12611942" lon="6.13671938"><ele>608.651855</ele><time>2007-04-14T08:42:56Z</time></trkpt>
<trkpt lat="46.12602688" lon="6.13682189"><ele>609.132568</ele><time>2007-04-14T08:43:03Z</time></trkpt>
<trkpt lat="46.12580015" lon="6.13705097"><ele>612.977783</ele><time>2007-04-14T08:43:21Z</time></trkpt>
<trkpt lat="46.12556370" lon="6.13725984"><ele>615.861816</ele><time>2007-04-14T08:43:39Z</time></trkpt>
<trkpt lat="46.12532088" lon="6.13748699"><ele>619.226318</ele><time>2007-04-14T08:43:56Z</time></trkpt>
<trkpt lat="46.12515768" lon="6.13768129"><ele>622.591064</ele><time>2007-04-14T08:44:08Z</time></trkpt>
<trkpt lat="46.12494470" lon="6.13794683"><ele>625.955566</ele><time>2007-04-14T08:44:24Z</time></trkpt>
<trkpt lat="46.12462778" lon="6.13837975"><ele>628.358887</ele><time>2007-04-14T08:44:42Z</time></trkpt>
<trkpt lat="46.12443642" lon="6.13862786"><ele>631.723389</ele><time>2007-04-14T08:44:54Z</time></trkpt>
<trkpt lat="46.12416199" lon="6.13884838"><ele>635.088135</ele><time>2007-04-14T08:45:10Z</time></trkpt>
<trkpt lat="46.12393577" lon="6.13860757"><ele>636.530273</ele><time>2007-04-14T08:45:26Z</time></trkpt>
<trkpt lat="46.12384826" lon="6.13799033"><ele>635.568604</ele><time>2007-04-14T08:45:41Z</time></trkpt>
<trkpt lat="46.12377819" lon="6.13746436"><ele>637.491455</ele><time>2007-04-14T08:45:55Z</time></trkpt>
<trkpt lat="46.12367869" lon="6.13675022"><ele>638.452881</ele><time>2007-04-14T08:46:14Z</time></trkpt>
<trkpt lat="46.12357367" lon="6.13625192"><ele>640.375488</ele><time>2007-04-14T08:46:30Z</time></trkpt>
<trkpt lat="46.12349848" lon="6.13624756"><ele>640.855957</ele><time>2007-04-14T08:46:34Z</time></trkpt>
<trkpt lat="46.12334208" lon="6.13638645"><ele>644.220703</ele><time>2007-04-14T08:46:46Z</time></trkpt>
<trkpt lat="46.12310504" lon="6.13658602"><ele>647.585205</ele><time>2007-04-14T08:47:04Z</time></trkpt>
<trkpt lat="46.12304594" lon="6.13663799"><ele>648.065918</ele><time>2007-04-14T08:47:09Z</time></trkpt>
<trkpt lat="46.12282550" lon="6.13682373"><ele>651.43042</ele><time>2007-04-14T08:47:27Z</time></trkpt>
<trkpt lat="46.12259768" lon="6.13701434"><ele>653.353271</ele><time>2007-04-14T08:47:46Z</time></trkpt>
<trkpt lat="46.12239484" lon="6.13715532"><ele>657.198486</ele><time>2007-04-14T08:48:02Z</time></trkpt>
<trkpt lat="46.12217247" lon="6.13732648"><ele>659.601807</ele><time>2007-04-14T08:48:19Z</time></trkpt>
<trkpt lat="46.12206853" lon="6.13740519"><ele>660.082275</ele><time>2007-04-14T08:48:27Z</time></trkpt>
<trkpt lat="46.12198882" lon="6.13747082"><ele>662.005127</ele><time>2007-04-14T08:48:33Z</time></trkpt>
<trkpt lat="46.12183300" lon="6.13755665"><ele>664.888916</ele><time>2007-04-14T08:48:44Z</time></trkpt>
<trkpt lat="46.12151256" lon="6.13766125"><ele>667.292236</ele><time>2007-04-14T08:49:04Z</time></trkpt>
<trkpt lat="46.12131919" lon="6.13768187"><ele>670.656982</ele><time>2007-04-14T08:49:17Z</time></trkpt>
<trkpt lat="46.12130469" lon="6.13768414"><ele>670.656982</ele><time>2007-04-14T08:49:18Z</time></trkpt>
<trkpt lat="46.12113378" lon="6.13770216"><ele>672.098877</ele><time>2007-04-14T08:49:31Z</time></trkpt>
<trkpt lat="46.12088786" lon="6.13774667"><ele>673.541016</ele><time>2007-04-14T08:49:51Z</time></trkpt>
<trkpt lat="46.12069599" lon="6.13780618"><ele>676.424805</ele><time>2007-04-14T08:50:08Z</time></trkpt>
<trkpt lat="46.12049248" lon="6.13782554"><ele>679.789307</ele><time>2007-04-14T08:50:24Z</time></trkpt>
<trkpt lat="46.12029643" lon="6.13786175"><ele>681.231445</ele><time>2007-04-14T08:50:39Z</time></trkpt>
<trkpt lat="46.12006777" lon="6.13793283"><ele>682.192627</ele><time>2007-04-14T08:50:57Z</time></trkpt>
<trkpt lat="46.11985797" lon="6.13802545"><ele>685.076904</ele><time>2007-04-14T08:51:15Z</time></trkpt>
<trkpt lat="46.11963635" lon="6.13813232"><ele>686.999268</ele><time>2007-04-14T08:51:35Z</time></trkpt>
<trkpt lat="46.11939512" lon="6.13825855"><ele>690.844482</ele><time>2007-04-14T08:51:55Z</time></trkpt>
<trkpt lat="46.11928465" lon="6.13832586"><ele>691.805908</ele><time>2007-04-14T08:52:05Z</time></trkpt>
<trkpt lat="46.11916345" lon="6.13841169"><ele>693.247803</ele><time>2007-04-14T08:52:16Z</time></trkpt>
<trkpt lat="46.11888466" lon="6.13856910"><ele>695.651123</ele><time>2007-04-14T08:52:38Z</time></trkpt>
<trkpt lat="46.11868375" lon="6.13867982"><ele>698.534912</ele><time>2007-04-14T08:52:54Z</time></trkpt>
<trkpt lat="46.11863312" lon="6.13870312"><ele>699.496338</ele><time>2007-04-14T08:52:58Z</time></trkpt>
<trkpt lat="46.11837949" lon="6.13868267"><ele>699.977051</ele><time>2007-04-14T08:53:17Z</time></trkpt>
<trkpt lat="46.11817497" lon="6.13873816"><ele>703.341797</ele><time>2007-04-14T08:53:33Z</time></trkpt>
<trkpt lat="46.11817312" lon="6.13887998"><ele>703.82251</ele><time>2007-04-14T08:53:40Z</time></trkpt>
<trkpt lat="46.11835937" lon="6.13917327"><ele>705.745117</ele><time>2007-04-14T08:53:58Z</time></trkpt>
<trkpt lat="46.11845744" lon="6.13951273"><ele>708.148438</ele><time>2007-04-14T08:54:16Z</time></trkpt>
<trkpt lat="46.11850069" lon="6.13993602"><ele>709.590332</ele><time>2007-04-14T08:54:36Z</time></trkpt>
<trkpt lat="46.11846372" lon="6.14035436"><ele>711.032227</ele><time>2007-04-14T08:54:53Z</time></trkpt>
<trkpt lat="46.11838728" lon="6.14054203"><ele>714.396729</ele><time>2007-04-14T08:55:03Z</time></trkpt>
<trkpt lat="46.11830589" lon="6.14065309"><ele>716.800293</ele><time>2007-04-14T08:55:11Z</time></trkpt>
<trkpt lat="46.11801362" lon="6.14072685"><ele>719.203613</ele><time>2007-04-14T08:55:32Z</time></trkpt>
<trkpt lat="46.11770256" lon="6.14070598"><ele>721.606689</ele><time>2007-04-14T08:55:53Z</time></trkpt>
<trkpt lat="46.11746695" lon="6.14082593"><ele>724.971436</ele><time>2007-04-14T08:56:10Z</time></trkpt>
<trkpt lat="46.11745329" lon="6.14083238"><ele>724.971436</ele><time>2007-04-14T08:56:11Z</time></trkpt>
<trkpt lat="46.11730107" lon="6.14086499"><ele>726.894043</ele><time>2007-04-14T08:56:21Z</time></trkpt>
<trkpt lat="46.11705959" lon="6.14076692"><ele>728.335938</ele><time>2007-04-14T08:56:36Z</time></trkpt>
<trkpt lat="46.11689296" lon="6.14043516"><ele>730.258545</ele><time>2007-04-14T08:56:55Z</time></trkpt>
<trkpt lat="46.11686102" lon="6.14011522"><ele>733.142578</ele><time>2007-04-14T08:57:11Z</time></trkpt>
<trkpt lat="46.11665935" lon="6.13987173"><ele>734.584717</ele><time>2007-04-14T08:57:31Z</time></trkpt>
<trkpt lat="46.11638677" lon="6.13970585"><ele>736.507324</ele><time>2007-04-14T08:57:51Z</time></trkpt>
<trkpt lat="46.11615367" lon="6.13972899"><ele>738.910645</ele><time>2007-04-14T08:58:07Z</time></trkpt>
<trkpt lat="46.11590548" lon="6.13984918"><ele>740.833008</ele><time>2007-04-14T08:58:24Z</time></trkpt>
<trkpt lat="46.11585209" lon="6.14016426"><ele>742.755859</ele><time>2007-04-14T08:58:39Z</time></trkpt>
<trkpt lat="46.11586994" lon="6.14030474"><ele>743.236328</ele><time>2007-04-14T08:58:45Z</time></trkpt>
<trkpt lat="46.11596717" lon="6.14064815"><ele>744.678223</ele><time>2007-04-14T08:59:02Z</time></trkpt>
<trkpt lat="46.11605695" lon="6.14098962"><ele>747.562256</ele><time>2007-04-14T08:59:19Z</time></trkpt>
<trkpt lat="46.11603239" lon="6.14135239"><ele>749.96582</ele><time>2007-04-14T08:59:36Z</time></trkpt>
<trkpt lat="46.11592677" lon="6.14161014"><ele>751.407715</ele><time>2007-04-14T08:59:49Z</time></trkpt>
<trkpt lat="46.11600146" lon="6.14189805"><ele>752.849609</ele><time>2007-04-14T09:00:05Z</time></trkpt>
<trkpt lat="46.11617044" lon="6.14212026"><ele>755.25293</ele><time>2007-04-14T09:00:21Z</time></trkpt>
<trkpt lat="46.11633422" lon="6.14235219"><ele>757.65625</ele><time>2007-04-14T09:00:38Z</time></trkpt>
<trkpt lat="46.11635400" lon="6.14237909"><ele>757.65625</ele><time>2007-04-14T09:00:40Z</time></trkpt>
<trkpt lat="46.11639205" lon="6.14249786"><ele>758.136963</ele><time>2007-04-14T09:00:46Z</time></trkpt>
<trkpt lat="46.11649758" lon="6.14279752"><ele>760.540039</ele><time>2007-04-14T09:01:02Z</time></trkpt>
<trkpt lat="46.11660286" lon="6.14311519"><ele>763.904541</ele><time>2007-04-14T09:01:18Z</time></trkpt>
<trkpt lat="46.11671425" lon="6.14345206"><ele>764.385498</ele><time>2007-04-14T09:01:36Z</time></trkpt>
<trkpt lat="46.11672976" lon="6.14351945"><ele>765.827637</ele><time>2007-04-14T09:01:40Z</time></trkpt>
<trkpt lat="46.11673144" lon="6.14376118"><ele>767.269531</ele><time>2007-04-14T09:01:51Z</time></trkpt>
<trkpt lat="46.11670244" lon="6.14390887"><ele>768.230713</ele><time>2007-04-14T09:01:58Z</time></trkpt>
<trkpt lat="46.11667159" lon="6.14419562"><ele>770.15332</ele><time>2007-04-14T09:02:12Z</time></trkpt>
<trkpt lat="46.11666673" lon="6.14427835"><ele>770.15332</ele><time>2007-04-14T09:02:16Z</time></trkpt>
<trkpt lat="46.11671534" lon="6.14459493"><ele>772.075928</ele><time>2007-04-14T09:02:32Z</time></trkpt>
<trkpt lat="46.11676186" lon="6.14481814"><ele>773.998535</ele><time>2007-04-14T09:02:44Z</time></trkpt>
<trkpt lat="46.11680897" lon="6.14513414"><ele>777.363281</ele><time>2007-04-14T09:02:59Z</time></trkpt>
<trkpt lat="46.11681978" lon="6.14522249"><ele>777.84375</ele><time>2007-04-14T09:03:04Z</time></trkpt>
<trkpt lat="46.11683286" lon="6.14562825"><ele>780.247314</ele><time>2007-04-14T09:03:22Z</time></trkpt>
<trkpt lat="46.11683755" lon="6.14564778"><ele>780.728027</ele><time>2007-04-14T09:03:23Z</time></trkpt>
<trkpt lat="46.11697158" lon="6.14591466"><ele>782.650635</ele><time>2007-04-14T09:03:38Z</time></trkpt>
<trkpt lat="46.11704039" lon="6.14618012"><ele>784.573242</ele><time>2007-04-14T09:03:54Z</time></trkpt>
<trkpt lat="46.11702028" lon="6.14649125"><ele>787.937744</ele><time>2007-04-14T09:04:10Z</time></trkpt>
<trkpt lat="46.11698708" lon="6.14667792"><ele>788.418457</ele><time>2007-04-14T09:04:25Z</time></trkpt>
<trkpt lat="46.11697116" lon="6.14671715"><ele>787.937744</ele><time>2007-04-14T09:05:10Z</time></trkpt>
<trkpt lat="46.11695574" lon="6.14670608"><ele>787.937744</ele><time>2007-04-14T09:06:03Z</time></trkpt>
<trkpt lat="46.11696747" lon="6.14669804"><ele>788.418457</ele><time>2007-04-14T09:06:28Z</time></trkpt>
<trkpt lat="46.11716839" lon="6.14690515"><ele>789.379639</ele><time>2007-04-14T09:06:42Z</time></trkpt>
<trkpt lat="46.11736787" lon="6.14689928"><ele>791.302246</ele><time>2007-04-14T09:06:54Z</time></trkpt>
<trkpt lat="46.11741909" lon="6.14685327"><ele>791.782959</ele><time>2007-04-14T09:06:58Z</time></trkpt>
<trkpt lat="46.11764305" lon="6.14679770"><ele>793.224854</ele><time>2007-04-14T09:07:11Z</time></trkpt>
<trkpt lat="46.11788278" lon="6.14680633"><ele>795.147461</ele><time>2007-04-14T09:07:25Z</time></trkpt>
<trkpt lat="46.11794178" lon="6.14683273"><ele>796.589844</ele><time>2007-04-14T09:07:28Z</time></trkpt>
<trkpt lat="46.11800347" lon="6.14712803"><ele>799.473633</ele><time>2007-04-14T09:07:41Z</time></trkpt>
<trkpt lat="46.11796735" lon="6.14742123"><ele>801.39624</ele><time>2007-04-14T09:07:55Z</time></trkpt>
<trkpt lat="46.11790298" lon="6.14767528"><ele>802.838135</ele><time>2007-04-14T09:08:07Z</time></trkpt>
<trkpt lat="46.11785847" lon="6.14777092"><ele>804.760742</ele><time>2007-04-14T09:08:13Z</time></trkpt>
<trkpt lat="46.11782477" lon="6.14793730"><ele>806.202637</ele><time>2007-04-14T09:08:22Z</time></trkpt>
<trkpt lat="46.11780935" lon="6.14799228"><ele>806.68335</ele><time>2007-04-14T09:08:25Z</time></trkpt>
<trkpt lat="46.11776727" lon="6.14807032"><ele>806.68335</ele><time>2007-04-14T09:08:30Z</time></trkpt>
<trkpt lat="46.11770893" lon="6.14810100"><ele>807.164063</ele><time>2007-04-14T09:08:34Z</time></trkpt>
<trkpt lat="46.11750978" lon="6.14823930"><ele>808.605957</ele><time>2007-04-14T09:08:49Z</time></trkpt>
<trkpt lat="46.11737425" lon="6.14847198"><ele>809.08667</ele><time>2007-04-14T09:09:04Z</time></trkpt>
<trkpt lat="46.11742076" lon="6.14883869"><ele>811.970703</ele><time>2007-04-14T09:09:18Z</time></trkpt>
<trkpt lat="46.11743074" lon="6.14915276"><ele>815.335449</ele><time>2007-04-14T09:09:33Z</time></trkpt>
<trkpt lat="46.11735614" lon="6.14933037"><ele>816.777344</ele><time>2007-04-14T09:09:45Z</time></trkpt>
<trkpt lat="46.11734734" lon="6.14939659"><ele>817.738525</ele><time>2007-04-14T09:09:59Z</time></trkpt>
<trkpt lat="46.11726277" lon="6.14953883"><ele>818.219238</ele><time>2007-04-14T09:10:12Z</time></trkpt>
<trkpt lat="46.11715087" lon="6.14992247"><ele>820.622559</ele><time>2007-04-14T09:10:24Z</time></trkpt>
<trkpt lat="46.11706344" lon="6.15013923"><ele>822.064453</ele><time>2007-04-14T09:10:35Z</time></trkpt>
<trkpt lat="46.11702556" lon="6.15020494"><ele>822.064453</ele><time>2007-04-14T09:10:38Z</time></trkpt>
<trkpt lat="46.11696135" lon="6.15025096"><ele>822.545166</ele><time>2007-04-14T09:10:42Z</time></trkpt>
<trkpt lat="46.11679028" lon="6.15044978"><ele>823.987061</ele><time>2007-04-14T09:10:55Z</time></trkpt>
<trkpt lat="46.11658534" lon="6.15063518"><ele>825.909668</ele><time>2007-04-14T09:11:09Z</time></trkpt>
<trkpt lat="46.11636775" lon="6.15084029"><ele>828.313232</ele><time>2007-04-14T09:11:23Z</time></trkpt>
<trkpt lat="46.11631318" lon="6.15097876"><ele>829.755127</ele><time>2007-04-14T09:11:29Z</time></trkpt>
<trkpt lat="46.11638225" lon="6.15130858"><ele>831.197266</ele><time>2007-04-14T09:11:38Z</time></trkpt>
<trkpt lat="46.11657084" lon="6.15155820"><ele>832.158447</ele><time>2007-04-14T09:11:52Z</time></trkpt>
<trkpt lat="46.11656564" lon="6.15157102"><ele>832.63916</ele><time>2007-04-14T09:11:53Z</time></trkpt>
<trkpt lat="46.11640194" lon="6.15162064"><ele>835.04248</ele><time>2007-04-14T09:12:06Z</time></trkpt>
<trkpt lat="46.11636515" lon="6.15156876"><ele>835.522949</ele><time>2007-04-14T09:12:08Z</time></trkpt>
<trkpt lat="46.11619198" lon="6.15125243"><ele>836.484375</ele><time>2007-04-14T09:12:22Z</time></trkpt>
<trkpt lat="46.11616365" lon="6.15118856"><ele>836.484375</ele><time>2007-04-14T09:12:25Z</time></trkpt>
<trkpt lat="46.11618737" lon="6.15101480"><ele>837.92627</ele><time>2007-04-14T09:12:32Z</time></trkpt>
<trkpt lat="46.11629792" lon="6.15070970"><ele>839.368164</ele><time>2007-04-14T09:12:44Z</time></trkpt>
<trkpt lat="46.11641888" lon="6.15040384"><ele>840.810059</ele><time>2007-04-14T09:12:59Z</time></trkpt>
<trkpt lat="46.11642483" lon="6.15038146"><ele>840.32959</ele><time>2007-04-14T09:13:00Z</time></trkpt>
<trkpt lat="46.11646850" lon="6.15029706"><ele>840.32959</ele><time>2007-04-14T09:13:04Z</time></trkpt>
<trkpt lat="46.11638250" lon="6.14995365"><ele>843.694092</ele><time>2007-04-14T09:13:19Z</time></trkpt>
<trkpt lat="46.11626356" lon="6.14969909"><ele>846.097656</ele><time>2007-04-14T09:13:33Z</time></trkpt>
<trkpt lat="46.11621176" lon="6.14959792"><ele>848.020264</ele><time>2007-04-14T09:13:39Z</time></trkpt>
<trkpt lat="46.11607262" lon="6.14935677"><ele>849.942871</ele><time>2007-04-14T09:13:55Z</time></trkpt>
<trkpt lat="46.11591194" lon="6.14923742"><ele>851.865479</ele><time>2007-04-14T09:14:08Z</time></trkpt>
<trkpt lat="46.11586592" lon="6.14920967"><ele>853.307373</ele><time>2007-04-14T09:14:11Z</time></trkpt>
<trkpt lat="46.11585075" lon="6.14920028"><ele>853.788086</ele><time>2007-04-14T09:14:12Z</time></trkpt>
<trkpt lat="46.11574153" lon="6.14921973"><ele>854.268799</ele><time>2007-04-14T09:14:20Z</time></trkpt>
<trkpt lat="46.11560860" lon="6.14933037"><ele>858.114014</ele><time>2007-04-14T09:14:31Z</time></trkpt>
<trkpt lat="46.11549527" lon="6.14932115"><ele>860.036621</ele><time>2007-04-14T09:14:44Z</time></trkpt>
<trkpt lat="46.11538949" lon="6.14922602"><ele>862.920654</ele><time>2007-04-14T09:15:05Z</time></trkpt>
<trkpt lat="46.11539754" lon="6.14925016"><ele>865.323975</ele><time>2007-04-14T09:15:41Z</time></trkpt>
<trkpt lat="46.11532135" lon="6.14920347"><ele>865.804688</ele><time>2007-04-14T09:16:00Z</time></trkpt>
<trkpt lat="46.11528296" lon="6.14918243"><ele>866.765869</ele><time>2007-04-14T09:16:23Z</time></trkpt>
<trkpt lat="46.11523954" lon="6.14917992"><ele>868.688477</ele><time>2007-04-14T09:16:37Z</time></trkpt>
<trkpt lat="46.11518439" lon="6.14914203"><ele>871.572266</ele><time>2007-04-14T09:16:53Z</time></trkpt>
<trkpt lat="46.11508959" lon="6.14911144"><ele>874.937012</ele><time>2007-04-14T09:17:11Z</time></trkpt>
<trkpt lat="46.11506604" lon="6.14909953"><ele>874.937012</ele><time>2007-04-14T09:17:34Z</time></trkpt>
<trkpt lat="46.11501734" lon="6.14905855"><ele>876.37915</ele><time>2007-04-14T09:18:20Z</time></trkpt>
<trkpt lat="46.11499487" lon="6.14904723"><ele>876.37915</ele><time>2007-04-14T09:18:27Z</time></trkpt>
<trkpt lat="46.11487183" lon="6.14899862"><ele>877.821045</ele><time>2007-04-14T09:18:39Z</time></trkpt>
<trkpt lat="46.11472556" lon="6.14897272"><ele>880.705078</ele><time>2007-04-14T09:18:51Z</time></trkpt>
<trkpt lat="46.11456094" lon="6.14906282"><ele>882.146973</ele><time>2007-04-14T09:19:06Z</time></trkpt>
<trkpt lat="46.11450445" lon="6.14912468"><ele>885.511475</ele><time>2007-04-14T09:19:13Z</time></trkpt>
<trkpt lat="46.11450386" lon="6.14914513"><ele>885.031006</ele><time>2007-04-14T09:19:26Z</time></trkpt>
<trkpt lat="46.11442365" lon="6.14922895"><ele>887.434082</ele><time>2007-04-14T09:19:44Z</time></trkpt>
<trkpt lat="46.11437939" lon="6.14932392"><ele>888.395508</ele><time>2007-04-14T09:19:57Z</time></trkpt>
<trkpt lat="46.11435877" lon="6.14944923"><ele>891.76001</ele><time>2007-04-14T09:20:12Z</time></trkpt>
<trkpt lat="46.11428887" lon="6.14957747"><ele>894.644043</ele><time>2007-04-14T09:20:30Z</time></trkpt>
<trkpt lat="46.11424754" lon="6.14964075"><ele>895.124756</ele><time>2007-04-14T09:20:53Z</time></trkpt>
<trkpt lat="46.11424855" lon="6.14965224"><ele>895.124756</ele><time>2007-04-14T09:21:15Z</time></trkpt>
<trkpt lat="46.11424210" lon="6.14963497"><ele>894.644043</ele><time>2007-04-14T09:21:29Z</time></trkpt>
<trkpt lat="46.11421645" lon="6.14964545"><ele>895.124756</ele><time>2007-04-14T09:21:58Z</time></trkpt>
<trkpt lat="46.11421829" lon="6.14972097"><ele>895.605469</ele><time>2007-04-14T09:22:33Z</time></trkpt>
<trkpt lat="46.11423070" lon="6.14973564"><ele>896.086182</ele><time>2007-04-14T09:23:52Z</time></trkpt>
<trkpt lat="46.11422785" lon="6.14970127"><ele>897.528076</ele><time>2007-04-14T09:25:14Z</time></trkpt>
<trkpt lat="46.11422684" lon="6.14963153"><ele>899.450684</ele><time>2007-04-14T09:26:41Z</time></trkpt>
<trkpt lat="46.11423723" lon="6.14964235"><ele>900.892578</ele><time>2007-04-14T09:27:21Z</time></trkpt>
<trkpt lat="46.11424344" lon="6.14967135"><ele>899.450684</ele><time>2007-04-14T09:28:17Z</time></trkpt>
<trkpt lat="46.11417202" lon="6.14969339"><ele>900.412109</ele><time>2007-04-14T09:28:47Z</time></trkpt>
<trkpt lat="46.11395543" lon="6.14979909"><ele>902.815186</ele><time>2007-04-14T09:29:00Z</time></trkpt>
<trkpt lat="46.11386793" lon="6.14984913"><ele>903.776611</ele><time>2007-04-14T09:29:08Z</time></trkpt>
<trkpt lat="46.11379584" lon="6.14995583"><ele>906.6604</ele><time>2007-04-14T09:29:17Z</time></trkpt>
<trkpt lat="46.11377598" lon="6.14997176"><ele>907.141113</ele><time>2007-04-14T09:29:30Z</time></trkpt>
<trkpt lat="46.11374362" lon="6.14998206"><ele>908.102783</ele><time>2007-04-14T09:29:34Z</time></trkpt>
<trkpt lat="46.11367255" lon="6.14997603"><ele>908.583252</ele><time>2007-04-14T09:29:41Z</time></trkpt>
<trkpt lat="46.11350583" lon="6.15004602"><ele>909.063965</ele><time>2007-04-14T09:29:52Z</time></trkpt>
<trkpt lat="46.11333995" lon="6.15016353"><ele>910.986572</ele><time>2007-04-14T09:30:03Z</time></trkpt>
<trkpt lat="46.11326619" lon="6.15018692"><ele>910.986572</ele><time>2007-04-14T09:30:08Z</time></trkpt>
<trkpt lat="46.11321238" lon="6.15018860"><ele>912.428467</ele><time>2007-04-14T09:30:23Z</time></trkpt>
<trkpt lat="46.11317793" lon="6.15020226"><ele>912.90918</ele><time>2007-04-14T09:30:34Z</time></trkpt>
<trkpt lat="46.11296168" lon="6.15024786"><ele>914.351074</ele><time>2007-04-14T09:30:46Z</time></trkpt>
<trkpt lat="46.11292304" lon="6.15024836"><ele>915.793213</ele><time>2007-04-14T09:30:49Z</time></trkpt>
<trkpt lat="46.11273528" lon="6.15032866"><ele>916.754395</ele><time>2007-04-14T09:31:00Z</time></trkpt>
<trkpt lat="46.11259497" lon="6.15032296"><ele>920.118896</ele><time>2007-04-14T09:31:11Z</time></trkpt>
<trkpt lat="46.11256597" lon="6.15031742"><ele>920.118896</ele><time>2007-04-14T09:31:14Z</time></trkpt>
<trkpt lat="46.11243630" lon="6.15021768"><ele>923.483643</ele><time>2007-04-14T09:31:26Z</time></trkpt>
<trkpt lat="46.11225173" lon="6.15006857"><ele>925.886963</ele><time>2007-04-14T09:31:42Z</time></trkpt>
<trkpt lat="46.11199415" lon="6.14983656"><ele>926.848389</ele><time>2007-04-14T09:31:57Z</time></trkpt>
<trkpt lat="46.11183783" lon="6.14962257"><ele>930.212891</ele><time>2007-04-14T09:32:11Z</time></trkpt>
<trkpt lat="46.11172199" lon="6.14942492"><ele>933.09668</ele><time>2007-04-14T09:32:26Z</time></trkpt>
<trkpt lat="46.11156936" lon="6.14915519"><ele>936.461426</ele><time>2007-04-14T09:32:43Z</time></trkpt>
<trkpt lat="46.11149895" lon="6.14908176"><ele>936.941895</ele><time>2007-04-14T09:32:49Z</time></trkpt>
<trkpt lat="46.11140063" lon="6.14902569"><ele>939.825928</ele><time>2007-04-14T09:33:02Z</time></trkpt>
<trkpt lat="46.11138077" lon="6.14901295"><ele>939.825928</ele><time>2007-04-14T09:33:04Z</time></trkpt>
<trkpt lat="46.11127222" lon="6.14903566"><ele>942.710205</ele><time>2007-04-14T09:33:14Z</time></trkpt>
<trkpt lat="46.11124883" lon="6.14904765"><ele>943.190674</ele><time>2007-04-14T09:33:16Z</time></trkpt>
<trkpt lat="46.11112512" lon="6.14904514"><ele>947.035889</ele><time>2007-04-14T09:33:26Z</time></trkpt>
<trkpt lat="46.11096452" lon="6.14904899"><ele>949.919922</ele><time>2007-04-14T09:33:42Z</time></trkpt>
<trkpt lat="46.11085354" lon="6.14907967"><ele>953.284424</ele><time>2007-04-14T09:33:53Z</time></trkpt>
<trkpt lat="46.11077844" lon="6.14914999"><ele>954.726318</ele><time>2007-04-14T09:34:10Z</time></trkpt>
<trkpt lat="46.11070359" lon="6.14922535"><ele>956.64917</ele><time>2007-04-14T09:34:31Z</time></trkpt>
<trkpt lat="46.11067367" lon="6.14929123"><ele>959.533203</ele><time>2007-04-14T09:34:48Z</time></trkpt>
<trkpt lat="46.11063846" lon="6.14934353"><ele>960.494385</ele><time>2007-04-14T09:35:02Z</time></trkpt>
<trkpt lat="46.11065146" lon="6.14937622"><ele>961.936523</ele><time>2007-04-14T09:35:15Z</time></trkpt>
<trkpt lat="46.11060494" lon="6.14938133"><ele>964.820313</ele><time>2007-04-14T09:35:30Z</time></trkpt>
<trkpt lat="46.11052874" lon="6.14941277"><ele>966.262207</ele><time>2007-04-14T09:35:55Z</time></trkpt>
<trkpt lat="46.11049622" lon="6.14946767"><ele>967.704102</ele><time>2007-04-14T09:36:08Z</time></trkpt>
<trkpt lat="46.11048616" lon="6.14953615"><ele>970.588135</ele><time>2007-04-14T09:36:24Z</time></trkpt>
<trkpt lat="46.11047485" lon="6.14960723"><ele>972.030273</ele><time>2007-04-14T09:36:45Z</time></trkpt>
<trkpt lat="46.11049396" lon="6.14971720"><ele>974.914307</ele><time>2007-04-14T09:37:02Z</time></trkpt>
<trkpt lat="46.11046412" lon="6.14975248"><ele>975.875488</ele><time>2007-04-14T09:37:15Z</time></trkpt>
<trkpt lat="46.11038508" lon="6.14977629"><ele>978.278809</ele><time>2007-04-14T09:37:31Z</time></trkpt>
<trkpt lat="46.11031635" lon="6.14974083"><ele>981.162842</ele><time>2007-04-14T09:37:47Z</time></trkpt>
<trkpt lat="46.11026639" lon="6.14963925"><ele>982.124023</ele><time>2007-04-14T09:38:01Z</time></trkpt>
<trkpt lat="46.11021367" lon="6.14962022"><ele>983.085205</ele><time>2007-04-14T09:38:18Z</time></trkpt>
<trkpt lat="46.11016070" lon="6.14958602"><ele>984.046631</ele><time>2007-04-14T09:38:33Z</time></trkpt>
<trkpt lat="46.11009138" lon="6.14949256"><ele>986.449951</ele><time>2007-04-14T09:38:40Z</time></trkpt>
<trkpt lat="46.11008325" lon="6.14946716"><ele>985.969238</ele><time>2007-04-14T09:38:41Z</time></trkpt>
<trkpt lat="46.11004109" lon="6.14940983"><ele>988.372803</ele><time>2007-04-14T09:38:45Z</time></trkpt>
<trkpt lat="46.10993589" lon="6.14928687"><ele>991.737305</ele><time>2007-04-14T09:38:56Z</time></trkpt>
<trkpt lat="46.10986423" lon="6.14923499"><ele>994.140625</ele><time>2007-04-14T09:39:23Z</time></trkpt>
<trkpt lat="46.10979357" lon="6.14922317"><ele>996.543945</ele><time>2007-04-14T09:39:40Z</time></trkpt>
<trkpt lat="46.10968762" lon="6.14918897"><ele>997.98584</ele><time>2007-04-14T09:39:56Z</time></trkpt>
<trkpt lat="46.10965770" lon="6.14910264"><ele>998.947021</ele><time>2007-04-14T09:40:21Z</time></trkpt>
<trkpt lat="46.10965627" lon="6.14919894"><ele>998.947021</ele><time>2007-04-14T09:42:17Z</time></trkpt>
<trkpt lat="46.10958125" lon="6.14901815"><ele>1000.38916</ele><time>2007-04-14T09:43:02Z</time></trkpt>
<trkpt lat="46.10944857" lon="6.14890943"><ele>998.947021</ele><time>2007-04-14T09:43:23Z</time></trkpt>
<trkpt lat="46.10940197" lon="6.14887683"><ele>998.947021</ele><time>2007-04-14T09:43:28Z</time></trkpt>
<trkpt lat="46.10937087" lon="6.14887222"><ele>997.505127</ele><time>2007-04-14T09:43:30Z</time></trkpt>
<trkpt lat="46.10925738" lon="6.14887976"><ele>997.505127</ele><time>2007-04-14T09:43:44Z</time></trkpt>
<trkpt lat="46.10914724" lon="6.14872419"><ele>997.98584</ele><time>2007-04-14T09:43:56Z</time></trkpt>
<trkpt lat="46.10913785" lon="6.14863962"><ele>998.466309</ele><time>2007-04-14T09:44:04Z</time></trkpt>
<trkpt lat="46.10892847" lon="6.14839177"><ele>998.466309</ele><time>2007-04-14T09:44:15Z</time></trkpt>
<trkpt lat="46.10883158" lon="6.14821348"><ele>1000.38916</ele><time>2007-04-14T09:44:21Z</time></trkpt>
<trkpt lat="46.10865162" lon="6.14816596"><ele>1002.311523</ele><time>2007-04-14T09:44:29Z</time></trkpt>
<trkpt lat="46.10861893" lon="6.14812966"><ele>1002.792236</ele><time>2007-04-14T09:44:31Z</time></trkpt>
<trkpt lat="46.10857727" lon="6.14807996"><ele>1004.234619</ele><time>2007-04-14T09:44:34Z</time></trkpt>
<trkpt lat="46.10853352" lon="6.14802313"><ele>1004.234619</ele><time>2007-04-14T09:44:37Z</time></trkpt>
<trkpt lat="46.10847468" lon="6.14791408"><ele>1004.234619</ele><time>2007-04-14T09:44:42Z</time></trkpt>
<trkpt lat="46.10840494" lon="6.14780688"><ele>1002.792236</ele><time>2007-04-14T09:44:46Z</time></trkpt>
<trkpt lat="46.10832229" lon="6.14766506"><ele>1003.753662</ele><time>2007-04-14T09:44:58Z</time></trkpt>
<trkpt lat="46.10817226" lon="6.14754117"><ele>1003.753662</ele><time>2007-04-14T09:45:07Z</time></trkpt>
<trkpt lat="46.10812305" lon="6.14744939"><ele>1004.715088</ele><time>2007-04-14T09:45:13Z</time></trkpt>
<trkpt lat="46.10806916" lon="6.14733858"><ele>1004.715088</ele><time>2007-04-14T09:45:19Z</time></trkpt>
<trkpt lat="46.10807997" lon="6.14713272"><ele>1006.637695</ele><time>2007-04-14T09:45:39Z</time></trkpt>
<trkpt lat="46.10799992" lon="6.14705997"><ele>1007.599121</ele><time>2007-04-14T09:46:15Z</time></trkpt>
<trkpt lat="46.10798199" lon="6.14696408"><ele>1010.963623</ele><time>2007-04-14T09:46:30Z</time></trkpt>
<trkpt lat="46.10793178" lon="6.14688043"><ele>1012.405518</ele><time>2007-04-14T09:46:43Z</time></trkpt>
<trkpt lat="46.10784134" lon="6.14687883"><ele>1012.405518</ele><time>2007-04-14T09:46:57Z</time></trkpt>
<trkpt lat="46.10771745" lon="6.14685444"><ele>1012.88623</ele><time>2007-04-14T09:47:04Z</time></trkpt>
<trkpt lat="46.10759969" lon="6.14680323"><ele>1013.847412</ele><time>2007-04-14T09:47:11Z</time></trkpt>
<trkpt lat="46.10754646" lon="6.14678060"><ele>1014.808838</ele><time>2007-04-14T09:47:14Z</time></trkpt>
<trkpt lat="46.10747044" lon="6.14673617"><ele>1016.250732</ele><time>2007-04-14T09:47:20Z</time></trkpt>
<trkpt lat="46.10735712" lon="6.14668848"><ele>1015.770264</ele><time>2007-04-14T09:47:26Z</time></trkpt>
<trkpt lat="46.10725846" lon="6.14659728"><ele>1014.328125</ele><time>2007-04-14T09:47:30Z</time></trkpt>
<trkpt lat="46.10719535" lon="6.14651095"><ele>1016.250732</ele><time>2007-04-14T09:47:33Z</time></trkpt>
<trkpt lat="46.10717246" lon="6.14641942"><ele>1014.328125</ele><time>2007-04-14T09:47:36Z</time></trkpt>
<trkpt lat="46.10715327" lon="6.14633393"><ele>1012.88623</ele><time>2007-04-14T09:47:38Z</time></trkpt>
<trkpt lat="46.10703374" lon="6.14588776"><ele>1009.521729</ele><time>2007-04-14T09:47:47Z</time></trkpt>
<trkpt lat="46.10695504" lon="6.14560403"><ele>1005.676514</ele><time>2007-04-14T09:47:54Z</time></trkpt>
<trkpt lat="46.10687918" lon="6.14546648"><ele>1000.38916</ele><time>2007-04-14T09:47:57Z</time></trkpt>
<trkpt lat="46.10681992" lon="6.14536162"><ele>997.505127</ele><time>2007-04-14T09:47:59Z</time></trkpt>
<trkpt lat="46.10677860" lon="6.14527764"><ele>997.505127</ele><time>2007-04-14T09:48:00Z</time></trkpt>
<trkpt lat="46.10671045" lon="6.14506038"><ele>998.947021</ele><time>2007-04-14T09:48:03Z</time></trkpt>
<trkpt lat="46.10665974" lon="6.14493398"><ele>997.98584</ele><time>2007-04-14T09:48:05Z</time></trkpt>
<trkpt lat="46.10661825" lon="6.14480004"><ele>997.505127</ele><time>2007-04-14T09:48:07Z</time></trkpt>
<trkpt lat="46.10645824" lon="6.14456375"><ele>995.101807</ele><time>2007-04-14T09:48:12Z</time></trkpt>
<trkpt lat="46.10625523" lon="6.14418137"><ele>997.505127</ele><time>2007-04-14T09:48:22Z</time></trkpt>
<trkpt lat="46.10615943" lon="6.14365532"><ele>1000.38916</ele><time>2007-04-14T09:48:32Z</time></trkpt>
<trkpt lat="46.10614015" lon="6.14361324"><ele>1000.38916</ele><time>2007-04-14T09:48:33Z</time></trkpt>
<trkpt lat="46.10601727" lon="6.14348307"><ele>1002.792236</ele><time>2007-04-14T09:48:39Z</time></trkpt>
<trkpt lat="46.10593244" lon="6.14350403"><ele>1003.272949</ele><time>2007-04-14T09:48:43Z</time></trkpt>
<trkpt lat="46.10589665" lon="6.14350093"><ele>1003.753662</ele><time>2007-04-14T09:48:45Z</time></trkpt>
<trkpt lat="46.10574989" lon="6.14349238"><ele>1003.272949</ele><time>2007-04-14T09:48:52Z</time></trkpt>
<trkpt lat="46.10563589" lon="6.14342976"><ele>1004.715088</ele><time>2007-04-14T09:48:59Z</time></trkpt>
<trkpt lat="46.10562148" lon="6.14331703"><ele>1004.234619</ele><time>2007-04-14T09:49:03Z</time></trkpt>
<trkpt lat="46.10545124" lon="6.14305928"><ele>1006.156982</ele><time>2007-04-14T09:49:15Z</time></trkpt>
<trkpt lat="46.10539986" lon="6.14284035"><ele>1005.195801</ele><time>2007-04-14T09:49:49Z</time></trkpt>
<trkpt lat="46.10534177" lon="6.14302492"><ele>1008.079834</ele><time>2007-04-14T09:51:24Z</time></trkpt>
<trkpt lat="46.10535242" lon="6.14295778"><ele>1008.079834</ele><time>2007-04-14T09:51:32Z</time></trkpt>
<trkpt lat="46.10516307" lon="6.14250214"><ele>1004.715088</ele><time>2007-04-14T09:51:43Z</time></trkpt>
<trkpt lat="46.10499803" lon="6.14226426"><ele>1001.831055</ele><time>2007-04-14T09:51:49Z</time></trkpt>
<trkpt lat="46.10499820" lon="6.14218866"><ele>1000.38916</ele><time>2007-04-14T09:51:51Z</time></trkpt>
<trkpt lat="46.10505570" lon="6.14190015"><ele>997.024414</ele><time>2007-04-14T09:51:57Z</time></trkpt>
<trkpt lat="46.10512963" lon="6.14156999"><ele>994.140625</ele><time>2007-04-14T09:52:04Z</time></trkpt>
<trkpt lat="46.10518344" lon="6.14134284"><ele>990.775879</ele><time>2007-04-14T09:52:09Z</time></trkpt>
<trkpt lat="46.10519048" lon="6.14129229"><ele>989.814697</ele><time>2007-04-14T09:52:10Z</time></trkpt>
<trkpt lat="46.10509308" lon="6.14107043"><ele>988.853516</ele><time>2007-04-14T09:52:13Z</time></trkpt>
<trkpt lat="46.10505712" lon="6.14100614"><ele>987.891846</ele><time>2007-04-14T09:52:14Z</time></trkpt>
<trkpt lat="46.10498420" lon="6.14089373"><ele>987.411133</ele><time>2007-04-14T09:52:16Z</time></trkpt>
<trkpt lat="46.10488613" lon="6.14071252"><ele>985.969238</ele><time>2007-04-14T09:52:19Z</time></trkpt>
<trkpt lat="46.10474993" lon="6.14033282"><ele>984.527344</ele><time>2007-04-14T09:52:24Z</time></trkpt>
<trkpt lat="46.10446419" lon="6.13970233"><ele>981.162842</ele><time>2007-04-14T09:52:36Z</time></trkpt>
<trkpt lat="46.10445363" lon="6.13956453"><ele>979.720703</ele><time>2007-04-14T09:52:39Z</time></trkpt>
<trkpt lat="46.10447802" lon="6.13947175"><ele>978.278809</ele><time>2007-04-14T09:52:41Z</time></trkpt>
<trkpt lat="46.10454809" lon="6.13934308"><ele>977.798096</ele><time>2007-04-14T09:52:46Z</time></trkpt>
<trkpt lat="46.10454448" lon="6.13924527"><ele>974.433594</ele><time>2007-04-14T09:52:49Z</time></trkpt>
<trkpt lat="46.10447014" lon="6.13912448"><ele>972.030273</ele><time>2007-04-14T09:52:54Z</time></trkpt>
<trkpt lat="46.10434592" lon="6.13898694"><ele>967.223633</ele><time>2007-04-14T09:53:00Z</time></trkpt>
<trkpt lat="46.10422413" lon="6.13887185"><ele>964.820313</ele><time>2007-04-14T09:53:04Z</time></trkpt>
<trkpt lat="46.10406345" lon="6.13867823"><ele>961.455811</ele><time>2007-04-14T09:53:09Z</time></trkpt>
<trkpt lat="46.10402539" lon="6.13862727"><ele>961.455811</ele><time>2007-04-14T09:53:10Z</time></trkpt>
<trkpt lat="46.10394317" lon="6.13840892"><ele>958.091309</ele><time>2007-04-14T09:53:14Z</time></trkpt>
<trkpt lat="46.10391375" lon="6.13832946"><ele>957.129883</ele><time>2007-04-14T09:53:15Z</time></trkpt>
<trkpt lat="46.10370277" lon="6.13796795"><ele>954.726318</ele><time>2007-04-14T09:53:20Z</time></trkpt>
<trkpt lat="46.10349599" lon="6.13752974"><ele>951.842529</ele><time>2007-04-14T09:53:29Z</time></trkpt>
<trkpt lat="46.10350932" lon="6.13752144"><ele>948.477783</ele><time>2007-04-14T09:53:46Z</time></trkpt>
<trkpt lat="46.10347814" lon="6.13749186"><ele>948.958496</ele><time>2007-04-14T09:53:47Z</time></trkpt>
<trkpt lat="46.10339709" lon="6.13733386"><ele>945.593994</ele><time>2007-04-14T09:53:52Z</time></trkpt>
<trkpt lat="46.10319592" lon="6.13706446"><ele>941.268066</ele><time>2007-04-14T09:53:58Z</time></trkpt>
<trkpt lat="46.10315267" lon="6.13701124"><ele>941.268066</ele><time>2007-04-14T09:53:59Z</time></trkpt>
<trkpt lat="46.10299878" lon="6.13682566"><ele>938.384033</ele><time>2007-04-14T09:54:02Z</time></trkpt>
<trkpt lat="46.10284648" lon="6.13655996"><ele>935.980713</ele><time>2007-04-14T09:54:06Z</time></trkpt>
<trkpt lat="46.10277188" lon="6.13641813"><ele>934.538818</ele><time>2007-04-14T09:54:08Z</time></trkpt>
<trkpt lat="46.10270985" lon="6.13628863"><ele>934.538818</ele><time>2007-04-14T09:54:10Z</time></trkpt>
<trkpt lat="46.10266157" lon="6.13593425"><ele>931.174316</ele><time>2007-04-14T09:54:14Z</time></trkpt>
<trkpt lat="46.10267482" lon="6.13585152"><ele>931.654785</ele><time>2007-04-14T09:54:15Z</time></trkpt>
<trkpt lat="46.10268085" lon="6.13569737"><ele>931.174316</ele><time>2007-04-14T09:54:17Z</time></trkpt>
<trkpt lat="46.10280633" lon="6.13552487"><ele>930.212891</ele><time>2007-04-14T09:54:21Z</time></trkpt>
<trkpt lat="46.10280977" lon="6.13545413"><ele>930.693604</ele><time>2007-04-14T09:54:23Z</time></trkpt>
<trkpt lat="46.10282008" lon="6.13529982"><ele>930.212891</ele><time>2007-04-14T09:54:28Z</time></trkpt>
<trkpt lat="46.10291429" lon="6.13475475"><ele>925.40625</ele><time>2007-04-14T09:54:38Z</time></trkpt>
<trkpt lat="46.10292644" lon="6.13461024"><ele>923.483643</ele><time>2007-04-14T09:54:40Z</time></trkpt>
<trkpt lat="46.10299660" lon="6.13428913"><ele>919.638428</ele><time>2007-04-14T09:54:44Z</time></trkpt>
<trkpt lat="46.10301856" lon="6.13418276"><ele>918.677002</ele><time>2007-04-14T09:54:45Z</time></trkpt>
<trkpt lat="46.10315787" lon="6.13391873"><ele>913.870361</ele><time>2007-04-14T09:54:49Z</time></trkpt>
<trkpt lat="46.10338409" lon="6.13399233"><ele>910.505859</ele><time>2007-04-14T09:54:52Z</time></trkpt>
<trkpt lat="46.10352349" lon="6.13405528"><ele>908.102783</ele><time>2007-04-14T09:54:54Z</time></trkpt>
<trkpt lat="46.10361929" lon="6.13407305"><ele>907.141113</ele><time>2007-04-14T09:54:56Z</time></trkpt>
<trkpt lat="46.10382037" lon="6.13399694"><ele>903.776611</ele><time>2007-04-14T09:55:00Z</time></trkpt>
<trkpt lat="46.10397460" lon="6.13385168"><ele>901.373291</ele><time>2007-04-14T09:55:03Z</time></trkpt>
<trkpt lat="46.10402196" lon="6.13362688"><ele>895.605469</ele><time>2007-04-14T09:55:07Z</time></trkpt>
<trkpt lat="46.10396362" lon="6.13338028"><ele>893.202148</ele><time>2007-04-14T09:55:11Z</time></trkpt>
<trkpt lat="46.10393445" lon="6.13314785"><ele>889.837402</ele><time>2007-04-14T09:55:15Z</time></trkpt>
<trkpt lat="46.10390889" lon="6.13303528"><ele>889.356689</ele><time>2007-04-14T09:55:27Z</time></trkpt>
<trkpt lat="46.10388475" lon="6.13288986"><ele>887.914795</ele><time>2007-04-14T09:56:12Z</time></trkpt>
<trkpt lat="46.10389983" lon="6.13273948"><ele>886.953369</ele><time>2007-04-14T09:56:24Z</time></trkpt>
<trkpt lat="46.10389413" lon="6.13272079"><ele>884.550293</ele><time>2007-04-14T09:57:15Z</time></trkpt>
<trkpt lat="46.10390126" lon="6.13232533"><ele>882.146973</ele><time>2007-04-14T09:57:21Z</time></trkpt>
<trkpt lat="46.10392749" lon="6.13205477"><ele>878.782471</ele><time>2007-04-14T09:57:26Z</time></trkpt>
<trkpt lat="46.10397929" lon="6.13174648"><ele>875.41748</ele><time>2007-04-14T09:57:33Z</time></trkpt>
<trkpt lat="46.10400402" lon="6.13163928"><ele>874.456299</ele><time>2007-04-14T09:57:35Z</time></trkpt>
<trkpt lat="46.10401953" lon="6.13158907"><ele>873.975586</ele><time>2007-04-14T09:57:36Z</time></trkpt>
<trkpt lat="46.10416328" lon="6.13135614"><ele>870.611084</ele><time>2007-04-14T09:57:41Z</time></trkpt>
<trkpt lat="46.10426822" lon="6.13122513"><ele>868.207764</ele><time>2007-04-14T09:57:44Z</time></trkpt>
<trkpt lat="46.10435497" lon="6.13109194"><ele>866.285156</ele><time>2007-04-14T09:57:47Z</time></trkpt>
<trkpt lat="46.10456854" lon="6.13074753"><ele>862.920654</ele><time>2007-04-14T09:57:53Z</time></trkpt>
<trkpt lat="46.10463635" lon="6.13061207"><ele>861.959473</ele><time>2007-04-14T09:57:55Z</time></trkpt>
<trkpt lat="46.10473643" lon="6.13042977"><ele>860.517334</ele><time>2007-04-14T09:57:58Z</time></trkpt>
<trkpt lat="46.10485185" lon="6.13021645"><ele>858.114014</ele><time>2007-04-14T09:58:03Z</time></trkpt>
<trkpt lat="46.10489326" lon="6.13003163"><ele>854.749268</ele><time>2007-04-14T09:58:07Z</time></trkpt>
<trkpt lat="46.10489393" lon="6.12998678"><ele>854.268799</ele><time>2007-04-14T09:58:08Z</time></trkpt>
<trkpt lat="46.10468815" lon="6.12976064"><ele>851.865479</ele><time>2007-04-14T09:58:18Z</time></trkpt>
<trkpt lat="46.10465135" lon="6.12973725"><ele>850.904053</ele><time>2007-04-14T09:58:19Z</time></trkpt>
<trkpt lat="46.10435179" lon="6.12958143"><ele>849.942871</ele><time>2007-04-14T09:58:26Z</time></trkpt>
<trkpt lat="46.10417208" lon="6.12957087"><ele>848.981445</ele><time>2007-04-14T09:58:30Z</time></trkpt>
<trkpt lat="46.10395624" lon="6.12959853"><ele>846.578369</ele><time>2007-04-14T09:58:34Z</time></trkpt>
<trkpt lat="46.10344478" lon="6.12933484"><ele>843.694092</ele><time>2007-04-14T09:58:42Z</time></trkpt>
<trkpt lat="46.10317572" lon="6.12899898"><ele>842.73291</ele><time>2007-04-14T09:58:47Z</time></trkpt>
<trkpt lat="46.10306374" lon="6.12890200"><ele>841.771484</ele><time>2007-04-14T09:58:49Z</time></trkpt>
<trkpt lat="46.10294304" lon="6.12886746"><ele>841.771484</ele><time>2007-04-14T09:58:51Z</time></trkpt>
<trkpt lat="46.10281488" lon="6.12885254"><ele>840.810059</ele><time>2007-04-14T09:58:53Z</time></trkpt>
<trkpt lat="46.10250366" lon="6.12846958"><ele>836.964844</ele><time>2007-04-14T09:58:59Z</time></trkpt>
<trkpt lat="46.10245546" lon="6.12838374"><ele>836.484375</ele><time>2007-04-14T09:59:00Z</time></trkpt>
<trkpt lat="46.10216788" lon="6.12799558"><ele>833.119629</ele><time>2007-04-14T09:59:05Z</time></trkpt>
<trkpt lat="46.10197728" lon="6.12754329"><ele>829.274414</ele><time>2007-04-14T09:59:10Z</time></trkpt>
<trkpt lat="46.10197560" lon="6.12734657"><ele>829.274414</ele><time>2007-04-14T09:59:12Z</time></trkpt>
<trkpt lat="46.10180863" lon="6.12695756"><ele>828.313232</ele><time>2007-04-14T09:59:20Z</time></trkpt>
<trkpt lat="46.10169305" lon="6.12687022"><ele>829.755127</ele><time>2007-04-14T09:59:24Z</time></trkpt>
<trkpt lat="46.10160294" lon="6.12679487"><ele>832.158447</ele><time>2007-04-14T09:59:28Z</time></trkpt>
<trkpt lat="46.10140429" lon="6.12696477"><ele>834.081055</ele><time>2007-04-14T09:59:41Z</time></trkpt>
<trkpt lat="46.10125585" lon="6.12726895"><ele>836.964844</ele><time>2007-04-14T09:59:56Z</time></trkpt>
<trkpt lat="46.10103783" lon="6.12756944"><ele>838.406982</ele><time>2007-04-14T10:00:12Z</time></trkpt>
<trkpt lat="46.10076928" lon="6.12747867"><ele>838.406982</ele><time>2007-04-14T10:00:25Z</time></trkpt>
<trkpt lat="46.10041858" lon="6.12707357"><ele>838.406982</ele><time>2007-04-14T10:00:40Z</time></trkpt>
<trkpt lat="46.10027709" lon="6.12687215"><ele>841.290771</ele><time>2007-04-14T10:00:50Z</time></trkpt>
<trkpt lat="46.10026636" lon="6.12685648"><ele>841.290771</ele><time>2007-04-14T10:00:51Z</time></trkpt>
<trkpt lat="46.10007559" lon="6.12660309"><ele>844.175049</ele><time>2007-04-14T10:01:07Z</time></trkpt>
<trkpt lat="46.09980955" lon="6.12657510"><ele>845.616943</ele><time>2007-04-14T10:01:23Z</time></trkpt>
<trkpt lat="46.09977325" lon="6.12655993"><ele>845.13623</ele><time>2007-04-14T10:01:25Z</time></trkpt>
<trkpt lat="46.09972858" lon="6.12643990"><ele>844.175049</ele><time>2007-04-14T10:01:29Z</time></trkpt>
<trkpt lat="46.09970536" lon="6.12633454"><ele>842.73291</ele><time>2007-04-14T10:01:31Z</time></trkpt>
<trkpt lat="46.09966865" lon="6.12608543"><ele>840.810059</ele><time>2007-04-14T10:01:36Z</time></trkpt>
<trkpt lat="46.09969648" lon="6.12597487"><ele>837.92627</ele><time>2007-04-14T10:01:38Z</time></trkpt>
<trkpt lat="46.09976018" lon="6.12576574"><ele>834.081055</ele><time>2007-04-14T10:01:41Z</time></trkpt>
<trkpt lat="46.09978868" lon="6.12569684"><ele>834.081055</ele><time>2007-04-14T10:01:42Z</time></trkpt>
<trkpt lat="46.09986755" lon="6.12544103"><ele>830.716553</ele><time>2007-04-14T10:01:46Z</time></trkpt>
<trkpt lat="46.09988255" lon="6.12537514"><ele>829.755127</ele><time>2007-04-14T10:01:47Z</time></trkpt>
<trkpt lat="46.09989605" lon="6.12524380"><ele>828.793945</ele><time>2007-04-14T10:01:49Z</time></trkpt>
<trkpt lat="46.09989119" lon="6.12504448"><ele>826.390381</ele><time>2007-04-14T10:01:52Z</time></trkpt>
<trkpt lat="46.09995858" lon="6.12471792"><ele>825.428955</ele><time>2007-04-14T10:01:57Z</time></trkpt>
<trkpt lat="46.10001273" lon="6.12459688"><ele>824.948486</ele><time>2007-04-14T10:01:59Z</time></trkpt>
<trkpt lat="46.10016796" lon="6.12421643"><ele>815.335449</ele><time>2007-04-14T10:02:05Z</time></trkpt>
<trkpt lat="46.10021666" lon="6.12409648"><ele>812.932129</ele><time>2007-04-14T10:02:07Z</time></trkpt>
<trkpt lat="46.10032906" lon="6.12388954"><ele>811.48999</ele><time>2007-04-14T10:02:11Z</time></trkpt>
<trkpt lat="46.10042688" lon="6.12365669"><ele>807.164063</ele><time>2007-04-14T10:02:15Z</time></trkpt>
<trkpt lat="46.10060407" lon="6.12337204"><ele>802.838135</ele><time>2007-04-14T10:02:20Z</time></trkpt>
<trkpt lat="46.10064263" lon="6.12332853"><ele>801.876953</ele><time>2007-04-14T10:02:21Z</time></trkpt>
<trkpt lat="46.10070666" lon="6.12324296"><ele>800.435059</ele><time>2007-04-14T10:02:23Z</time></trkpt>
<trkpt lat="46.10076827" lon="6.12315872"><ele>799.954346</ele><time>2007-04-14T10:02:25Z</time></trkpt>
<trkpt lat="46.10102828" lon="6.12294054"><ele>797.070313</ele><time>2007-04-14T10:02:33Z</time></trkpt>
<trkpt lat="46.10124763" lon="6.12267852"><ele>795.628174</ele><time>2007-04-14T10:02:43Z</time></trkpt>
<trkpt lat="46.10125853" lon="6.12265497"><ele>795.147461</ele><time>2007-04-14T10:03:13Z</time></trkpt>
<trkpt lat="46.10140043" lon="6.12244206"><ele>792.263672</ele><time>2007-04-14T10:03:24Z</time></trkpt>
<trkpt lat="46.10142952" lon="6.12240309"><ele>792.263672</ele><time>2007-04-14T10:03:25Z</time></trkpt>
<trkpt lat="46.10155416" lon="6.12217862"><ele>788.418457</ele><time>2007-04-14T10:03:29Z</time></trkpt>
<trkpt lat="46.10159062" lon="6.12211224"><ele>787.937744</ele><time>2007-04-14T10:03:30Z</time></trkpt>
<trkpt lat="46.10173068" lon="6.12184485"><ele>786.015137</ele><time>2007-04-14T10:03:35Z</time></trkpt>
<trkpt lat="46.10163018" lon="6.12173463"><ele>784.092529</ele><time>2007-04-14T10:03:40Z</time></trkpt>
<trkpt lat="46.10086760" lon="6.12174662"><ele>781.689209</ele><time>2007-04-14T10:03:55Z</time></trkpt>
<trkpt lat="46.10072116" lon="6.12171837"><ele>781.689209</ele><time>2007-04-14T10:03:58Z</time></trkpt>
<trkpt lat="46.10016779" lon="6.12144646"><ele>782.650635</ele><time>2007-04-14T10:04:13Z</time></trkpt>
<trkpt lat="46.09973419" lon="6.12150715"><ele>786.015137</ele><time>2007-04-14T10:04:26Z</time></trkpt>
<trkpt lat="46.09971106" lon="6.12152148"><ele>785.534424</ele><time>2007-04-14T10:04:27Z</time></trkpt>
<trkpt lat="46.09930362" lon="6.12173882"><ele>788.418457</ele><time>2007-04-14T10:04:45Z</time></trkpt>
<trkpt lat="46.09901863" lon="6.12167638"><ele>791.782959</ele><time>2007-04-14T10:04:57Z</time></trkpt>
<trkpt lat="46.09867983" lon="6.12175416"><ele>795.147461</ele><time>2007-04-14T10:05:15Z</time></trkpt>
<trkpt lat="46.09823132" lon="6.12168250"><ele>796.109131</ele><time>2007-04-14T10:05:34Z</time></trkpt>
<trkpt lat="46.09777509" lon="6.12184108"><ele>798.031738</ele><time>2007-04-14T10:05:52Z</time></trkpt>
<trkpt lat="46.09760779" lon="6.12200579"><ele>800.435059</ele><time>2007-04-14T10:06:01Z</time></trkpt>
<trkpt lat="46.09755700" lon="6.12206295"><ele>801.39624</ele><time>2007-04-14T10:06:05Z</time></trkpt>
<trkpt lat="46.09732356" lon="6.12230812"><ele>804.280273</ele><time>2007-04-14T10:06:21Z</time></trkpt>
<trkpt lat="46.09708032" lon="6.12261607"><ele>805.722168</ele><time>2007-04-14T10:06:37Z</time></trkpt>
<trkpt lat="46.09687873" lon="6.12269713"><ele>809.08667</ele><time>2007-04-14T10:06:48Z</time></trkpt>
<trkpt lat="46.09658654" lon="6.12260107"><ele>809.08667</ele><time>2007-04-14T10:07:04Z</time></trkpt>
<trkpt lat="46.09631429" lon="6.12260778"><ele>809.567383</ele><time>2007-04-14T10:07:17Z</time></trkpt>
<trkpt lat="46.09603836" lon="6.12258305"><ele>812.451416</ele><time>2007-04-14T10:07:30Z</time></trkpt>
<trkpt lat="46.09571767" lon="6.12255229"><ele>813.412842</ele><time>2007-04-14T10:07:46Z</time></trkpt>
<trkpt lat="46.09539522" lon="6.12244776"><ele>815.335449</ele><time>2007-04-14T10:08:02Z</time></trkpt>
<trkpt lat="46.09508358" lon="6.12231684"><ele>813.893311</ele><time>2007-04-14T10:08:13Z</time></trkpt>
<trkpt lat="46.09474537" lon="6.12219396"><ele>813.412842</ele><time>2007-04-14T10:08:26Z</time></trkpt>
<trkpt lat="46.09441554" lon="6.12212515"><ele>814.854736</ele><time>2007-04-14T10:08:37Z</time></trkpt>
<trkpt lat="46.09405822" lon="6.12211626"><ele>817.258057</ele><time>2007-04-14T10:08:52Z</time></trkpt>
<trkpt lat="46.09395303" lon="6.12208676"><ele>818.219238</ele><time>2007-04-14T10:08:58Z</time></trkpt>
<trkpt lat="46.09366452" lon="6.12195340"><ele>821.103271</ele><time>2007-04-14T10:09:12Z</time></trkpt>
<trkpt lat="46.09362982" lon="6.12193228"><ele>822.064453</ele><time>2007-04-14T10:09:14Z</time></trkpt>
<trkpt lat="46.09349722" lon="6.12188308"><ele>823.025879</ele><time>2007-04-14T10:09:22Z</time></trkpt>
<trkpt lat="46.09342882" lon="6.12186338"><ele>823.987061</ele><time>2007-04-14T10:09:27Z</time></trkpt>
<trkpt lat="46.09301275" lon="6.12179607"><ele>824.467773</ele><time>2007-04-14T10:09:43Z</time></trkpt>
<trkpt lat="46.09278560" lon="6.12165593"><ele>825.428955</ele><time>2007-04-14T10:09:56Z</time></trkpt>
<trkpt lat="46.09263648" lon="6.12152508"><ele>829.274414</ele><time>2007-04-14T10:10:07Z</time></trkpt>
<trkpt lat="46.09247102" lon="6.12152207"><ele>832.63916</ele><time>2007-04-14T10:10:19Z</time></trkpt>
<trkpt lat="46.09230783" lon="6.12161762"><ele>834.081055</ele><time>2007-04-14T10:10:32Z</time></trkpt>
<trkpt lat="46.09220498" lon="6.12173019"><ele>835.522949</ele><time>2007-04-14T10:10:43Z</time></trkpt>
<trkpt lat="46.09215385" lon="6.12177243"><ele>835.522949</ele><time>2007-04-14T10:11:03Z</time></trkpt>
<trkpt lat="46.09216014" lon="6.12184837"><ele>836.003662</ele><time>2007-04-14T10:12:10Z</time></trkpt>
<trkpt lat="46.09201119" lon="6.12171720"><ele>831.197266</ele><time>2007-04-14T10:12:16Z</time></trkpt>
<trkpt lat="46.09186023" lon="6.12153363"><ele>828.793945</ele><time>2007-04-14T10:12:21Z</time></trkpt>
<trkpt lat="46.09182654" lon="6.12147739"><ele>827.832275</ele><time>2007-04-14T10:12:22Z</time></trkpt>
<trkpt lat="46.09172235" lon="6.12134102"><ele>827.351807</ele><time>2007-04-14T10:12:24Z</time></trkpt>
<trkpt lat="46.09160467" lon="6.12117204"><ele>827.832275</ele><time>2007-04-14T10:12:27Z</time></trkpt>
<trkpt lat="46.09149604" lon="6.12112502"><ele>828.313232</ele><time>2007-04-14T10:12:47Z</time></trkpt>
<trkpt lat="46.09152663" lon="6.12110012"><ele>829.274414</ele><time>2007-04-14T10:13:57Z</time></trkpt>
<trkpt lat="46.09156863" lon="6.12122334"><ele>827.832275</ele><time>2007-04-14T10:14:05Z</time></trkpt>
<trkpt lat="46.09180869" lon="6.12114740"><ele>823.987061</ele><time>2007-04-14T10:14:12Z</time></trkpt>
<trkpt lat="46.09201103" lon="6.12095394"><ele>823.506592</ele><time>2007-04-14T10:14:16Z</time></trkpt>
<trkpt lat="46.09219166" lon="6.12076376"><ele>821.58374</ele><time>2007-04-14T10:14:19Z</time></trkpt>
<trkpt lat="46.09242300" lon="6.12040635"><ele>817.258057</ele><time>2007-04-14T10:14:23Z</time></trkpt>
<trkpt lat="46.09255468" lon="6.12015515"><ele>816.296631</ele><time>2007-04-14T10:14:26Z</time></trkpt>
<trkpt lat="46.09263590" lon="6.12002447"><ele>812.932129</ele><time>2007-04-14T10:14:28Z</time></trkpt>
<trkpt lat="46.09270513" lon="6.11985633"><ele>809.567383</ele><time>2007-04-14T10:14:30Z</time></trkpt>
<trkpt lat="46.09282424" lon="6.11955022"><ele>806.202637</ele><time>2007-04-14T10:14:33Z</time></trkpt>
<trkpt lat="46.09303177" lon="6.11924118"><ele>803.318848</ele><time>2007-04-14T10:14:38Z</time></trkpt>
<trkpt lat="46.09301987" lon="6.11896693"><ele>798.512207</ele><time>2007-04-14T10:14:42Z</time></trkpt>
<trkpt lat="46.09299196" lon="6.11887129"><ele>797.070313</ele><time>2007-04-14T10:14:43Z</time></trkpt>
<trkpt lat="46.09294519" lon="6.11872134"><ele>795.147461</ele><time>2007-04-14T10:14:45Z</time></trkpt>
<trkpt lat="46.09287520" lon="6.11835044"><ele>792.263672</ele><time>2007-04-14T10:14:53Z</time></trkpt>
<trkpt lat="46.09270278" lon="6.11835823"><ele>793.705566</ele><time>2007-04-14T10:15:03Z</time></trkpt>
<trkpt lat="46.09241998" lon="6.11815388"><ele>795.147461</ele><time>2007-04-14T10:15:18Z</time></trkpt>
<trkpt lat="46.09225854" lon="6.11786395"><ele>798.031738</ele><time>2007-04-14T10:15:32Z</time></trkpt>
<trkpt lat="46.09216425" lon="6.11774007"><ele>799.473633</ele><time>2007-04-14T10:15:40Z</time></trkpt>
<trkpt lat="46.09204832" lon="6.11772456"><ele>800.915527</ele><time>2007-04-14T10:15:50Z</time></trkpt>
<trkpt lat="46.09200474" lon="6.11778994"><ele>801.39624</ele><time>2007-04-14T10:15:56Z</time></trkpt>
<trkpt lat="46.09185378" lon="6.11783319"><ele>803.799561</ele><time>2007-04-14T10:16:09Z</time></trkpt>
<trkpt lat="46.09179368" lon="6.11779598"><ele>803.318848</ele><time>2007-04-14T10:16:14Z</time></trkpt>
<trkpt lat="46.09171238" lon="6.11778064"><ele>803.318848</ele><time>2007-04-14T10:16:18Z</time></trkpt>
<trkpt lat="46.09165337" lon="6.11778558"><ele>803.318848</ele><time>2007-04-14T10:16:21Z</time></trkpt>
<trkpt lat="46.09147936" lon="6.11773839"><ele>803.318848</ele><time>2007-04-14T10:16:29Z</time></trkpt>
<trkpt lat="46.09130653" lon="6.11749230"><ele>803.318848</ele><time>2007-04-14T10:16:41Z</time></trkpt>
<trkpt lat="46.09123645" lon="6.11740563"><ele>803.318848</ele><time>2007-04-14T10:16:47Z</time></trkpt>
<trkpt lat="46.09104342" lon="6.11720874"><ele>806.202637</ele><time>2007-04-14T10:17:01Z</time></trkpt>
<trkpt lat="46.09102322" lon="6.11699936"><ele>809.08667</ele><time>2007-04-14T10:17:12Z</time></trkpt>
<trkpt lat="46.09102104" lon="6.11685905"><ele>811.48999</ele><time>2007-04-14T10:17:29Z</time></trkpt>
<trkpt lat="46.09098273" lon="6.11673240"><ele>814.374023</ele><time>2007-04-14T10:17:43Z</time></trkpt>
<trkpt lat="46.09093370" lon="6.11664774"><ele>815.335449</ele><time>2007-04-14T10:17:56Z</time></trkpt>
<trkpt lat="46.09094074" lon="6.11665076"><ele>815.335449</ele><time>2007-04-14T10:17:59Z</time></trkpt>
<trkpt lat="46.09081845" lon="6.11661279"><ele>815.816162</ele><time>2007-04-14T10:18:08Z</time></trkpt>
<trkpt lat="46.09063120" lon="6.11676056"><ele>819.661377</ele><time>2007-04-14T10:18:20Z</time></trkpt>
<trkpt lat="46.09055953" lon="6.11676718"><ele>819.661377</ele><time>2007-04-14T10:18:24Z</time></trkpt>
<trkpt lat="46.09031495" lon="6.11667724"><ele>822.545166</ele><time>2007-04-14T10:18:38Z</time></trkpt>
<trkpt lat="46.09022568" lon="6.11660306"><ele>823.506592</ele><time>2007-04-14T10:18:44Z</time></trkpt>
<trkpt lat="46.09017606" lon="6.11653869"><ele>825.909668</ele><time>2007-04-14T10:18:49Z</time></trkpt>
<trkpt lat="46.09010406" lon="6.11634339"><ele>829.274414</ele><time>2007-04-14T10:18:59Z</time></trkpt>
<trkpt lat="46.09001596" lon="6.11617978"><ele>830.716553</ele><time>2007-04-14T10:19:13Z</time></trkpt>
<trkpt lat="46.08992536" lon="6.11602756"><ele>831.677734</ele><time>2007-04-14T10:19:33Z</time></trkpt>
<trkpt lat="46.08991245" lon="6.11597928"><ele>831.677734</ele><time>2007-04-14T10:19:36Z</time></trkpt>
<trkpt lat="46.08989979" lon="6.11592547"><ele>831.677734</ele><time>2007-04-14T10:19:39Z</time></trkpt>
<trkpt lat="46.08990784" lon="6.11562858"><ele>832.158447</ele><time>2007-04-14T10:19:51Z</time></trkpt>
<trkpt lat="46.08989024" lon="6.11536615"><ele>830.23584</ele><time>2007-04-14T10:19:57Z</time></trkpt>
<trkpt lat="46.08992024" lon="6.11518485"><ele>825.909668</ele><time>2007-04-14T10:20:00Z</time></trkpt>
<trkpt lat="46.08997297" lon="6.11490816"><ele>823.025879</ele><time>2007-04-14T10:20:04Z</time></trkpt>
<trkpt lat="46.08999543" lon="6.11475008"><ele>819.661377</ele><time>2007-04-14T10:20:06Z</time></trkpt>
<trkpt lat="46.09001563" lon="6.11458730"><ele>818.699951</ele><time>2007-04-14T10:20:08Z</time></trkpt>
<trkpt lat="46.08998328" lon="6.11409486"><ele>815.816162</ele><time>2007-04-14T10:20:13Z</time></trkpt>
<trkpt lat="46.08992829" lon="6.11341132"><ele>812.932129</ele><time>2007-04-14T10:20:23Z</time></trkpt>
<trkpt lat="46.08991689" lon="6.11334485"><ele>812.451416</ele><time>2007-04-14T10:20:24Z</time></trkpt>
<trkpt lat="46.08987750" lon="6.11321946"><ele>811.009277</ele><time>2007-04-14T10:20:26Z</time></trkpt>
<trkpt lat="46.08968169" lon="6.11282056"><ele>808.125488</ele><time>2007-04-14T10:20:32Z</time></trkpt>
<trkpt lat="46.08953476" lon="6.11253734"><ele>806.202637</ele><time>2007-04-14T10:20:37Z</time></trkpt>
<trkpt lat="46.08944600" lon="6.11243994"><ele>805.241455</ele><time>2007-04-14T10:20:39Z</time></trkpt>
<trkpt lat="46.08924215" lon="6.11224758"><ele>802.357422</ele><time>2007-04-14T10:20:43Z</time></trkpt>
<trkpt lat="46.08927886" lon="6.11202403"><ele>800.435059</ele><time>2007-04-14T10:20:50Z</time></trkpt>
<trkpt lat="46.08938757" lon="6.11211028"><ele>800.435059</ele><time>2007-04-14T10:21:04Z</time></trkpt>
<trkpt lat="46.08962419" lon="6.11187852"><ele>797.070313</ele><time>2007-04-14T10:21:14Z</time></trkpt>
<trkpt lat="46.08975369" lon="6.11161876"><ele>794.666748</ele><time>2007-04-14T10:21:19Z</time></trkpt>
<trkpt lat="46.08978077" lon="6.11155909"><ele>794.666748</ele><time>2007-04-14T10:21:20Z</time></trkpt>
<trkpt lat="46.08983156" lon="6.11142850"><ele>793.705566</ele><time>2007-04-14T10:21:22Z</time></trkpt>
<trkpt lat="46.08987012" lon="6.11129606"><ele>792.744385</ele><time>2007-04-14T10:21:24Z</time></trkpt>
<trkpt lat="46.08994388" lon="6.11112390"><ele>790.341064</ele><time>2007-04-14T10:21:27Z</time></trkpt>
<trkpt lat="46.09005427" lon="6.11089826"><ele>786.976318</ele><time>2007-04-14T10:21:31Z</time></trkpt>
<trkpt lat="46.09012292" lon="6.11077018"><ele>784.573242</ele><time>2007-04-14T10:21:33Z</time></trkpt>
<trkpt lat="46.09021688" lon="6.11062216"><ele>782.169922</ele><time>2007-04-14T10:21:35Z</time></trkpt>
<trkpt lat="46.09026533" lon="6.11055669"><ele>782.169922</ele><time>2007-04-14T10:21:36Z</time></trkpt>
<trkpt lat="46.09038854" lon="6.11028872"><ele>780.728027</ele><time>2007-04-14T10:21:40Z</time></trkpt>
<trkpt lat="46.09041385" lon="6.11029057"><ele>781.689209</ele><time>2007-04-14T10:21:55Z</time></trkpt>
<trkpt lat="46.09042559" lon="6.11028579"><ele>781.689209</ele><time>2007-04-14T10:22:13Z</time></trkpt>
<trkpt lat="46.09051578" lon="6.11021413"><ele>780.247314</ele><time>2007-04-14T10:22:18Z</time></trkpt>
<trkpt lat="46.09070336" lon="6.10996745"><ele>776.401855</ele><time>2007-04-14T10:22:25Z</time></trkpt>
<trkpt lat="46.09077495" lon="6.10988983"><ele>772.075928</ele><time>2007-04-14T10:22:27Z</time></trkpt>
<trkpt lat="46.09094887" lon="6.10975463"><ele>768.230713</ele><time>2007-04-14T10:22:31Z</time></trkpt>
<trkpt lat="46.09095977" lon="6.10948758"><ele>768.230713</ele><time>2007-04-14T10:22:39Z</time></trkpt>
<trkpt lat="46.09059893" lon="6.10909833"><ele>769.672852</ele><time>2007-04-14T10:22:55Z</time></trkpt>
<trkpt lat="46.09015728" lon="6.10853598"><ele>769.192139</ele><time>2007-04-14T10:23:11Z</time></trkpt>
<trkpt lat="46.08968664" lon="6.10822150"><ele>770.15332</ele><time>2007-04-14T10:23:26Z</time></trkpt>
<trkpt lat="46.08930602" lon="6.10797767"><ele>771.114746</ele><time>2007-04-14T10:23:38Z</time></trkpt>
<trkpt lat="46.08912329" lon="6.10795327"><ele>773.037354</ele><time>2007-04-14T10:23:45Z</time></trkpt>
<trkpt lat="46.08900603" lon="6.10821663"><ele>774.959961</ele><time>2007-04-14T10:23:57Z</time></trkpt>
<trkpt lat="46.08891534" lon="6.10828939"><ele>776.882568</ele><time>2007-04-14T10:24:03Z</time></trkpt>
<trkpt lat="46.08885725" lon="6.10826927"><ele>776.401855</ele><time>2007-04-14T10:24:06Z</time></trkpt>
<trkpt lat="46.08854452" lon="6.10829299"><ele>777.84375</ele><time>2007-04-14T10:24:19Z</time></trkpt>
<trkpt lat="46.08826934" lon="6.10828746"><ele>779.766357</ele><time>2007-04-14T10:24:33Z</time></trkpt>
<trkpt lat="46.08786735" lon="6.10824429"><ele>778.805176</ele><time>2007-04-14T10:24:46Z</time></trkpt>
<trkpt lat="46.08758488" lon="6.10821563"><ele>778.324463</ele><time>2007-04-14T10:24:52Z</time></trkpt>
<trkpt lat="46.08728397" lon="6.10821269"><ele>777.363281</ele><time>2007-04-14T10:24:58Z</time></trkpt>
<trkpt lat="46.08710987" lon="6.10814698"><ele>778.805176</ele><time>2007-04-14T10:25:01Z</time></trkpt>
<trkpt lat="46.08683973" lon="6.10805319"><ele>777.84375</ele><time>2007-04-14T10:25:05Z</time></trkpt>
<trkpt lat="46.08653982" lon="6.10792025"><ele>778.805176</ele><time>2007-04-14T10:25:10Z</time></trkpt>
<trkpt lat="46.08645584" lon="6.10785428"><ele>778.324463</ele><time>2007-04-14T10:25:12Z</time></trkpt>
<trkpt lat="46.08594404" lon="6.10760107"><ele>777.84375</ele><time>2007-04-14T10:25:21Z</time></trkpt>
<trkpt lat="46.08565612" lon="6.10755547"><ele>777.84375</ele><time>2007-04-14T10:25:25Z</time></trkpt>
<trkpt lat="46.08543366" lon="6.10749663"><ele>778.805176</ele><time>2007-04-14T10:25:29Z</time></trkpt>
<trkpt lat="46.08522998" lon="6.10738523"><ele>781.20874</ele><time>2007-04-14T10:25:33Z</time></trkpt>
<trkpt lat="46.08515714" lon="6.10731742"><ele>782.169922</ele><time>2007-04-14T10:25:35Z</time></trkpt>
<trkpt lat="46.08477023" lon="6.10716848"><ele>783.611816</ele><time>2007-04-14T10:25:44Z</time></trkpt>
<trkpt lat="46.08440093" lon="6.10707753"><ele>785.534424</ele><time>2007-04-14T10:25:55Z</time></trkpt>
<trkpt lat="46.08431770" lon="6.10705675"><ele>786.49585</ele><time>2007-04-14T10:25:58Z</time></trkpt>
<trkpt lat="46.08396138" lon="6.10703076"><ele>788.89917</ele><time>2007-04-14T10:26:12Z</time></trkpt>
<trkpt lat="46.08378477" lon="6.10702397"><ele>791.782959</ele><time>2007-04-14T10:26:21Z</time></trkpt>
<trkpt lat="46.08349543" lon="6.10693915"><ele>794.186279</ele><time>2007-04-14T10:26:35Z</time></trkpt>
<trkpt lat="46.08326929" lon="6.10676263"><ele>795.147461</ele><time>2007-04-14T10:26:47Z</time></trkpt>
<trkpt lat="46.08309352" lon="6.10645937"><ele>796.109131</ele><time>2007-04-14T10:26:59Z</time></trkpt>
<trkpt lat="46.08268398" lon="6.10612485"><ele>795.147461</ele><time>2007-04-14T10:27:12Z</time></trkpt>
<trkpt lat="46.08225675" lon="6.10582544"><ele>794.186279</ele><time>2007-04-14T10:27:26Z</time></trkpt>
<trkpt lat="46.08216254" lon="6.10579167"><ele>794.186279</ele><time>2007-04-14T10:27:29Z</time></trkpt>
<trkpt lat="46.08201946" lon="6.10600406"><ele>795.628174</ele><time>2007-04-14T10:27:39Z</time></trkpt>
<trkpt lat="46.08201108" lon="6.10602577"><ele>796.109131</ele><time>2007-04-14T10:27:40Z</time></trkpt>
<trkpt lat="46.08178167" lon="6.10605394"><ele>797.070313</ele><time>2007-04-14T10:27:55Z</time></trkpt>
<trkpt lat="46.08165644" lon="6.10590314"><ele>797.551025</ele><time>2007-04-14T10:28:04Z</time></trkpt>
<trkpt lat="46.08152057" lon="6.10603189"><ele>799.473633</ele><time>2007-04-14T10:28:14Z</time></trkpt>
<trkpt lat="46.08135302" lon="6.10606743"><ele>802.357422</ele><time>2007-04-14T10:28:25Z</time></trkpt>
<trkpt lat="46.08109519" lon="6.10604723"><ele>804.760742</ele><time>2007-04-14T10:28:40Z</time></trkpt>
<trkpt lat="46.08080216" lon="6.10611655"><ele>807.164063</ele><time>2007-04-14T10:28:57Z</time></trkpt>
<trkpt lat="46.08051457" lon="6.10620104"><ele>807.644775</ele><time>2007-04-14T10:29:14Z</time></trkpt>
<trkpt lat="46.08015918" lon="6.10632056"><ele>808.125488</ele><time>2007-04-14T10:29:34Z</time></trkpt>
<trkpt lat="46.07988652" lon="6.10630036"><ele>810.528564</ele><time>2007-04-14T10:29:48Z</time></trkpt>
<trkpt lat="46.07964713" lon="6.10622216"><ele>811.970703</ele><time>2007-04-14T10:30:02Z</time></trkpt>
<trkpt lat="46.07924128" lon="6.10608445"><ele>812.451416</ele><time>2007-04-14T10:30:16Z</time></trkpt>
<trkpt lat="46.07881263" lon="6.10564750"><ele>814.854736</ele><time>2007-04-14T10:30:34Z</time></trkpt>
<trkpt lat="46.07829027" lon="6.10508398"><ele>814.374023</ele><time>2007-04-14T10:30:53Z</time></trkpt>
<trkpt lat="46.07787645" lon="6.10476648"><ele>814.854736</ele><time>2007-04-14T10:31:08Z</time></trkpt>
<trkpt lat="46.07735602" lon="6.10448434"><ele>815.335449</ele><time>2007-04-14T10:31:26Z</time></trkpt>
<trkpt lat="46.07700256" lon="6.10424663"><ele>817.258057</ele><time>2007-04-14T10:31:39Z</time></trkpt>
<trkpt lat="46.07669679" lon="6.10418318"><ele>818.699951</ele><time>2007-04-14T10:31:55Z</time></trkpt>
<trkpt lat="46.07632513" lon="6.10412635"><ele>820.141846</ele><time>2007-04-14T10:32:13Z</time></trkpt>
<trkpt lat="46.07624249" lon="6.10411235"><ele>822.064453</ele><time>2007-04-14T10:32:18Z</time></trkpt>
<trkpt lat="46.07591316" lon="6.10410439"><ele>823.506592</ele><time>2007-04-14T10:32:36Z</time></trkpt>
<trkpt lat="46.07549365" lon="6.10414269"><ele>824.948486</ele><time>2007-04-14T10:32:55Z</time></trkpt>
<trkpt lat="46.07524085" lon="6.10406273"><ele>827.832275</ele><time>2007-04-14T10:33:08Z</time></trkpt>
<trkpt lat="46.07503097" lon="6.10385519"><ele>830.716553</ele><time>2007-04-14T10:33:23Z</time></trkpt>
<trkpt lat="46.07499224" lon="6.10379627"><ele>831.677734</ele><time>2007-04-14T10:33:27Z</time></trkpt>
<trkpt lat="46.07475420" lon="6.10351196"><ele>833.119629</ele><time>2007-04-14T10:33:43Z</time></trkpt>
<trkpt lat="46.07471623" lon="6.10335362"><ele>833.600342</ele><time>2007-04-14T10:33:50Z</time></trkpt>
<trkpt lat="46.07449612" lon="6.10296696"><ele>834.081055</ele><time>2007-04-14T10:34:05Z</time></trkpt>
<trkpt lat="46.07429587" lon="6.10266102"><ele>831.677734</ele><time>2007-04-14T10:34:14Z</time></trkpt>
<trkpt lat="46.07412480" lon="6.10235944"><ele>833.119629</ele><time>2007-04-14T10:34:20Z</time></trkpt>
<trkpt lat="46.07386848" lon="6.10200598"><ele>829.755127</ele><time>2007-04-14T10:34:26Z</time></trkpt>
<trkpt lat="46.07362968" lon="6.10179752"><ele>830.23584</ele><time>2007-04-14T10:34:30Z</time></trkpt>
<trkpt lat="46.07343740" lon="6.10167137"><ele>835.522949</ele><time>2007-04-14T10:34:35Z</time></trkpt>
<trkpt lat="46.07337235" lon="6.10163148"><ele>837.445557</ele><time>2007-04-14T10:34:38Z</time></trkpt>
<trkpt lat="46.07329683" lon="6.10156786"><ele>837.92627</ele><time>2007-04-14T10:34:43Z</time></trkpt>
<trkpt lat="46.07323783" lon="6.10150030"><ele>837.92627</ele><time>2007-04-14T10:34:47Z</time></trkpt>
<trkpt lat="46.07293909" lon="6.10127843"><ele>838.406982</ele><time>2007-04-14T10:35:00Z</time></trkpt>
<trkpt lat="46.07275469" lon="6.10111264"><ele>839.368164</ele><time>2007-04-14T10:35:11Z</time></trkpt>
<trkpt lat="46.07260164" lon="6.10095556"><ele>842.73291</ele><time>2007-04-14T10:35:23Z</time></trkpt>
<trkpt lat="46.07256208" lon="6.10092396"><ele>843.694092</ele><time>2007-04-14T10:35:25Z</time></trkpt>
<trkpt lat="46.07249469" lon="6.10082916"><ele>843.694092</ele><time>2007-04-14T10:35:31Z</time></trkpt>
<trkpt lat="46.07236954" lon="6.10076060"><ele>844.175049</ele><time>2007-04-14T10:35:40Z</time></trkpt>
<trkpt lat="46.07230106" lon="6.10070377"><ele>843.694092</ele><time>2007-04-14T10:35:43Z</time></trkpt>
<trkpt lat="46.07215740" lon="6.10061743"><ele>843.694092</ele><time>2007-04-14T10:35:49Z</time></trkpt>
<trkpt lat="46.07206285" lon="6.10051459"><ele>844.175049</ele><time>2007-04-14T10:35:54Z</time></trkpt>
<trkpt lat="46.07203930" lon="6.10046136"><ele>844.175049</ele><time>2007-04-14T10:35:56Z</time></trkpt>
<trkpt lat="46.07196604" lon="6.10001679"><ele>844.175049</ele><time>2007-04-14T10:36:06Z</time></trkpt>
<trkpt lat="46.07180066" lon="6.09958252"><ele>844.175049</ele><time>2007-04-14T10:36:20Z</time></trkpt>
<trkpt lat="46.07176705" lon="6.09949686"><ele>845.13623</ele><time>2007-04-14T10:36:33Z</time></trkpt>
<trkpt lat="46.07174216" lon="6.09947758"><ele>845.13623</ele><time>2007-04-14T10:36:35Z</time></trkpt>
<trkpt lat="46.07168935" lon="6.09945277"><ele>845.13623</ele><time>2007-04-14T10:36:39Z</time></trkpt>
<trkpt lat="46.07169623" lon="6.09934992"><ele>845.13623</ele><time>2007-04-14T10:36:43Z</time></trkpt>
<trkpt lat="46.07163596" lon="6.09893896"><ele>846.097656</ele><time>2007-04-14T10:36:55Z</time></trkpt>
<trkpt lat="46.07148425" lon="6.09857745"><ele>846.578369</ele><time>2007-04-14T10:37:07Z</time></trkpt>
<trkpt lat="46.07143220" lon="6.09851517"><ele>848.500732</ele><time>2007-04-14T10:37:11Z</time></trkpt>
<trkpt lat="46.07137377" lon="6.09844384"><ele>850.423584</ele><time>2007-04-14T10:37:16Z</time></trkpt>
<trkpt lat="46.07131854" lon="6.09838625"><ele>851.865479</ele><time>2007-04-14T10:37:20Z</time></trkpt>
<trkpt lat="46.07121846" lon="6.09824007"><ele>852.82666</ele><time>2007-04-14T10:37:29Z</time></trkpt>
<trkpt lat="46.07096759" lon="6.09807973"><ele>854.268799</ele><time>2007-04-14T10:37:41Z</time></trkpt>
<trkpt lat="46.07068637" lon="6.09789306"><ele>855.22998</ele><time>2007-04-14T10:37:57Z</time></trkpt>
<trkpt lat="46.07061504" lon="6.09781922"><ele>857.152588</ele><time>2007-04-14T10:38:04Z</time></trkpt>
<trkpt lat="46.07059769" lon="6.09779474"><ele>857.633301</ele><time>2007-04-14T10:38:06Z</time></trkpt>
<trkpt lat="46.07046266" lon="6.09759433"><ele>858.114014</ele><time>2007-04-14T10:38:16Z</time></trkpt>
<trkpt lat="46.07029209" lon="6.09722829"><ele>860.036621</ele><time>2007-04-14T10:38:32Z</time></trkpt>
<trkpt lat="46.07010903" lon="6.09699519"><ele>861.959473</ele><time>2007-04-14T10:38:45Z</time></trkpt>
<trkpt lat="46.07010358" lon="6.09697818"><ele>862.439941</ele><time>2007-04-14T10:38:46Z</time></trkpt>
<trkpt lat="46.07010559" lon="6.09686536"><ele>862.920654</ele><time>2007-04-14T10:38:50Z</time></trkpt>
<trkpt lat="46.07003342" lon="6.09663988"><ele>863.881836</ele><time>2007-04-14T10:39:01Z</time></trkpt>
<trkpt lat="46.06983075" lon="6.09652329"><ele>866.765869</ele><time>2007-04-14T10:39:15Z</time></trkpt>
<trkpt lat="46.06972598" lon="6.09643168"><ele>869.169189</ele><time>2007-04-14T10:39:24Z</time></trkpt>
<trkpt lat="46.06968759" lon="6.09636378"><ele>870.611084</ele><time>2007-04-14T10:39:29Z</time></trkpt>
<trkpt lat="46.06956353" lon="6.09611568"><ele>871.091797</ele><time>2007-04-14T10:39:42Z</time></trkpt>
<trkpt lat="46.06951425" lon="6.09592340"><ele>871.572266</ele><time>2007-04-14T10:39:52Z</time></trkpt>
<trkpt lat="46.06947904" lon="6.09580572"><ele>873.495117</ele><time>2007-04-14T10:39:58Z</time></trkpt>
<trkpt lat="46.06938064" lon="6.09546843"><ele>873.975586</ele><time>2007-04-14T10:40:13Z</time></trkpt>
<trkpt lat="46.06928827" lon="6.09513927"><ele>873.975586</ele><time>2007-04-14T10:40:27Z</time></trkpt>
<trkpt lat="46.06920512" lon="6.09477676"><ele>876.859863</ele><time>2007-04-14T10:40:44Z</time></trkpt>
<trkpt lat="46.06910932" lon="6.09457928"><ele>878.301758</ele><time>2007-04-14T10:40:56Z</time></trkpt>
<trkpt lat="46.06904176" lon="6.09447266"><ele>878.782471</ele><time>2007-04-14T10:41:03Z</time></trkpt>
<trkpt lat="46.06896373" lon="6.09413353"><ele>881.66626</ele><time>2007-04-14T10:41:20Z</time></trkpt>
<trkpt lat="46.06891846" lon="6.09391619"><ele>884.550293</ele><time>2007-04-14T10:41:29Z</time></trkpt>
<trkpt lat="46.06887806" lon="6.09378668"><ele>886.953369</ele><time>2007-04-14T10:41:33Z</time></trkpt>
<trkpt lat="46.06882014" lon="6.09339818"><ele>889.356689</ele><time>2007-04-14T10:41:48Z</time></trkpt>
<trkpt lat="46.06875485" lon="6.09317967"><ele>891.279297</ele><time>2007-04-14T10:41:59Z</time></trkpt>
<trkpt lat="46.06873808" lon="6.09311395"><ele>892.240967</ele><time>2007-04-14T10:42:03Z</time></trkpt>
<trkpt lat="46.06860062" lon="6.09296015"><ele>893.682861</ele><time>2007-04-14T10:42:14Z</time></trkpt>
<trkpt lat="46.06832536" lon="6.09266887"><ele>893.202148</ele><time>2007-04-14T10:42:30Z</time></trkpt>
<trkpt lat="46.06804716" lon="6.09240099"><ele>894.644043</ele><time>2007-04-14T10:42:47Z</time></trkpt>
<trkpt lat="46.06772739" lon="6.09209044"><ele>893.682861</ele><time>2007-04-14T10:43:05Z</time></trkpt>
<trkpt lat="46.06729154" lon="6.09169037"><ele>896.086182</ele><time>2007-04-14T10:43:26Z</time></trkpt>
<trkpt lat="46.06690178" lon="6.09137379"><ele>897.047363</ele><time>2007-04-14T10:43:45Z</time></trkpt>
<trkpt lat="46.06657044" lon="6.09117832"><ele>898.008789</ele><time>2007-04-14T10:44:01Z</time></trkpt>
<trkpt lat="46.06653767" lon="6.09123079"><ele>899.450684</ele><time>2007-04-14T10:44:12Z</time></trkpt>
<trkpt lat="46.06654244" lon="6.09123012"><ele>898.489258</ele><time>2007-04-14T10:45:20Z</time></trkpt>
<trkpt lat="46.06653792" lon="6.09123959"><ele>898.489258</ele><time>2007-04-14T10:45:56Z</time></trkpt>
<trkpt lat="46.06655527" lon="6.09122694"><ele>898.008789</ele><time>2007-04-14T10:46:44Z</time></trkpt>
<trkpt lat="46.06652115" lon="6.09132618"><ele>898.489258</ele><time>2007-04-14T10:47:04Z</time></trkpt>
<trkpt lat="46.06645863" lon="6.09157269"><ele>898.969971</ele><time>2007-04-14T10:47:20Z</time></trkpt>
<trkpt lat="46.06644790" lon="6.09160379"><ele>899.931396</ele><time>2007-04-14T10:47:22Z</time></trkpt>
<trkpt lat="46.06640657" lon="6.09191827"><ele>901.373291</ele><time>2007-04-14T10:47:40Z</time></trkpt>
<trkpt lat="46.06641512" lon="6.09209497"><ele>902.815186</ele><time>2007-04-14T10:47:49Z</time></trkpt>
<trkpt lat="46.06645125" lon="6.09219387"><ele>903.295898</ele><time>2007-04-14T10:47:54Z</time></trkpt>
<trkpt lat="46.06658234" lon="6.09261749"><ele>907.621826</ele><time>2007-04-14T10:48:13Z</time></trkpt>
<trkpt lat="46.06678284" lon="6.09310532"><ele>908.102783</ele><time>2007-04-14T10:48:34Z</time></trkpt>
<trkpt lat="46.06696523" lon="6.09366959"><ele>911.467285</ele><time>2007-04-14T10:48:56Z</time></trkpt>
<trkpt lat="46.06684126" lon="6.09397679"><ele>914.831787</ele><time>2007-04-14T10:49:12Z</time></trkpt>
<trkpt lat="46.06682500" lon="6.09398232"><ele>914.831787</ele><time>2007-04-14T10:49:13Z</time></trkpt>
<trkpt lat="46.06657228" lon="6.09386439"><ele>918.196289</ele><time>2007-04-14T10:49:31Z</time></trkpt>
<trkpt lat="46.06637472" lon="6.09369976"><ele>920.118896</ele><time>2007-04-14T10:49:44Z</time></trkpt>
<trkpt lat="46.06613483" lon="6.09349483"><ele>923.00293</ele><time>2007-04-14T10:50:00Z</time></trkpt>
<trkpt lat="46.06593534" lon="6.09334362"><ele>925.40625</ele><time>2007-04-14T10:50:14Z</time></trkpt>
<trkpt lat="46.06587927" lon="6.09333096"><ele>925.886963</ele><time>2007-04-14T10:50:18Z</time></trkpt>
<trkpt lat="46.06580274" lon="6.09323935"><ele>926.367676</ele><time>2007-04-14T10:50:24Z</time></trkpt>
<trkpt lat="46.06572169" lon="6.09318528"><ele>928.290283</ele><time>2007-04-14T10:50:30Z</time></trkpt>
<trkpt lat="46.06546537" lon="6.09301052"><ele>930.693604</ele><time>2007-04-14T10:50:48Z</time></trkpt>
<trkpt lat="46.06521416" lon="6.09285437"><ele>934.058105</ele><time>2007-04-14T10:51:05Z</time></trkpt>
<trkpt lat="46.06497025" lon="6.09272713"><ele>936.941895</ele><time>2007-04-14T10:51:20Z</time></trkpt>
<trkpt lat="46.06468569" lon="6.09265446"><ele>939.825928</ele><time>2007-04-14T10:51:38Z</time></trkpt>
<trkpt lat="46.06443264" lon="6.09272964"><ele>941.748779</ele><time>2007-04-14T10:51:54Z</time></trkpt>
<trkpt lat="46.06421144" lon="6.09286618"><ele>944.632568</ele><time>2007-04-14T10:52:09Z</time></trkpt>
<trkpt lat="46.06394925" lon="6.09302519"><ele>947.516602</ele><time>2007-04-14T10:52:26Z</time></trkpt>
<trkpt lat="46.06380944" lon="6.09308453"><ele>950.400635</ele><time>2007-04-14T10:52:35Z</time></trkpt>
<trkpt lat="46.06342102" lon="6.09312175"><ele>953.765137</ele><time>2007-04-14T10:52:59Z</time></trkpt>
<trkpt lat="46.06311634" lon="6.09307389"><ele>956.64917</ele><time>2007-04-14T10:53:18Z</time></trkpt>
<trkpt lat="46.06284846" lon="6.09302108"><ele>960.013672</ele><time>2007-04-14T10:53:35Z</time></trkpt>
<trkpt lat="46.06256029" lon="6.09295688"><ele>962.897705</ele><time>2007-04-14T10:53:53Z</time></trkpt>
<trkpt lat="46.06234596" lon="6.09291865"><ele>965.781738</ele><time>2007-04-14T10:54:07Z</time></trkpt>
<trkpt lat="46.06233607" lon="6.09291782"><ele>966.262207</ele><time>2007-04-14T10:54:08Z</time></trkpt>
<trkpt lat="46.06231369" lon="6.09291715"><ele>965.781738</ele><time>2007-04-14T10:54:10Z</time></trkpt>
<trkpt lat="46.06228687" lon="6.09293332"><ele>966.74292</ele><time>2007-04-14T10:54:13Z</time></trkpt>
<trkpt lat="46.06223859" lon="6.09291572"><ele>967.704102</ele><time>2007-04-14T10:54:17Z</time></trkpt>
<trkpt lat="46.06205880" lon="6.09286124"><ele>969.626953</ele><time>2007-04-14T10:54:31Z</time></trkpt>
<trkpt lat="46.06198009" lon="6.09286627"><ele>970.588135</ele><time>2007-04-14T10:54:37Z</time></trkpt>
<trkpt lat="46.06192737" lon="6.09285730"><ele>970.588135</ele><time>2007-04-14T10:54:41Z</time></trkpt>
<trkpt lat="46.06164859" lon="6.09295067"><ele>972.030273</ele><time>2007-04-14T10:55:01Z</time></trkpt>
<trkpt lat="46.06147810" lon="6.09302368"><ele>975.394775</ele><time>2007-04-14T10:55:13Z</time></trkpt>
<trkpt lat="46.06125187" lon="6.09313977"><ele>978.278809</ele><time>2007-04-14T10:55:28Z</time></trkpt>
<trkpt lat="46.06102849" lon="6.09327782"><ele>981.643311</ele><time>2007-04-14T10:55:43Z</time></trkpt>
<trkpt lat="46.06077268" lon="6.09355040"><ele>985.008057</ele><time>2007-04-14T10:56:04Z</time></trkpt>
<trkpt lat="46.06055056" lon="6.09377730"><ele>987.891846</ele><time>2007-04-14T10:56:21Z</time></trkpt>
<trkpt lat="46.06032559" lon="6.09397260"><ele>989.333984</ele><time>2007-04-14T10:56:37Z</time></trkpt>
<trkpt lat="46.06012643" lon="6.09421735"><ele>992.218018</ele><time>2007-04-14T10:56:55Z</time></trkpt>
<trkpt lat="46.05989308" lon="6.09443176"><ele>995.101807</ele><time>2007-04-14T10:57:11Z</time></trkpt>
<trkpt lat="46.05969569" lon="6.09462647"><ele>997.98584</ele><time>2007-04-14T10:57:27Z</time></trkpt>
<trkpt lat="46.05952780" lon="6.09475505"><ele>999.908447</ele><time>2007-04-14T10:57:41Z</time></trkpt>
<trkpt lat="46.05948337" lon="6.09479888"><ele>1000.869629</ele><time>2007-04-14T10:57:45Z</time></trkpt>
<trkpt lat="46.05922563" lon="6.09489335"><ele>1002.792236</ele><time>2007-04-14T10:58:03Z</time></trkpt>
<trkpt lat="46.05890846" lon="6.09500365"><ele>1005.195801</ele><time>2007-04-14T10:58:22Z</time></trkpt>
<trkpt lat="46.05858232" lon="6.09513818"><ele>1007.118408</ele><time>2007-04-14T10:58:42Z</time></trkpt>
<trkpt lat="46.05835986" lon="6.09523214"><ele>1010.48291</ele><time>2007-04-14T10:58:55Z</time></trkpt>
<trkpt lat="46.05808192" lon="6.09534538"><ele>1013.366943</ele><time>2007-04-14T10:59:12Z</time></trkpt>
<trkpt lat="46.05802408" lon="6.09540364"><ele>1014.808838</ele><time>2007-04-14T10:59:18Z</time></trkpt>
<trkpt lat="46.05799802" lon="6.09539459"><ele>1015.770264</ele><time>2007-04-14T10:59:20Z</time></trkpt>
<trkpt lat="46.05795057" lon="6.09542510"><ele>1015.289551</ele><time>2007-04-14T10:59:24Z</time></trkpt>
<trkpt lat="46.05788008" lon="6.09541588"><ele>1016.731445</ele><time>2007-04-14T10:59:28Z</time></trkpt>
<trkpt lat="46.05769266" lon="6.09546206"><ele>1020.576904</ele><time>2007-04-14T10:59:41Z</time></trkpt>
<trkpt lat="46.05766827" lon="6.09547975"><ele>1021.538086</ele><time>2007-04-14T10:59:43Z</time></trkpt>
<trkpt lat="46.05765905" lon="6.09548737"><ele>1022.018799</ele><time>2007-04-14T10:59:44Z</time></trkpt>
<trkpt lat="46.05764514" lon="6.09550967"><ele>1022.018799</ele><time>2007-04-14T10:59:46Z</time></trkpt>
<trkpt lat="46.05745428" lon="6.09557949"><ele>1023.460938</ele><time>2007-04-14T10:59:57Z</time></trkpt>
<trkpt lat="46.05743836" lon="6.09558636"><ele>1023.941406</ele><time>2007-04-14T10:59:58Z</time></trkpt>
<trkpt lat="46.05739033" lon="6.09563707"><ele>1024.902832</ele><time>2007-04-14T11:00:20Z</time></trkpt>
<trkpt lat="46.05741103" lon="6.09568703"><ele>1024.902832</ele><time>2007-04-14T11:01:13Z</time></trkpt>
<trkpt lat="46.05742293" lon="6.09567362"><ele>1025.383301</ele><time>2007-04-14T11:01:45Z</time></trkpt>
<trkpt lat="46.05738052" lon="6.09564219"><ele>1025.383301</ele><time>2007-04-14T11:03:32Z</time></trkpt>
<trkpt lat="46.05743366" lon="6.09550472"><ele>1025.383301</ele><time>2007-04-14T11:04:24Z</time></trkpt>
<trkpt lat="46.05737910" lon="6.09573070"><ele>1026.825439</ele><time>2007-04-14T11:06:28Z</time></trkpt>
<trkpt lat="46.05730064" lon="6.09581930"><ele>1026.344727</ele><time>2007-04-14T11:06:35Z</time></trkpt>
<trkpt lat="46.05725898" lon="6.09590035"><ele>1026.825439</ele><time>2007-04-14T11:06:52Z</time></trkpt>
<trkpt lat="46.05725429" lon="6.09597956"><ele>1027.786621</ele><time>2007-04-14T11:06:59Z</time></trkpt>
<trkpt lat="46.05726133" lon="6.09607168"><ele>1029.709229</ele><time>2007-04-14T11:07:06Z</time></trkpt>
<trkpt lat="46.05717307" lon="6.09634778"><ele>1031.631836</ele><time>2007-04-14T11:07:22Z</time></trkpt>
<trkpt lat="46.05720593" lon="6.09650628"><ele>1034.996582</ele><time>2007-04-14T11:07:36Z</time></trkpt>
<trkpt lat="46.05722328" lon="6.09654802"><ele>1034.996582</ele><time>2007-04-14T11:07:39Z</time></trkpt>
<trkpt lat="46.05735177" lon="6.09671088"><ele>1037.880615</ele><time>2007-04-14T11:07:55Z</time></trkpt>
<trkpt lat="46.05738589" lon="6.09672764"><ele>1037.880615</ele><time>2007-04-14T11:07:57Z</time></trkpt>
<trkpt lat="46.05757238" lon="6.09674483"><ele>1041.72583</ele><time>2007-04-14T11:08:14Z</time></trkpt>
<trkpt lat="46.05767238" lon="6.09670962"><ele>1044.12915</ele><time>2007-04-14T11:08:25Z</time></trkpt>
<trkpt lat="46.05779392" lon="6.09670342"><ele>1046.051758</ele><time>2007-04-14T11:08:36Z</time></trkpt>
<trkpt lat="46.05785066" lon="6.09671809"><ele>1047.493652</ele><time>2007-04-14T11:08:40Z</time></trkpt>
<trkpt lat="46.05800045" lon="6.09670836"><ele>1048.935547</ele><time>2007-04-14T11:08:52Z</time></trkpt>
<trkpt lat="46.05813146" lon="6.09674323"><ele>1050.377686</ele><time>2007-04-14T11:09:02Z</time></trkpt>
<trkpt lat="46.05817722" lon="6.09677148"><ele>1051.81958</ele><time>2007-04-14T11:09:06Z</time></trkpt>
<trkpt lat="46.05828107" lon="6.09680618"><ele>1053.261719</ele><time>2007-04-14T11:09:16Z</time></trkpt>
<trkpt lat="46.05841896" lon="6.09688925"><ele>1055.184326</ele><time>2007-04-14T11:09:27Z</time></trkpt>
<trkpt lat="46.05853169" lon="6.09693635"><ele>1057.587646</ele><time>2007-04-14T11:09:39Z</time></trkpt>
<trkpt lat="46.05859296" lon="6.09694582"><ele>1060.471436</ele><time>2007-04-14T11:09:45Z</time></trkpt>
<trkpt lat="46.05868718" lon="6.09698338"><ele>1062.394043</ele><time>2007-04-14T11:09:56Z</time></trkpt>
<trkpt lat="46.05882095" lon="6.09705898"><ele>1063.355469</ele><time>2007-04-14T11:10:06Z</time></trkpt>
<trkpt lat="46.05895816" lon="6.09716216"><ele>1065.758789</ele><time>2007-04-14T11:10:20Z</time></trkpt>
<trkpt lat="46.05908859" lon="6.09720323"><ele>1069.123535</ele><time>2007-04-14T11:10:31Z</time></trkpt>
<trkpt lat="46.05924298" lon="6.09730356"><ele>1072.007324</ele><time>2007-04-14T11:10:46Z</time></trkpt>
<trkpt lat="46.05943174" lon="6.09741714"><ele>1075.371826</ele><time>2007-04-14T11:10:59Z</time></trkpt>
<trkpt lat="46.05957650" lon="6.09754069"><ele>1076.333252</ele><time>2007-04-14T11:11:09Z</time></trkpt>
<trkpt lat="46.05972360" lon="6.09774948"><ele>1079.217041</ele><time>2007-04-14T11:11:26Z</time></trkpt>
<trkpt lat="46.05981127" lon="6.09801410"><ele>1080.178467</ele><time>2007-04-14T11:11:39Z</time></trkpt>
<trkpt lat="46.05982485" lon="6.09807990"><ele>1081.139893</ele><time>2007-04-14T11:11:44Z</time></trkpt>
<trkpt lat="46.05982418" lon="6.09811443"><ele>1081.139893</ele><time>2007-04-14T11:11:46Z</time></trkpt>
<trkpt lat="46.05982963" lon="6.09849564"><ele>1084.023926</ele><time>2007-04-14T11:12:02Z</time></trkpt>
<trkpt lat="46.05976107" lon="6.09885078"><ele>1085.946533</ele><time>2007-04-14T11:12:18Z</time></trkpt>
<trkpt lat="46.05970952" lon="6.09893535"><ele>1086.427246</ele><time>2007-04-14T11:12:24Z</time></trkpt>
<trkpt lat="46.05970809" lon="6.09899394"><ele>1086.427246</ele><time>2007-04-14T11:12:28Z</time></trkpt>
<trkpt lat="46.05969284" lon="6.09909260"><ele>1086.907715</ele><time>2007-04-14T11:12:36Z</time></trkpt>
<trkpt lat="46.05966694" lon="6.09926359"><ele>1086.907715</ele><time>2007-04-14T11:12:44Z</time></trkpt>
<trkpt lat="46.05967205" lon="6.09955519"><ele>1088.349854</ele><time>2007-04-14T11:12:59Z</time></trkpt>
<trkpt lat="46.05970717" lon="6.09982316"><ele>1090.75293</ele><time>2007-04-14T11:13:12Z</time></trkpt>
<trkpt lat="46.05971170" lon="6.10015718"><ele>1093.15625</ele><time>2007-04-14T11:13:27Z</time></trkpt>
<trkpt lat="46.05971622" lon="6.10051232"><ele>1095.078857</ele><time>2007-04-14T11:13:42Z</time></trkpt>
<trkpt lat="46.05969787" lon="6.10085716"><ele>1096.520996</ele><time>2007-04-14T11:13:58Z</time></trkpt>
<trkpt lat="46.05964514" lon="6.10115429"><ele>1099.404785</ele><time>2007-04-14T11:14:12Z</time></trkpt>
<trkpt lat="46.05956510" lon="6.10144959"><ele>1100.846924</ele><time>2007-04-14T11:14:24Z</time></trkpt>
<trkpt lat="46.05949268" lon="6.10176047"><ele>1101.80835</ele><time>2007-04-14T11:14:38Z</time></trkpt>
<trkpt lat="46.05939838" lon="6.10210405"><ele>1104.21167</ele><time>2007-04-14T11:14:51Z</time></trkpt>
<trkpt lat="46.05931230" lon="6.10256329"><ele>1105.172852</ele><time>2007-04-14T11:15:07Z</time></trkpt>
<trkpt lat="46.05931766" lon="6.10289454"><ele>1106.614746</ele><time>2007-04-14T11:15:20Z</time></trkpt>
<trkpt lat="46.05935622" lon="6.10315078"><ele>1108.056885</ele><time>2007-04-14T11:15:29Z</time></trkpt>
<trkpt lat="46.05941020" lon="6.10340207"><ele>1109.018066</ele><time>2007-04-14T11:15:39Z</time></trkpt>
<trkpt lat="46.05943778" lon="6.10381429"><ele>1111.421387</ele><time>2007-04-14T11:15:53Z</time></trkpt>
<trkpt lat="46.05958094" lon="6.10398729"><ele>1112.382568</ele><time>2007-04-14T11:16:05Z</time></trkpt>
<trkpt lat="46.05968772" lon="6.10406449"><ele>1112.863281</ele><time>2007-04-14T11:16:14Z</time></trkpt>
<trkpt lat="46.05978998" lon="6.10419617"><ele>1114.305176</ele><time>2007-04-14T11:16:22Z</time></trkpt>
<trkpt lat="46.05984195" lon="6.10422920"><ele>1114.305176</ele><time>2007-04-14T11:16:25Z</time></trkpt>
<trkpt lat="46.06006977" lon="6.10446372"><ele>1116.70874</ele><time>2007-04-14T11:16:42Z</time></trkpt>
<trkpt lat="46.06034235" lon="6.10448099"><ele>1119.112061</ele><time>2007-04-14T11:16:58Z</time></trkpt>
<trkpt lat="46.06043916" lon="6.10431234"><ele>1120.553955</ele><time>2007-04-14T11:17:07Z</time></trkpt>
<trkpt lat="46.06049247" lon="6.10414605"><ele>1121.515137</ele><time>2007-04-14T11:17:14Z</time></trkpt>
<trkpt lat="46.06050530" lon="6.10409425"><ele>1122.476563</ele><time>2007-04-14T11:17:16Z</time></trkpt>
<trkpt lat="46.06062080" lon="6.10374866"><ele>1124.39917</ele><time>2007-04-14T11:17:31Z</time></trkpt>
<trkpt lat="46.06066874" lon="6.10361363"><ele>1124.879883</ele><time>2007-04-14T11:17:37Z</time></trkpt>
<trkpt lat="46.06071677" lon="6.10351212"><ele>1126.321777</ele><time>2007-04-14T11:17:43Z</time></trkpt>
<trkpt lat="46.06073119" lon="6.10350014"><ele>1126.80249</ele><time>2007-04-14T11:17:44Z</time></trkpt>
<trkpt lat="46.06083110" lon="6.10333250"><ele>1127.763672</ele><time>2007-04-14T11:17:54Z</time></trkpt>
<trkpt lat="46.06095239" lon="6.10314726"><ele>1129.205566</ele><time>2007-04-14T11:18:06Z</time></trkpt>
<trkpt lat="46.06100854" lon="6.10309286"><ele>1129.686279</ele><time>2007-04-14T11:18:10Z</time></trkpt>
<trkpt lat="46.06110033" lon="6.10294333"><ele>1130.166992</ele><time>2007-04-14T11:18:21Z</time></trkpt>
<trkpt lat="46.06124936" lon="6.10283252"><ele>1131.608887</ele><time>2007-04-14T11:18:35Z</time></trkpt>
<trkpt lat="46.06129822" lon="6.10290217"><ele>1132.570557</ele><time>2007-04-14T11:18:56Z</time></trkpt>
<trkpt lat="46.06133225" lon="6.10290024"><ele>1133.051025</ele><time>2007-04-14T11:18:58Z</time></trkpt>
<trkpt lat="46.06142454" lon="6.10296395"><ele>1134.493164</ele><time>2007-04-14T11:19:09Z</time></trkpt>
<trkpt lat="46.06154867" lon="6.10306746"><ele>1135.935059</ele><time>2007-04-14T11:19:19Z</time></trkpt>
<trkpt lat="46.06160223" lon="6.10314676"><ele>1135.935059</ele><time>2007-04-14T11:19:38Z</time></trkpt>
<trkpt lat="46.06166535" lon="6.10315447"><ele>1136.89624</ele><time>2007-04-14T11:20:30Z</time></trkpt>
<trkpt lat="46.06168974" lon="6.10315866"><ele>1137.857666</ele><time>2007-04-14T11:20:51Z</time></trkpt>
<trkpt lat="46.06170902" lon="6.10315036"><ele>1137.376953</ele><time>2007-04-14T11:20:53Z</time></trkpt>
<trkpt lat="46.06186098" lon="6.10319353"><ele>1138.338379</ele><time>2007-04-14T11:21:05Z</time></trkpt>
<trkpt lat="46.06204379" lon="6.10322965"><ele>1141.702881</ele><time>2007-04-14T11:21:17Z</time></trkpt>
<trkpt lat="46.06222786" lon="6.10315279"><ele>1143.625488</ele><time>2007-04-14T11:21:30Z</time></trkpt>
<trkpt lat="46.06223566" lon="6.10314122"><ele>1143.625488</ele><time>2007-04-14T11:21:31Z</time></trkpt>
<trkpt lat="46.06233993" lon="6.10311784"><ele>1144.106201</ele><time>2007-04-14T11:21:39Z</time></trkpt>
<trkpt lat="46.06245945" lon="6.10307802"><ele>1145.548096</ele><time>2007-04-14T11:21:49Z</time></trkpt>
<trkpt lat="46.06253145" lon="6.10307585"><ele>1146.509521</ele><time>2007-04-14T11:22:06Z</time></trkpt>
<trkpt lat="46.06258962" lon="6.10309127"><ele>1146.98999</ele><time>2007-04-14T11:22:34Z</time></trkpt>
<trkpt lat="46.06261577" lon="6.10310250"><ele>1148.912842</ele><time>2007-04-14T11:22:37Z</time></trkpt>
<trkpt lat="46.06273882" lon="6.10316788"><ele>1149.393555</ele><time>2007-04-14T11:22:50Z</time></trkpt>
<trkpt lat="46.06276154" lon="6.10318196"><ele>1149.393555</ele><time>2007-04-14T11:22:52Z</time></trkpt>
<trkpt lat="46.06288785" lon="6.10320870"><ele>1151.316162</ele><time>2007-04-14T11:23:03Z</time></trkpt>
<trkpt lat="46.06308273" lon="6.10313050"><ele>1154.200195</ele><time>2007-04-14T11:23:14Z</time></trkpt>
<trkpt lat="46.06315264" lon="6.10312505"><ele>1155.161377</ele><time>2007-04-14T11:23:18Z</time></trkpt>
<trkpt lat="46.06320879" lon="6.10321146"><ele>1155.64209</ele><time>2007-04-14T11:23:23Z</time></trkpt>
<trkpt lat="46.06334140" lon="6.10352847"><ele>1155.64209</ele><time>2007-04-14T11:23:36Z</time></trkpt>
<trkpt lat="46.06337979" lon="6.10360810"><ele>1155.64209</ele><time>2007-04-14T11:23:40Z</time></trkpt>
<trkpt lat="46.06343745" lon="6.10364682"><ele>1156.122559</ele><time>2007-04-14T11:23:44Z</time></trkpt>
<trkpt lat="46.06347752" lon="6.10368010"><ele>1155.161377</ele><time>2007-04-14T11:23:47Z</time></trkpt>
<trkpt lat="46.06375689" lon="6.10372385"><ele>1156.122559</ele><time>2007-04-14T11:24:01Z</time></trkpt>
<trkpt lat="46.06405838" lon="6.10407078"><ele>1157.564697</ele><time>2007-04-14T11:24:15Z</time></trkpt>
<trkpt lat="46.06419543" lon="6.10432156"><ele>1157.083984</ele><time>2007-04-14T11:24:24Z</time></trkpt>
<trkpt lat="46.06432543" lon="6.10441687"><ele>1159.006592</ele><time>2007-04-14T11:24:29Z</time></trkpt>
<trkpt lat="46.06444856" lon="6.10459465"><ele>1159.487305</ele><time>2007-04-14T11:24:36Z</time></trkpt>
<trkpt lat="46.06470019" lon="6.10480520"><ele>1159.487305</ele><time>2007-04-14T11:24:46Z</time></trkpt>
<trkpt lat="46.06479499" lon="6.10489514"><ele>1160.448486</ele><time>2007-04-14T11:24:51Z</time></trkpt>
<trkpt lat="46.06489263" lon="6.10507334"><ele>1160.929199</ele><time>2007-04-14T11:24:59Z</time></trkpt>
<trkpt lat="46.06495567" lon="6.10524659"><ele>1160.448486</ele><time>2007-04-14T11:25:04Z</time></trkpt>
<trkpt lat="46.06484092" lon="6.10577624"><ele>1162.371094</ele><time>2007-04-14T11:25:16Z</time></trkpt>
<trkpt lat="46.06475400" lon="6.10599493"><ele>1163.33252</ele><time>2007-04-14T11:25:21Z</time></trkpt>
<trkpt lat="46.06461645" lon="6.10668962"><ele>1164.774658</ele><time>2007-04-14T11:25:36Z</time></trkpt>
<trkpt lat="46.06462785" lon="6.10727183"><ele>1166.216553</ele><time>2007-04-14T11:25:47Z</time></trkpt>
<trkpt lat="46.06475400" lon="6.10753049"><ele>1168.619873</ele><time>2007-04-14T11:25:53Z</time></trkpt>
<trkpt lat="46.06491786" lon="6.10811228"><ele>1170.061768</ele><time>2007-04-14T11:26:05Z</time></trkpt>
<trkpt lat="46.06481208" lon="6.10878560"><ele>1172.465088</ele><time>2007-04-14T11:26:21Z</time></trkpt>
<trkpt lat="46.06475358" lon="6.10933294"><ele>1175.348877</ele><time>2007-04-14T11:26:34Z</time></trkpt>
<trkpt lat="46.06494946" lon="6.10987768"><ele>1178.23291</ele><time>2007-04-14T11:26:50Z</time></trkpt>
<trkpt lat="46.06516153" lon="6.10952027"><ele>1179.194092</ele><time>2007-04-14T11:27:00Z</time></trkpt>
<trkpt lat="46.06533369" lon="6.10890144"><ele>1180.636475</ele><time>2007-04-14T11:27:13Z</time></trkpt>
<trkpt lat="46.06561616" lon="6.10870002"><ele>1182.078369</ele><time>2007-04-14T11:27:23Z</time></trkpt>
<trkpt lat="46.06598689" lon="6.10863145"><ele>1183.039551</ele><time>2007-04-14T11:27:36Z</time></trkpt>
<trkpt lat="46.06627665" lon="6.10844705"><ele>1183.520264</ele><time>2007-04-14T11:27:47Z</time></trkpt>
<trkpt lat="46.06643298" lon="6.10821789"><ele>1183.039551</ele><time>2007-04-14T11:27:59Z</time></trkpt>
<trkpt lat="46.06650473" lon="6.10803483"><ele>1183.039551</ele><time>2007-04-14T11:28:06Z</time></trkpt>
<trkpt lat="46.06649324" lon="6.10788555"><ele>1184.962402</ele><time>2007-04-14T11:28:12Z</time></trkpt>
<trkpt lat="46.06647606" lon="6.10777524"><ele>1184.962402</ele><time>2007-04-14T11:28:16Z</time></trkpt>
<trkpt lat="46.06642283" lon="6.10735103"><ele>1186.884766</ele><time>2007-04-14T11:28:31Z</time></trkpt>
<trkpt lat="46.06641487" lon="6.10690185"><ele>1186.884766</ele><time>2007-04-14T11:28:43Z</time></trkpt>
<trkpt lat="46.06643608" lon="6.10671242"><ele>1187.846191</ele><time>2007-04-14T11:28:48Z</time></trkpt>
<trkpt lat="46.06667379" lon="6.10647026"><ele>1190.249512</ele><time>2007-04-14T11:29:02Z</time></trkpt>
<trkpt lat="46.06673305" lon="6.10643908"><ele>1189.768799</ele><time>2007-04-14T11:29:05Z</time></trkpt>
<trkpt lat="46.06711786" lon="6.10614429"><ele>1191.210693</ele><time>2007-04-14T11:29:25Z</time></trkpt>
<trkpt lat="46.06724259" lon="6.10622459"><ele>1191.691406</ele><time>2007-04-14T11:29:38Z</time></trkpt>
<trkpt lat="46.06724510" lon="6.10624119"><ele>1192.172119</ele><time>2007-04-14T11:29:52Z</time></trkpt>
<trkpt lat="46.06727779" lon="6.10635309"><ele>1195.536621</ele><time>2007-04-14T11:30:00Z</time></trkpt>
<trkpt lat="46.06732892" lon="6.10656867"><ele>1197.459473</ele><time>2007-04-14T11:30:12Z</time></trkpt>
<trkpt lat="46.06737083" lon="6.10679967"><ele>1200.823975</ele><time>2007-04-14T11:30:25Z</time></trkpt>
<trkpt lat="46.06741592" lon="6.10707737"><ele>1202.265869</ele><time>2007-04-14T11:30:39Z</time></trkpt>
<trkpt lat="46.06756973" lon="6.10734902"><ele>1201.304688</ele><time>2007-04-14T11:30:51Z</time></trkpt>
<trkpt lat="46.06763528" lon="6.10782478"><ele>1204.188721</ele><time>2007-04-14T11:31:06Z</time></trkpt>
<trkpt lat="46.06766118" lon="6.10834722"><ele>1205.149902</ele><time>2007-04-14T11:31:22Z</time></trkpt>
<trkpt lat="46.06761617" lon="6.10882156"><ele>1208.514404</ele><time>2007-04-14T11:31:36Z</time></trkpt>
<trkpt lat="46.06761273" lon="6.10885760"><ele>1208.514404</ele><time>2007-04-14T11:31:37Z</time></trkpt>
<trkpt lat="46.06757702" lon="6.10906949"><ele>1211.87915</ele><time>2007-04-14T11:31:44Z</time></trkpt>
<trkpt lat="46.06757409" lon="6.10911425"><ele>1212.840576</ele><time>2007-04-14T11:31:55Z</time></trkpt>
<trkpt lat="46.06754743" lon="6.10925113"><ele>1214.763184</ele><time>2007-04-14T11:32:08Z</time></trkpt>
<trkpt lat="46.06753578" lon="6.10942782"><ele>1217.166504</ele><time>2007-04-14T11:32:24Z</time></trkpt>
<trkpt lat="46.06750762" lon="6.10972186"><ele>1218.127686</ele><time>2007-04-14T11:32:34Z</time></trkpt>
<trkpt lat="46.06747812" lon="6.11021253"><ele>1218.608398</ele><time>2007-04-14T11:32:47Z</time></trkpt>
<trkpt lat="46.06744610" lon="6.11061788"><ele>1219.089111</ele><time>2007-04-14T11:32:52Z</time></trkpt>
<trkpt lat="46.06741039" lon="6.11095928"><ele>1219.089111</ele><time>2007-04-14T11:32:56Z</time></trkpt>
<trkpt lat="46.06740813" lon="6.11113639"><ele>1219.089111</ele><time>2007-04-14T11:32:58Z</time></trkpt>
<trkpt lat="46.06747066" lon="6.11147024"><ele>1218.608398</ele><time>2007-04-14T11:33:02Z</time></trkpt>
<trkpt lat="46.06761843" lon="6.11188506"><ele>1222.934326</ele><time>2007-04-14T11:33:08Z</time></trkpt>
<trkpt lat="46.06769437" lon="6.11262694"><ele>1222.453613</ele><time>2007-04-14T11:33:22Z</time></trkpt>
<trkpt lat="46.06784005" lon="6.11291218"><ele>1224.376221</ele><time>2007-04-14T11:33:31Z</time></trkpt>
<trkpt lat="46.06798447" lon="6.11300798"><ele>1225.818115</ele><time>2007-04-14T11:33:43Z</time></trkpt>
<trkpt lat="46.06805647" lon="6.11303003"><ele>1223.415039</ele><time>2007-04-14T11:34:15Z</time></trkpt>
<trkpt lat="46.06834112" lon="6.11333353"><ele>1221.9729</ele><time>2007-04-14T11:34:26Z</time></trkpt>
<trkpt lat="46.06854119" lon="6.11339875"><ele>1222.453613</ele><time>2007-04-14T11:34:30Z</time></trkpt>
<trkpt lat="46.06878997" lon="6.11341626"><ele>1222.934326</ele><time>2007-04-14T11:34:35Z</time></trkpt>
<trkpt lat="46.06888209" lon="6.11344258"><ele>1221.9729</ele><time>2007-04-14T11:34:37Z</time></trkpt>
<trkpt lat="46.06919875" lon="6.11341492"><ele>1220.050293</ele><time>2007-04-14T11:34:43Z</time></trkpt>
<trkpt lat="46.06965054" lon="6.11357477"><ele>1219.089111</ele><time>2007-04-14T11:34:50Z</time></trkpt>
<trkpt lat="46.06988749" lon="6.11382253"><ele>1218.127686</ele><time>2007-04-14T11:34:55Z</time></trkpt>
<trkpt lat="46.06999906" lon="6.11412588"><ele>1219.089111</ele><time>2007-04-14T11:35:03Z</time></trkpt>
<trkpt lat="46.06997685" lon="6.11422822"><ele>1217.646973</ele><time>2007-04-14T11:35:23Z</time></trkpt>
<trkpt lat="46.07029712" lon="6.11411196"><ele>1215.724609</ele><time>2007-04-14T11:35:33Z</time></trkpt>
<trkpt lat="46.07052402" lon="6.11429972"><ele>1213.321289</ele><time>2007-04-14T11:35:41Z</time></trkpt>
<trkpt lat="46.07080942" lon="6.11460255"><ele>1211.398438</ele><time>2007-04-14T11:35:52Z</time></trkpt>
<trkpt lat="46.07081663" lon="6.11469559"><ele>1212.359863</ele><time>2007-04-14T11:36:01Z</time></trkpt>
<trkpt lat="46.07080707" lon="6.11472468"><ele>1213.321289</ele><time>2007-04-14T11:36:18Z</time></trkpt>
<trkpt lat="46.07091453" lon="6.11469995"><ele>1211.398438</ele><time>2007-04-14T11:36:28Z</time></trkpt>
<trkpt lat="46.07087329" lon="6.11477405"><ele>1212.359863</ele><time>2007-04-14T11:36:47Z</time></trkpt>
<trkpt lat="46.07092517" lon="6.11491553"><ele>1212.359863</ele><time>2007-04-14T11:36:52Z</time></trkpt>
<trkpt lat="46.07114034" lon="6.11531887"><ele>1212.359863</ele><time>2007-04-14T11:37:05Z</time></trkpt>
<trkpt lat="46.07132667" lon="6.11532239"><ele>1214.282471</ele><time>2007-04-14T11:37:19Z</time></trkpt>
<trkpt lat="46.07134494" lon="6.11531585"><ele>1214.282471</ele><time>2007-04-14T11:37:20Z</time></trkpt>
<trkpt lat="46.07141174" lon="6.11530898"><ele>1216.205078</ele><time>2007-04-14T11:37:24Z</time></trkpt>
<trkpt lat="46.07147452" lon="6.11530823"><ele>1217.166504</ele><time>2007-04-14T11:37:31Z</time></trkpt>
<trkpt lat="46.07153580" lon="6.11532709"><ele>1217.166504</ele><time>2007-04-14T11:37:47Z</time></trkpt>
<trkpt lat="46.07152339" lon="6.11527386"><ele>1217.646973</ele><time>2007-04-14T11:38:14Z</time></trkpt>
<trkpt lat="46.07150738" lon="6.11526472"><ele>1219.569824</ele><time>2007-04-14T11:44:13Z</time></trkpt>
<trkpt lat="46.07151333" lon="6.11526548"><ele>1216.205078</ele><time>2007-04-14T11:44:32Z</time></trkpt>
<trkpt lat="46.07151065" lon="6.11526104"><ele>1217.646973</ele><time>2007-04-14T11:45:47Z</time></trkpt>
<trkpt lat="46.07156748" lon="6.11526615"><ele>1217.166504</ele><time>2007-04-14T11:52:58Z</time></trkpt>
<trkpt lat="46.07158508" lon="6.11525182"><ele>1218.127686</ele><time>2007-04-14T11:53:29Z</time></trkpt>
<trkpt lat="46.07162112" lon="6.11527076"><ele>1218.127686</ele><time>2007-04-14T11:54:02Z</time></trkpt>
<trkpt lat="46.07168172" lon="6.11532910"><ele>1217.646973</ele><time>2007-04-14T11:54:17Z</time></trkpt>
<trkpt lat="46.07170385" lon="6.11534636"><ele>1218.127686</ele><time>2007-04-14T11:54:22Z</time></trkpt>
<trkpt lat="46.07192690" lon="6.11549456"><ele>1218.608398</ele><time>2007-04-14T11:54:41Z</time></trkpt>
<trkpt lat="46.07213116" lon="6.11563529"><ele>1220.050293</ele><time>2007-04-14T11:55:00Z</time></trkpt>
<trkpt lat="46.07226184" lon="6.11571115"><ele>1220.531006</ele><time>2007-04-14T11:55:11Z</time></trkpt>
<trkpt lat="46.07243878" lon="6.11595682"><ele>1221.9729</ele><time>2007-04-14T11:55:30Z</time></trkpt>
<trkpt lat="46.07260290" lon="6.11628514"><ele>1223.895508</ele><time>2007-04-14T11:55:50Z</time></trkpt>
<trkpt lat="46.07289107" lon="6.11635999"><ele>1222.453613</ele><time>2007-04-14T11:56:03Z</time></trkpt>
<trkpt lat="46.07296675" lon="6.11638463"><ele>1220.531006</ele><time>2007-04-14T11:56:05Z</time></trkpt>
<trkpt lat="46.07338099" lon="6.11657624"><ele>1219.569824</ele><time>2007-04-14T11:56:18Z</time></trkpt>
<trkpt lat="46.07378508" lon="6.11671102"><ele>1219.089111</ele><time>2007-04-14T11:56:31Z</time></trkpt>
<trkpt lat="46.07391869" lon="6.11675469"><ele>1221.011719</ele><time>2007-04-14T11:56:36Z</time></trkpt>
<trkpt lat="46.07424147" lon="6.11683767"><ele>1222.453613</ele><time>2007-04-14T11:56:51Z</time></trkpt>
<trkpt lat="46.07453316" lon="6.11696156"><ele>1222.453613</ele><time>2007-04-14T11:57:03Z</time></trkpt>
<trkpt lat="46.07460265" lon="6.11678177"><ele>1218.608398</ele><time>2007-04-14T11:57:11Z</time></trkpt>
<trkpt lat="46.07460408" lon="6.11675645"><ele>1219.089111</ele><time>2007-04-14T11:57:12Z</time></trkpt>
<trkpt lat="46.07459972" lon="6.11667154"><ele>1217.646973</ele><time>2007-04-14T11:57:22Z</time></trkpt>
<trkpt lat="46.07460139" lon="6.11664950"><ele>1217.166504</ele><time>2007-04-14T11:57:25Z</time></trkpt>
<trkpt lat="46.07459670" lon="6.11658026"><ele>1215.243896</ele><time>2007-04-14T11:57:28Z</time></trkpt>
<trkpt lat="46.07464825" lon="6.11654372"><ele>1214.763184</ele><time>2007-04-14T11:57:31Z</time></trkpt>
<trkpt lat="46.07489878" lon="6.11655143"><ele>1210.437012</ele><time>2007-04-14T11:57:42Z</time></trkpt>
<trkpt lat="46.07490918" lon="6.11647499"><ele>1209.956299</ele><time>2007-04-14T11:57:55Z</time></trkpt>
<trkpt lat="46.07485972" lon="6.11633384"><ele>1207.07251</ele><time>2007-04-14T11:58:21Z</time></trkpt>
<trkpt lat="46.07486014" lon="6.11631456"><ele>1205.149902</ele><time>2007-04-14T11:58:22Z</time></trkpt>
<trkpt lat="46.07486534" lon="6.11620350"><ele>1201.7854</ele><time>2007-04-14T11:58:26Z</time></trkpt>
<trkpt lat="46.07480725" lon="6.11596378"><ele>1197.940186</ele><time>2007-04-14T11:58:33Z</time></trkpt>
<trkpt lat="46.07472586" lon="6.11586546"><ele>1197.459473</ele><time>2007-04-14T11:58:35Z</time></trkpt>
<trkpt lat="46.07462763" lon="6.11577208"><ele>1196.498291</ele><time>2007-04-14T11:58:37Z</time></trkpt>
<trkpt lat="46.07430560" lon="6.11553010"><ele>1191.691406</ele><time>2007-04-14T11:58:44Z</time></trkpt>
<trkpt lat="46.07422915" lon="6.11545625"><ele>1189.768799</ele><time>2007-04-14T11:58:46Z</time></trkpt>
<trkpt lat="46.07412195" lon="6.11532147"><ele>1186.404297</ele><time>2007-04-14T11:58:49Z</time></trkpt>
<trkpt lat="46.07410477" lon="6.11529088"><ele>1185.442871</ele><time>2007-04-14T11:58:50Z</time></trkpt>
<trkpt lat="46.07404953" lon="6.11515895"><ele>1183.520264</ele><time>2007-04-14T11:58:53Z</time></trkpt>
<trkpt lat="46.07399572" lon="6.11500304"><ele>1179.674805</ele><time>2007-04-14T11:58:56Z</time></trkpt>
<trkpt lat="46.07395272" lon="6.11490279"><ele>1178.713623</ele><time>2007-04-14T11:58:58Z</time></trkpt>
<trkpt lat="46.07385415" lon="6.11455034"><ele>1178.713623</ele><time>2007-04-14T11:59:03Z</time></trkpt>
<trkpt lat="46.07371434" lon="6.11421363"><ele>1175.82959</ele><time>2007-04-14T11:59:08Z</time></trkpt>
<trkpt lat="46.07364552" lon="6.11408514"><ele>1173.426514</ele><time>2007-04-14T11:59:10Z</time></trkpt>
<trkpt lat="46.07352247" lon="6.11388708"><ele>1170.061768</ele><time>2007-04-14T11:59:17Z</time></trkpt>
<trkpt lat="46.07339784" lon="6.11374936"><ele>1166.697266</ele><time>2007-04-14T11:59:23Z</time></trkpt>
<trkpt lat="46.07338367" lon="6.11367233"><ele>1165.255371</ele><time>2007-04-14T11:59:25Z</time></trkpt>
<trkpt lat="46.07334419" lon="6.11352892"><ele>1163.33252</ele><time>2007-04-14T11:59:28Z</time></trkpt>
<trkpt lat="46.07329239" lon="6.11335013"><ele>1159.487305</ele><time>2007-04-14T11:59:31Z</time></trkpt>
<trkpt lat="46.07327898" lon="6.11327729"><ele>1158.525879</ele><time>2007-04-14T11:59:33Z</time></trkpt>
<trkpt lat="46.07327169" lon="6.11324687"><ele>1158.525879</ele><time>2007-04-14T11:59:34Z</time></trkpt>
<trkpt lat="46.07318737" lon="6.11299122"><ele>1154.680664</ele><time>2007-04-14T11:59:39Z</time></trkpt>
<trkpt lat="46.07317186" lon="6.11293833"><ele>1153.23877</ele><time>2007-04-14T11:59:40Z</time></trkpt>
<trkpt lat="46.07305292" lon="6.11261629"><ele>1149.874268</ele><time>2007-04-14T11:59:44Z</time></trkpt>
<trkpt lat="46.07295678" lon="6.11236769"><ele>1147.951416</ele><time>2007-04-14T11:59:47Z</time></trkpt>
<trkpt lat="46.07273826" lon="6.11201137"><ele>1145.067383</ele><time>2007-04-14T11:59:52Z</time></trkpt>
<trkpt lat="46.07263835" lon="6.11190920"><ele>1144.58667</ele><time>2007-04-14T11:59:54Z</time></trkpt>
<trkpt lat="46.07253383" lon="6.11179269"><ele>1142.664307</ele><time>2007-04-14T11:59:56Z</time></trkpt>
<trkpt lat="46.07247650" lon="6.11172052"><ele>1141.702881</ele><time>2007-04-14T11:59:57Z</time></trkpt>
<trkpt lat="46.07230408" lon="6.11159035"><ele>1139.780273</ele><time>2007-04-14T12:00:00Z</time></trkpt>
<trkpt lat="46.07214868" lon="6.11152656"><ele>1137.857666</ele><time>2007-04-14T12:00:04Z</time></trkpt>
<trkpt lat="46.07204466" lon="6.11147946"><ele>1134.973877</ele><time>2007-04-14T12:00:07Z</time></trkpt>
<trkpt lat="46.07192857" lon="6.11132816"><ele>1134.493164</ele><time>2007-04-14T12:00:24Z</time></trkpt>
<trkpt lat="46.07190100" lon="6.11111577"><ele>1133.531738</ele><time>2007-04-14T12:00:34Z</time></trkpt>
<trkpt lat="46.07188976" lon="6.11101669"><ele>1131.608887</ele><time>2007-04-14T12:00:54Z</time></trkpt>
<trkpt lat="46.07185699" lon="6.11092164"><ele>1128.725098</ele><time>2007-04-14T12:00:58Z</time></trkpt>
<trkpt lat="46.07179287" lon="6.11083338"><ele>1126.321777</ele><time>2007-04-14T12:01:04Z</time></trkpt>
<trkpt lat="46.07170285" lon="6.11062693"><ele>1122.957275</ele><time>2007-04-14T12:01:11Z</time></trkpt>
<trkpt lat="46.07162858" lon="6.11041546"><ele>1120.553955</ele><time>2007-04-14T12:01:20Z</time></trkpt>
<trkpt lat="46.07160109" lon="6.11029317"><ele>1118.631348</ele><time>2007-04-14T12:01:23Z</time></trkpt>
<trkpt lat="46.07152213" lon="6.11014640"><ele>1116.228027</ele><time>2007-04-14T12:01:32Z</time></trkpt>
<trkpt lat="46.07150839" lon="6.11010239"><ele>1114.305176</ele><time>2007-04-14T12:01:34Z</time></trkpt>
<trkpt lat="46.07148173" lon="6.11002796"><ele>1113.343994</ele><time>2007-04-14T12:01:37Z</time></trkpt>
<trkpt lat="46.07142532" lon="6.10976016"><ele>1109.498779</ele><time>2007-04-14T12:01:43Z</time></trkpt>
<trkpt lat="46.07122005" lon="6.10936437"><ele>1105.653564</ele><time>2007-04-14T12:01:51Z</time></trkpt>
<trkpt lat="46.07116180" lon="6.10901585"><ele>1104.692139</ele><time>2007-04-14T12:02:02Z</time></trkpt>
<trkpt lat="46.07115828" lon="6.10897176"><ele>1104.21167</ele><time>2007-04-14T12:02:04Z</time></trkpt>
<trkpt lat="46.07114428" lon="6.10882122"><ele>1102.769531</ele><time>2007-04-14T12:02:10Z</time></trkpt>
<trkpt lat="46.07118677" lon="6.10855987"><ele>1101.327637</ele><time>2007-04-14T12:02:18Z</time></trkpt>
<trkpt lat="46.07114134" lon="6.10838352"><ele>1100.846924</ele><time>2007-04-14T12:02:23Z</time></trkpt>
<trkpt lat="46.07099424" lon="6.10800298"><ele>1097.962891</ele><time>2007-04-14T12:02:30Z</time></trkpt>
<trkpt lat="46.07077137" lon="6.10760048"><ele>1096.520996</ele><time>2007-04-14T12:02:40Z</time></trkpt>
<trkpt lat="46.07063835" lon="6.10734223"><ele>1092.675781</ele><time>2007-04-14T12:02:45Z</time></trkpt>
<trkpt lat="46.07061387" lon="6.10730812"><ele>1092.195068</ele><time>2007-04-14T12:02:46Z</time></trkpt>
<trkpt lat="46.07040072" lon="6.10700578"><ele>1090.272461</ele><time>2007-04-14T12:02:54Z</time></trkpt>
<trkpt lat="46.07028865" lon="6.10684410"><ele>1087.388428</ele><time>2007-04-14T12:02:58Z</time></trkpt>
<trkpt lat="46.07021330" lon="6.10677805"><ele>1085.946533</ele><time>2007-04-14T12:03:00Z</time></trkpt>
<trkpt lat="46.06986738" lon="6.10622928"><ele>1084.504639</ele><time>2007-04-14T12:03:10Z</time></trkpt>
<trkpt lat="46.06975615" lon="6.10592175"><ele>1082.581787</ele><time>2007-04-14T12:03:14Z</time></trkpt>
<trkpt lat="46.06959027" lon="6.10558145"><ele>1081.139893</ele><time>2007-04-14T12:03:20Z</time></trkpt>
<trkpt lat="46.06935692" lon="6.10513905"><ele>1079.217041</ele><time>2007-04-14T12:03:31Z</time></trkpt>
<trkpt lat="46.06932658" lon="6.10509614"><ele>1077.775146</ele><time>2007-04-14T12:03:32Z</time></trkpt>
<trkpt lat="46.06916053" lon="6.10476379"><ele>1075.852539</ele><time>2007-04-14T12:03:41Z</time></trkpt>
<trkpt lat="46.06915827" lon="6.10474368"><ele>1075.371826</ele><time>2007-04-14T12:03:42Z</time></trkpt>
<trkpt lat="46.06907529" lon="6.10451887"><ele>1072.488037</ele><time>2007-04-14T12:03:49Z</time></trkpt>
<trkpt lat="46.06900555" lon="6.10421193"><ele>1069.123535</ele><time>2007-04-14T12:03:59Z</time></trkpt>
<trkpt lat="46.06897864" lon="6.10414236"><ele>1068.162109</ele><time>2007-04-14T12:04:01Z</time></trkpt>
<trkpt lat="46.06885099" lon="6.10382468"><ele>1066.239258</ele><time>2007-04-14T12:04:12Z</time></trkpt>
<trkpt lat="46.06880288" lon="6.10368814"><ele>1064.31665</ele><time>2007-04-14T12:04:15Z</time></trkpt>
<trkpt lat="46.06871746" lon="6.10343048"><ele>1063.835938</ele><time>2007-04-14T12:04:24Z</time></trkpt>
<trkpt lat="46.06869970" lon="6.10336804"><ele>1063.355469</ele><time>2007-04-14T12:04:38Z</time></trkpt>
<trkpt lat="46.06867824" lon="6.10329319"><ele>1062.394043</ele><time>2007-04-14T12:04:48Z</time></trkpt>
<trkpt lat="46.06849593" lon="6.10302765"><ele>1060.952148</ele><time>2007-04-14T12:05:00Z</time></trkpt>
<trkpt lat="46.06831337" lon="6.10274736"><ele>1059.029541</ele><time>2007-04-14T12:05:11Z</time></trkpt>
<trkpt lat="46.06826384" lon="6.10266874"><ele>1057.587646</ele><time>2007-04-14T12:05:13Z</time></trkpt>
<trkpt lat="46.06817507" lon="6.10244276"><ele>1057.106934</ele><time>2007-04-14T12:05:24Z</time></trkpt>
<trkpt lat="46.06816602" lon="6.10238099"><ele>1056.626221</ele><time>2007-04-14T12:05:30Z</time></trkpt>
<trkpt lat="46.06812445" lon="6.10233832"><ele>1056.626221</ele><time>2007-04-14T12:05:34Z</time></trkpt>
<trkpt lat="46.06803157" lon="6.10213003"><ele>1054.703613</ele><time>2007-04-14T12:05:39Z</time></trkpt>
<trkpt lat="46.06785555" lon="6.10173734"><ele>1052.300293</ele><time>2007-04-14T12:05:47Z</time></trkpt>
<trkpt lat="46.06758264" lon="6.10137365"><ele>1048.454834</ele><time>2007-04-14T12:05:57Z</time></trkpt>
<trkpt lat="46.06754324" lon="6.10131095"><ele>1047.493652</ele><time>2007-04-14T12:05:59Z</time></trkpt>
<trkpt lat="46.06745817" lon="6.10108732"><ele>1045.571045</ele><time>2007-04-14T12:06:11Z</time></trkpt>
<trkpt lat="46.06752589" lon="6.10102479"><ele>1045.090332</ele><time>2007-04-14T12:06:29Z</time></trkpt>
<trkpt lat="46.06751575" lon="6.10102312"><ele>1044.609619</ele><time>2007-04-14T12:06:36Z</time></trkpt>
<trkpt lat="46.06751022" lon="6.10097199"><ele>1043.167725</ele><time>2007-04-14T12:06:39Z</time></trkpt>
<trkpt lat="46.06748382" lon="6.10091139"><ele>1042.206543</ele><time>2007-04-14T12:06:41Z</time></trkpt>
<trkpt lat="46.06731098" lon="6.10048072"><ele>1038.361328</ele><time>2007-04-14T12:06:53Z</time></trkpt>
<trkpt lat="46.06724577" lon="6.10026095"><ele>1036.919189</ele><time>2007-04-14T12:06:57Z</time></trkpt>
<trkpt lat="46.06719674" lon="6.10013162"><ele>1033.554443</ele><time>2007-04-14T12:06:59Z</time></trkpt>
<trkpt lat="46.06712943" lon="6.09983029"><ele>1031.631836</ele><time>2007-04-14T12:07:05Z</time></trkpt>
<trkpt lat="46.06709498" lon="6.09972895"><ele>1029.228516</ele><time>2007-04-14T12:07:09Z</time></trkpt>
<trkpt lat="46.06709439" lon="6.09965377"><ele>1026.344727</ele><time>2007-04-14T12:07:12Z</time></trkpt>
<trkpt lat="46.06709339" lon="6.09963222"><ele>1025.864014</ele><time>2007-04-14T12:07:13Z</time></trkpt>
<trkpt lat="46.06710504" lon="6.09960632"><ele>1024.902832</ele><time>2007-04-14T12:07:14Z</time></trkpt>
<trkpt lat="46.06712792" lon="6.09952653"><ele>1021.057617</ele><time>2007-04-14T12:07:17Z</time></trkpt>
<trkpt lat="46.06705517" lon="6.09941077"><ele>1020.096191</ele><time>2007-04-14T12:07:22Z</time></trkpt>
<trkpt lat="46.06703916" lon="6.09931589"><ele>1015.289551</ele><time>2007-04-14T12:07:26Z</time></trkpt>
<trkpt lat="46.06703186" lon="6.09924959"><ele>1013.366943</ele><time>2007-04-14T12:07:28Z</time></trkpt>
<trkpt lat="46.06700948" lon="6.09918748"><ele>1012.405518</ele><time>2007-04-14T12:07:30Z</time></trkpt>
<trkpt lat="46.06698317" lon="6.09909754"><ele>1010.002197</ele><time>2007-04-14T12:07:32Z</time></trkpt>
<trkpt lat="46.06697277" lon="6.09902236"><ele>1008.560303</ele><time>2007-04-14T12:07:34Z</time></trkpt>
<trkpt lat="46.06692273" lon="6.09882907"><ele>1008.560303</ele><time>2007-04-14T12:07:45Z</time></trkpt>
<trkpt lat="46.06691217" lon="6.09869622"><ele>1006.637695</ele><time>2007-04-14T12:08:10Z</time></trkpt>
<trkpt lat="46.06693656" lon="6.09853034"><ele>1001.350342</ele><time>2007-04-14T12:08:15Z</time></trkpt>
<trkpt lat="46.06692173" lon="6.09843990"><ele>997.98584</ele><time>2007-04-14T12:08:17Z</time></trkpt>
<trkpt lat="46.06690773" lon="6.09839246"><ele>997.505127</ele><time>2007-04-14T12:08:18Z</time></trkpt>
<trkpt lat="46.06686163" lon="6.09819582"><ele>994.140625</ele><time>2007-04-14T12:08:22Z</time></trkpt>
<trkpt lat="46.06686230" lon="6.09803623"><ele>991.256592</ele><time>2007-04-14T12:08:26Z</time></trkpt>
<trkpt lat="46.06688929" lon="6.09791796"><ele>987.891846</ele><time>2007-04-14T12:08:29Z</time></trkpt>
<trkpt lat="46.06691075" lon="6.09779717"><ele>984.527344</ele><time>2007-04-14T12:08:33Z</time></trkpt>
<trkpt lat="46.06691150" lon="6.09776365"><ele>984.527344</ele><time>2007-04-14T12:08:34Z</time></trkpt>
<trkpt lat="46.06691753" lon="6.09764932"><ele>982.124023</ele><time>2007-04-14T12:08:37Z</time></trkpt>
<trkpt lat="46.06694075" lon="6.09749392"><ele>977.798096</ele><time>2007-04-14T12:08:41Z</time></trkpt>
<trkpt lat="46.06700244" lon="6.09738805"><ele>973.952881</ele><time>2007-04-14T12:08:44Z</time></trkpt>
<trkpt lat="46.06704125" lon="6.09728487"><ele>971.068848</ele><time>2007-04-14T12:08:47Z</time></trkpt>
<trkpt lat="46.06705726" lon="6.09719208"><ele>969.626953</ele><time>2007-04-14T12:08:49Z</time></trkpt>
<trkpt lat="46.06706506" lon="6.09702067"><ele>966.262207</ele><time>2007-04-14T12:08:54Z</time></trkpt>
<trkpt lat="46.06705475" lon="6.09686083"><ele>963.858887</ele><time>2007-04-14T12:09:08Z</time></trkpt>
<trkpt lat="46.06704335" lon="6.09675145"><ele>961.936523</ele><time>2007-04-14T12:09:27Z</time></trkpt>
<trkpt lat="46.06704142" lon="6.09660468"><ele>959.05249</ele><time>2007-04-14T12:09:32Z</time></trkpt>
<trkpt lat="46.06706900" lon="6.09633042"><ele>954.24585</ele><time>2007-04-14T12:09:38Z</time></trkpt>
<trkpt lat="46.06705793" lon="6.09626689"><ele>954.24585</ele><time>2007-04-14T12:09:49Z</time></trkpt>
<trkpt lat="46.06706765" lon="6.09613655"><ele>951.842529</ele><time>2007-04-14T12:10:19Z</time></trkpt>
<trkpt lat="46.06703882" lon="6.09575668"><ele>947.516602</ele><time>2007-04-14T12:10:25Z</time></trkpt>
<trkpt lat="46.06699037" lon="6.09554982"><ele>944.1521</ele><time>2007-04-14T12:10:28Z</time></trkpt>
<trkpt lat="46.06697076" lon="6.09547547"><ele>943.671387</ele><time>2007-04-14T12:10:29Z</time></trkpt>
<trkpt lat="46.06683573" lon="6.09516869"><ele>939.345215</ele><time>2007-04-14T12:10:33Z</time></trkpt>
<trkpt lat="46.06679885" lon="6.09509619"><ele>937.90332</ele><time>2007-04-14T12:10:34Z</time></trkpt>
<trkpt lat="46.06669424" lon="6.09488220"><ele>936.461426</ele><time>2007-04-14T12:10:37Z</time></trkpt>
<trkpt lat="46.06665459" lon="6.09475303"><ele>935.5</ele><time>2007-04-14T12:10:39Z</time></trkpt>
<trkpt lat="46.06657279" lon="6.09453963"><ele>932.616211</ele><time>2007-04-14T12:10:43Z</time></trkpt>
<trkpt lat="46.06643264" lon="6.09423579"><ele>927.80957</ele><time>2007-04-14T12:10:48Z</time></trkpt>
<trkpt lat="46.06639593" lon="6.09416203"><ele>927.329102</ele><time>2007-04-14T12:10:49Z</time></trkpt>
<trkpt lat="46.06633323" lon="6.09401727"><ele>926.367676</ele><time>2007-04-14T12:10:51Z</time></trkpt>
<trkpt lat="46.06632158" lon="6.09374285"><ele>924.925781</ele><time>2007-04-14T12:10:58Z</time></trkpt>
<trkpt lat="46.06633114" lon="6.09371779"><ele>925.40625</ele><time>2007-04-14T12:11:15Z</time></trkpt>
<trkpt lat="46.06640180" lon="6.09375584"><ele>923.964111</ele><time>2007-04-14T12:11:19Z</time></trkpt>
<trkpt lat="46.06666884" lon="6.09396589"><ele>921.560791</ele><time>2007-04-14T12:11:25Z</time></trkpt>
<trkpt lat="46.06694352" lon="6.09382248"><ele>917.715576</ele><time>2007-04-14T12:11:30Z</time></trkpt>
<trkpt lat="46.06690337" lon="6.09335887"><ele>914.831787</ele><time>2007-04-14T12:11:34Z</time></trkpt>
<trkpt lat="46.06650892" lon="6.09233393"><ele>909.544678</ele><time>2007-04-14T12:11:43Z</time></trkpt>
<trkpt lat="46.06644899" lon="6.09162206"><ele>906.179688</ele><time>2007-04-14T12:11:48Z</time></trkpt>
<trkpt lat="46.06651177" lon="6.09123062"><ele>904.737793</ele><time>2007-04-14T12:11:52Z</time></trkpt>
<trkpt lat="46.06655309" lon="6.09112543"><ele>903.295898</ele><time>2007-04-14T12:11:54Z</time></trkpt>
<trkpt lat="46.06663624" lon="6.09111076"><ele>902.334473</ele><time>2007-04-14T12:11:56Z</time></trkpt>
<trkpt lat="46.06672886" lon="6.09116985"><ele>901.854004</ele><time>2007-04-14T12:11:58Z</time></trkpt>
<trkpt lat="46.06762354" lon="6.09192909"><ele>899.931396</ele><time>2007-04-14T12:12:14Z</time></trkpt>
<trkpt lat="46.06841228" lon="6.09267617"><ele>898.969971</ele><time>2007-04-14T12:12:30Z</time></trkpt>
<trkpt lat="46.06874228" lon="6.09306416"><ele>898.008789</ele><time>2007-04-14T12:12:38Z</time></trkpt>
<trkpt lat="46.06885007" lon="6.09338477"><ele>894.163574</ele><time>2007-04-14T12:12:43Z</time></trkpt>
<trkpt lat="46.06886918" lon="6.09346943"><ele>894.163574</ele><time>2007-04-14T12:12:44Z</time></trkpt>
<trkpt lat="46.06891570" lon="6.09372566"><ele>890.798584</ele><time>2007-04-14T12:12:47Z</time></trkpt>
<trkpt lat="46.06896624" lon="6.09401216"><ele>885.992188</ele><time>2007-04-14T12:12:50Z</time></trkpt>
<trkpt lat="46.06900027" lon="6.09423587"><ele>882.146973</ele><time>2007-04-14T12:12:52Z</time></trkpt>
<trkpt lat="46.06905366" lon="6.09447216"><ele>878.782471</ele><time>2007-04-14T12:12:54Z</time></trkpt>
<trkpt lat="46.06915223" lon="6.09470006"><ele>878.301758</ele><time>2007-04-14T12:12:56Z</time></trkpt>
<trkpt lat="46.06929976" lon="6.09521924"><ele>877.340576</ele><time>2007-04-14T12:13:00Z</time></trkpt>
<trkpt lat="46.06948122" lon="6.09571855"><ele>877.821045</ele><time>2007-04-14T12:13:05Z</time></trkpt>
<trkpt lat="46.06953512" lon="6.09605634"><ele>873.975586</ele><time>2007-04-14T12:13:08Z</time></trkpt>
<trkpt lat="46.06955834" lon="6.09616849"><ele>872.533691</ele><time>2007-04-14T12:13:09Z</time></trkpt>
<trkpt lat="46.06967677" lon="6.09646093"><ele>871.572266</ele><time>2007-04-14T12:13:12Z</time></trkpt>
<trkpt lat="46.06984684" lon="6.09661139"><ele>868.207764</ele><time>2007-04-14T12:13:15Z</time></trkpt>
<trkpt lat="46.06990585" lon="6.09666562"><ele>867.727051</ele><time>2007-04-14T12:13:16Z</time></trkpt>
<trkpt lat="46.07009528" lon="6.09691322"><ele>864.843262</ele><time>2007-04-14T12:13:21Z</time></trkpt>
<trkpt lat="46.07014314" lon="6.09704238"><ele>863.881836</ele><time>2007-04-14T12:13:23Z</time></trkpt>
<trkpt lat="46.07034205" lon="6.09735595"><ele>862.439941</ele><time>2007-04-14T12:13:28Z</time></trkpt>
<trkpt lat="46.07048445" lon="6.09761705"><ele>860.998047</ele><time>2007-04-14T12:13:32Z</time></trkpt>
<trkpt lat="46.07066869" lon="6.09784679"><ele>857.633301</ele><time>2007-04-14T12:13:36Z</time></trkpt>
<trkpt lat="46.07085242" lon="6.09798317"><ele>856.191162</ele><time>2007-04-14T12:13:40Z</time></trkpt>
<trkpt lat="46.07106289" lon="6.09817947"><ele>855.22998</ele><time>2007-04-14T12:13:47Z</time></trkpt>
<trkpt lat="46.07113346" lon="6.09824577"><ele>855.710693</ele><time>2007-04-14T12:13:49Z</time></trkpt>
<trkpt lat="46.07128082" lon="6.09839665"><ele>853.307373</ele><time>2007-04-14T12:13:53Z</time></trkpt>
<trkpt lat="46.07149959" lon="6.09861097"><ele>848.981445</ele><time>2007-04-14T12:13:58Z</time></trkpt>
<trkpt lat="46.07171115" lon="6.09910307"><ele>848.981445</ele><time>2007-04-14T12:14:06Z</time></trkpt>
<trkpt lat="46.07172104" lon="6.09923199"><ele>848.020264</ele><time>2007-04-14T12:14:08Z</time></trkpt>
<trkpt lat="46.07177803" lon="6.09968143"><ele>847.058838</ele><time>2007-04-14T12:14:14Z</time></trkpt>
<trkpt lat="46.07179547" lon="6.09980355"><ele>846.578369</ele><time>2007-04-14T12:14:16Z</time></trkpt>
<trkpt lat="46.07195045" lon="6.10023287"><ele>844.655518</ele><time>2007-04-14T12:14:22Z</time></trkpt>
<trkpt lat="46.07198875" lon="6.10041585"><ele>845.13623</ele><time>2007-04-14T12:14:24Z</time></trkpt>
<trkpt lat="46.07205899" lon="6.10059296"><ele>846.578369</ele><time>2007-04-14T12:14:27Z</time></trkpt>
<trkpt lat="46.07210199" lon="6.10071148"><ele>845.616943</ele><time>2007-04-14T12:14:30Z</time></trkpt>
<trkpt lat="46.07216083" lon="6.10078264"><ele>845.616943</ele><time>2007-04-14T12:14:32Z</time></trkpt>
<trkpt lat="46.07225002" lon="6.10081843"><ele>846.578369</ele><time>2007-04-14T12:14:34Z</time></trkpt>
<trkpt lat="46.07240525" lon="6.10086730"><ele>844.655518</ele><time>2007-04-14T12:14:37Z</time></trkpt>
<trkpt lat="46.07248228" lon="6.10096612"><ele>843.694092</ele><time>2007-04-14T12:14:39Z</time></trkpt>
<trkpt lat="46.07277975" lon="6.10127927"><ele>840.32959</ele><time>2007-04-14T12:14:45Z</time></trkpt>
<trkpt lat="46.07329030" lon="6.10160138"><ele>839.848877</ele><time>2007-04-14T12:14:52Z</time></trkpt>
<trkpt lat="46.07339834" lon="6.10171865"><ele>837.92627</ele><time>2007-04-14T12:14:54Z</time></trkpt>
<trkpt lat="46.07353949" lon="6.10185234"><ele>834.561768</ele><time>2007-04-14T12:14:56Z</time></trkpt>
<trkpt lat="46.07370545" lon="6.10197756"><ele>832.63916</ele><time>2007-04-14T12:14:58Z</time></trkpt>
<trkpt lat="46.07394945" lon="6.10223045"><ele>836.964844</ele><time>2007-04-14T12:15:02Z</time></trkpt>
<trkpt lat="46.07399119" lon="6.10227604"><ele>837.445557</ele><time>2007-04-14T12:15:03Z</time></trkpt>
<trkpt lat="46.07440568" lon="6.10295003"><ele>837.92627</ele><time>2007-04-14T12:15:15Z</time></trkpt>
<trkpt lat="46.07480809" lon="6.10357935"><ele>838.406982</ele><time>2007-04-14T12:15:29Z</time></trkpt>
<trkpt lat="46.07501873" lon="6.10380205"><ele>834.561768</ele><time>2007-04-14T12:15:38Z</time></trkpt>
<trkpt lat="46.07509794" lon="6.10387338"><ele>833.119629</ele><time>2007-04-14T12:15:40Z</time></trkpt>
<trkpt lat="46.07528259" lon="6.10404546"><ele>831.677734</ele><time>2007-04-14T12:15:44Z</time></trkpt>
<trkpt lat="46.07553354" lon="6.10413683"><ele>829.274414</ele><time>2007-04-14T12:15:48Z</time></trkpt>
<trkpt lat="46.07608784" lon="6.10410606"><ele>825.909668</ele><time>2007-04-14T12:15:56Z</time></trkpt>
<trkpt lat="46.07632035" lon="6.10413373"><ele>822.545166</ele><time>2007-04-14T12:15:59Z</time></trkpt>
<trkpt lat="46.07649042" lon="6.10416273"><ele>820.141846</ele><time>2007-04-14T12:16:01Z</time></trkpt>
<trkpt lat="46.07689376" lon="6.10421989"><ele>815.816162</ele><time>2007-04-14T12:16:06Z</time></trkpt>
<trkpt lat="46.07767336" lon="6.10463689"><ele>815.816162</ele><time>2007-04-14T12:16:17Z</time></trkpt>
<trkpt lat="46.07783656" lon="6.10473010"><ele>816.296631</ele><time>2007-04-14T12:16:20Z</time></trkpt>
<trkpt lat="46.07820067" lon="6.10500083"><ele>816.296631</ele><time>2007-04-14T12:16:29Z</time></trkpt>
<trkpt lat="46.07854122" lon="6.10530183"><ele>815.816162</ele><time>2007-04-14T12:16:37Z</time></trkpt>
<trkpt lat="46.07924975" lon="6.10606902"><ele>814.374023</ele><time>2007-04-14T12:16:51Z</time></trkpt>
<trkpt lat="46.07936877" lon="6.10613289"><ele>813.893311</ele><time>2007-04-14T12:16:53Z</time></trkpt>
<trkpt lat="46.07971813" lon="6.10623708"><ele>815.335449</ele><time>2007-04-14T12:17:00Z</time></trkpt>
<trkpt lat="46.08003454" lon="6.10632459"><ele>812.451416</ele><time>2007-04-14T12:17:06Z</time></trkpt>
<trkpt lat="46.08062698" lon="6.10617966"><ele>808.125488</ele><time>2007-04-14T12:17:16Z</time></trkpt>
<trkpt lat="46.08083979" lon="6.10613055"><ele>807.644775</ele><time>2007-04-14T12:17:20Z</time></trkpt>
<trkpt lat="46.08113006" lon="6.10603876"><ele>807.164063</ele><time>2007-04-14T12:17:28Z</time></trkpt>
<trkpt lat="46.08125193" lon="6.10604329"><ele>805.241455</ele><time>2007-04-14T12:17:31Z</time></trkpt>
<trkpt lat="46.08144237" lon="6.10607254"><ele>802.357422</ele><time>2007-04-14T12:17:37Z</time></trkpt>
<trkpt lat="46.08147053" lon="6.10606953"><ele>802.357422</ele><time>2007-04-14T12:17:38Z</time></trkpt>
<trkpt lat="46.08162467" lon="6.10592016"><ele>799.954346</ele><time>2007-04-14T12:17:45Z</time></trkpt>
<trkpt lat="46.08180966" lon="6.10603910"><ele>798.99292</ele><time>2007-04-14T12:17:54Z</time></trkpt>
<trkpt lat="46.08198049" lon="6.10607003"><ele>798.031738</ele><time>2007-04-14T12:18:00Z</time></trkpt>
<trkpt lat="46.08220445" lon="6.10579577"><ele>796.589844</ele><time>2007-04-14T12:18:07Z</time></trkpt>
<trkpt lat="46.08225013" lon="6.10581899"><ele>796.589844</ele><time>2007-04-14T12:18:08Z</time></trkpt>
<trkpt lat="46.08291456" lon="6.10620598"><ele>796.109131</ele><time>2007-04-14T12:18:25Z</time></trkpt>
<trkpt lat="46.08324959" lon="6.10662768"><ele>797.070313</ele><time>2007-04-14T12:18:37Z</time></trkpt>
<trkpt lat="46.08357372" lon="6.10687838"><ele>793.705566</ele><time>2007-04-14T12:18:46Z</time></trkpt>
<trkpt lat="46.08362493" lon="6.10689020"><ele>793.224854</ele><time>2007-04-14T12:18:47Z</time></trkpt>
<trkpt lat="46.08374848" lon="6.10689062"><ele>791.302246</ele><time>2007-04-14T12:18:49Z</time></trkpt>
<trkpt lat="46.08404336" lon="6.10690512"><ele>786.49585</ele><time>2007-04-14T12:18:53Z</time></trkpt>
<trkpt lat="46.08463495" lon="6.10708357"><ele>785.053955</ele><time>2007-04-14T12:18:59Z</time></trkpt>
<trkpt lat="46.08510300" lon="6.10716278"><ele>781.689209</ele><time>2007-04-14T12:19:04Z</time></trkpt>
<trkpt lat="46.08540818" lon="6.10736419"><ele>779.766357</ele><time>2007-04-14T12:19:08Z</time></trkpt>
<trkpt lat="46.08622693" lon="6.10764725"><ele>779.285645</ele><time>2007-04-14T12:19:19Z</time></trkpt>
<trkpt lat="46.08642583" lon="6.10777675"><ele>779.285645</ele><time>2007-04-14T12:19:22Z</time></trkpt>
<trkpt lat="46.08669363" lon="6.10794146"><ele>778.324463</ele><time>2007-04-14T12:19:26Z</time></trkpt>
<trkpt lat="46.08693905" lon="6.10797700"><ele>779.285645</ele><time>2007-04-14T12:19:30Z</time></trkpt>
<trkpt lat="46.08717048" lon="6.10807355"><ele>779.285645</ele><time>2007-04-14T12:19:34Z</time></trkpt>
<trkpt lat="46.08761187" lon="6.10810163"><ele>779.285645</ele><time>2007-04-14T12:19:41Z</time></trkpt>
<trkpt lat="46.08788939" lon="6.10817925"><ele>779.766357</ele><time>2007-04-14T12:19:46Z</time></trkpt>
<trkpt lat="46.08799718" lon="6.10818772"><ele>780.247314</ele><time>2007-04-14T12:19:48Z</time></trkpt>
<trkpt lat="46.08823925" lon="6.10820733"><ele>780.728027</ele><time>2007-04-14T12:19:52Z</time></trkpt>
<trkpt lat="46.08840438" lon="6.10827556"><ele>781.20874</ele><time>2007-04-14T12:19:55Z</time></trkpt>
<trkpt lat="46.08867184" lon="6.10824429"><ele>776.401855</ele><time>2007-04-14T12:19:59Z</time></trkpt>
<trkpt lat="46.08906403" lon="6.10820012"><ele>775.44043</ele><time>2007-04-14T12:20:05Z</time></trkpt>
<trkpt lat="46.08916160" lon="6.10791958"><ele>773.518066</ele><time>2007-04-14T12:20:12Z</time></trkpt>
<trkpt lat="46.08922237" lon="6.10793416"><ele>771.595215</ele><time>2007-04-14T12:20:16Z</time></trkpt>
<trkpt lat="46.08948623" lon="6.10814044"><ele>770.634033</ele><time>2007-04-14T12:20:25Z</time></trkpt>
<trkpt lat="46.09015753" lon="6.10852148"><ele>769.192139</ele><time>2007-04-14T12:20:39Z</time></trkpt>
<trkpt lat="46.09031696" lon="6.10870069"><ele>769.192139</ele><time>2007-04-14T12:20:43Z</time></trkpt>
<trkpt lat="46.09057638" lon="6.10908634"><ele>768.711426</ele><time>2007-04-14T12:20:51Z</time></trkpt>
<trkpt lat="46.09102925" lon="6.10961323"><ele>767.75</ele><time>2007-04-14T12:21:03Z</time></trkpt>
<trkpt lat="46.09149470" lon="6.11005562"><ele>762.943359</ele><time>2007-04-14T12:21:11Z</time></trkpt>
<trkpt lat="46.09163007" lon="6.11017716"><ele>761.501465</ele><time>2007-04-14T12:21:13Z</time></trkpt>
<trkpt lat="46.09184263" lon="6.11035779"><ele>759.578857</ele><time>2007-04-14T12:21:16Z</time></trkpt>
<trkpt lat="46.09196794" lon="6.11052367"><ele>758.617432</ele><time>2007-04-14T12:21:18Z</time></trkpt>
<trkpt lat="46.09206224" lon="6.11088518"><ele>756.214111</ele><time>2007-04-14T12:21:21Z</time></trkpt>
<trkpt lat="46.09211949" lon="6.11136999"><ele>757.65625</ele><time>2007-04-14T12:21:25Z</time></trkpt>
<trkpt lat="46.09221186" lon="6.11170753"><ele>755.25293</ele><time>2007-04-14T12:21:28Z</time></trkpt>
<trkpt lat="46.09225645" lon="6.11180836"><ele>755.733643</ele><time>2007-04-14T12:21:29Z</time></trkpt>
<trkpt lat="46.09251645" lon="6.11243105"><ele>751.407715</ele><time>2007-04-14T12:21:35Z</time></trkpt>
<trkpt lat="46.09255744" lon="6.11253859"><ele>750.927002</ele><time>2007-04-14T12:21:36Z</time></trkpt>
<trkpt lat="46.09318198" lon="6.11369102"><ele>749.485107</ele><time>2007-04-14T12:21:48Z</time></trkpt>
<trkpt lat="46.09347526" lon="6.11397718"><ele>748.523682</ele><time>2007-04-14T12:21:53Z</time></trkpt>
<trkpt lat="46.09460036" lon="6.11437742"><ele>746.120361</ele><time>2007-04-14T12:22:09Z</time></trkpt>
<trkpt lat="46.09486624" lon="6.11467028"><ele>746.120361</ele><time>2007-04-14T12:22:14Z</time></trkpt>
<trkpt lat="46.09528298" lon="6.11528987"><ele>743.236328</ele><time>2007-04-14T12:22:23Z</time></trkpt>
<trkpt lat="46.09564307" lon="6.11555373"><ele>741.313721</ele><time>2007-04-14T12:22:28Z</time></trkpt>
<trkpt lat="46.09588849" lon="6.11575750"><ele>742.755859</ele><time>2007-04-14T12:22:32Z</time></trkpt>
<trkpt lat="46.09648738" lon="6.11646510"><ele>744.197754</ele><time>2007-04-14T12:22:44Z</time></trkpt>
<trkpt lat="46.09665879" lon="6.11682535"><ele>743.236328</ele><time>2007-04-14T12:22:48Z</time></trkpt>
<trkpt lat="46.09675124" lon="6.11711067"><ele>743.236328</ele><time>2007-04-14T12:22:51Z</time></trkpt>
<trkpt lat="46.09706112" lon="6.11742499"><ele>743.717041</ele><time>2007-04-14T12:22:57Z</time></trkpt>
<trkpt lat="46.09712382" lon="6.11743824"><ele>744.678223</ele><time>2007-04-14T12:22:58Z</time></trkpt>
<trkpt lat="46.09856408" lon="6.11755609"><ele>746.120361</ele><time>2007-04-14T12:23:20Z</time></trkpt>
<trkpt lat="46.09922156" lon="6.11763580"><ele>748.043213</ele><time>2007-04-14T12:23:30Z</time></trkpt>
<trkpt lat="46.10000342" lon="6.11807275"><ele>750.927002</ele><time>2007-04-14T12:23:46Z</time></trkpt>
<trkpt lat="46.10066425" lon="6.11839134"><ele>753.811035</ele><time>2007-04-14T12:24:00Z</time></trkpt>
<trkpt lat="46.10070758" lon="6.11841657"><ele>753.811035</ele><time>2007-04-14T12:24:01Z</time></trkpt>
<trkpt lat="46.10087925" lon="6.11853157"><ele>753.811035</ele><time>2007-04-14T12:24:05Z</time></trkpt>
<trkpt lat="46.10148015" lon="6.11896760"><ele>753.811035</ele><time>2007-04-14T12:24:18Z</time></trkpt>
<trkpt lat="46.10167125" lon="6.11913239"><ele>753.330322</ele><time>2007-04-14T12:24:22Z</time></trkpt>
<trkpt lat="46.10197225" lon="6.11925057"><ele>754.772217</ele><time>2007-04-14T12:24:28Z</time></trkpt>
<trkpt lat="46.10244633" lon="6.11943682"><ele>756.694824</ele><time>2007-04-14T12:24:39Z</time></trkpt>
<trkpt lat="46.10295285" lon="6.11947303"><ele>759.578857</ele><time>2007-04-14T12:24:50Z</time></trkpt>
<trkpt lat="46.10316684" lon="6.11945618"><ele>758.617432</ele><time>2007-04-14T12:25:01Z</time></trkpt>
<trkpt lat="46.10317354" lon="6.11945182"><ele>760.059326</ele><time>2007-04-14T12:25:36Z</time></trkpt>
<trkpt lat="46.10325770" lon="6.11939147"><ele>758.617432</ele><time>2007-04-14T12:26:09Z</time></trkpt>
<trkpt lat="46.10345358" lon="6.11922702"><ele>755.733643</ele><time>2007-04-14T12:26:14Z</time></trkpt>
<trkpt lat="46.10353237" lon="6.11926842"><ele>755.25293</ele><time>2007-04-14T12:26:15Z</time></trkpt>
<trkpt lat="46.10375516" lon="6.11939164"><ele>753.330322</ele><time>2007-04-14T12:26:18Z</time></trkpt>
<trkpt lat="46.10457474" lon="6.11962843"><ele>752.849609</ele><time>2007-04-14T12:26:30Z</time></trkpt>
<trkpt lat="46.10489175" lon="6.11956498"><ele>752.849609</ele><time>2007-04-14T12:26:35Z</time></trkpt>
<trkpt lat="46.10515553" lon="6.11936482"><ele>747.562256</ele><time>2007-04-14T12:26:39Z</time></trkpt>
<trkpt lat="46.10540120" lon="6.11923892"><ele>744.197754</ele><time>2007-04-14T12:26:42Z</time></trkpt>
<trkpt lat="46.10575743" lon="6.11913859"><ele>741.313721</ele><time>2007-04-14T12:26:46Z</time></trkpt>
<trkpt lat="46.10604744" lon="6.11911587"><ele>738.429932</ele><time>2007-04-14T12:26:49Z</time></trkpt>
<trkpt lat="46.10613042" lon="6.11910934"><ele>737.949219</ele><time>2007-04-14T12:26:50Z</time></trkpt>
<trkpt lat="46.10639102" lon="6.11874808"><ele>734.104004</ele><time>2007-04-14T12:26:56Z</time></trkpt>
<trkpt lat="46.10638138" lon="6.11864800"><ele>734.104004</ele><time>2007-04-14T12:26:57Z</time></trkpt>
<trkpt lat="46.10636369" lon="6.11855546"><ele>733.623291</ele><time>2007-04-14T12:26:58Z</time></trkpt>
<trkpt lat="46.10628859" lon="6.11824692"><ele>731.700439</ele><time>2007-04-14T12:27:03Z</time></trkpt>
<trkpt lat="46.10622212" lon="6.11833988"><ele>731.219971</ele><time>2007-04-14T12:27:11Z</time></trkpt>
<trkpt lat="46.10623729" lon="6.11835857"><ele>731.219971</ele><time>2007-04-14T12:27:12Z</time></trkpt>
<trkpt lat="46.10631349" lon="6.11846862"><ele>732.662109</ele><time>2007-04-14T12:27:17Z</time></trkpt>
<trkpt lat="46.10645858" lon="6.11873316"><ele>734.584717</ele><time>2007-04-14T12:27:30Z</time></trkpt>
<trkpt lat="46.10675714" lon="6.11891446"><ele>734.584717</ele><time>2007-04-14T12:27:44Z</time></trkpt>
<trkpt lat="46.10680684" lon="6.11898579"><ele>735.06543</ele><time>2007-04-14T12:27:47Z</time></trkpt>
<trkpt lat="46.10699133" lon="6.11935300"><ele>736.026611</ele><time>2007-04-14T12:28:02Z</time></trkpt>
<trkpt lat="46.10706870" lon="6.11939709"><ele>736.507324</ele><time>2007-04-14T12:28:19Z</time></trkpt>
<trkpt lat="46.10714505" lon="6.11946297"><ele>736.987793</ele><time>2007-04-14T12:28:25Z</time></trkpt>
<trkpt lat="46.10716316" lon="6.11953195"><ele>737.468506</ele><time>2007-04-14T12:28:35Z</time></trkpt>
<trkpt lat="46.10721488" lon="6.11982448"><ele>739.871826</ele><time>2007-04-14T12:28:53Z</time></trkpt>
<trkpt lat="46.10722912" lon="6.11992892"><ele>740.833008</ele><time>2007-04-14T12:29:09Z</time></trkpt>
<trkpt lat="46.10721848" lon="6.11995784"><ele>739.391113</ele><time>2007-04-14T12:29:39Z</time></trkpt>
<trkpt lat="46.10721303" lon="6.11996236"><ele>739.391113</ele><time>2007-04-14T12:30:17Z</time></trkpt>
<trkpt lat="46.10722896" lon="6.11994568"><ele>738.910645</ele><time>2007-04-14T12:30:20Z</time></trkpt>
<trkpt lat="46.10726383" lon="6.11990637"><ele>739.871826</ele><time>2007-04-14T12:30:39Z</time></trkpt>
<trkpt lat="46.10736206" lon="6.11987368"><ele>738.429932</ele><time>2007-04-14T12:30:50Z</time></trkpt>
<trkpt lat="46.10748519" lon="6.11984577"><ele>736.026611</ele><time>2007-04-14T12:30:53Z</time></trkpt>
<trkpt lat="46.10771997" lon="6.11989422"><ele>733.142578</ele><time>2007-04-14T12:30:57Z</time></trkpt>
<trkpt lat="46.10784989" lon="6.11997804"><ele>732.181396</ele><time>2007-04-14T12:30:59Z</time></trkpt>
<trkpt lat="46.10821685" lon="6.12013713"><ele>733.623291</ele><time>2007-04-14T12:31:08Z</time></trkpt>
<trkpt lat="46.10866067" lon="6.12038280"><ele>733.142578</ele><time>2007-04-14T12:31:22Z</time></trkpt>
<trkpt lat="46.10912737" lon="6.12061255"><ele>734.104004</ele><time>2007-04-14T12:31:37Z</time></trkpt>
<trkpt lat="46.10939358" lon="6.12082863"><ele>736.507324</ele><time>2007-04-14T12:31:49Z</time></trkpt>
<trkpt lat="46.10959198" lon="6.12115494"><ele>737.468506</ele><time>2007-04-14T12:32:01Z</time></trkpt>
<trkpt lat="46.10987294" lon="6.12144889"><ele>737.949219</ele><time>2007-04-14T12:32:15Z</time></trkpt>
<trkpt lat="46.11037024" lon="6.12155987"><ele>738.910645</ele><time>2007-04-14T12:32:32Z</time></trkpt>
<trkpt lat="46.11041693" lon="6.12156465"><ele>738.910645</ele><time>2007-04-14T12:32:44Z</time></trkpt>
<trkpt lat="46.11056118" lon="6.12153498"><ele>739.871826</ele><time>2007-04-14T12:33:14Z</time></trkpt>
<trkpt lat="46.11078716" lon="6.12142785"><ele>743.717041</ele><time>2007-04-14T12:33:24Z</time></trkpt>
<trkpt lat="46.11106594" lon="6.12133264"><ele>747.081543</ele><time>2007-04-14T12:33:37Z</time></trkpt>
<trkpt lat="46.11119636" lon="6.12137706"><ele>747.562256</ele><time>2007-04-14T12:33:43Z</time></trkpt>
<trkpt lat="46.11143382" lon="6.12198282"><ele>748.523682</ele><time>2007-04-14T12:34:01Z</time></trkpt>
<trkpt lat="46.11147615" lon="6.12205625"><ele>749.96582</ele><time>2007-04-14T12:34:04Z</time></trkpt>
<trkpt lat="46.11173146" lon="6.12251616"><ele>751.888428</ele><time>2007-04-14T12:34:22Z</time></trkpt>
<trkpt lat="46.11197387" lon="6.12302033"><ele>754.291748</ele><time>2007-04-14T12:34:39Z</time></trkpt>
<trkpt lat="46.11198527" lon="6.12316090"><ele>755.733643</ele><time>2007-04-14T12:34:43Z</time></trkpt>
<trkpt lat="46.11189449" lon="6.12349374"><ele>758.617432</ele><time>2007-04-14T12:34:58Z</time></trkpt>
<trkpt lat="46.11196733" lon="6.12365107"><ele>757.175537</ele><time>2007-04-14T12:35:05Z</time></trkpt>
<trkpt lat="46.11189508" lon="6.12402599"><ele>753.330322</ele><time>2007-04-14T12:35:14Z</time></trkpt>
<trkpt lat="46.11188024" lon="6.12408685"><ele>753.330322</ele><time>2007-04-14T12:35:15Z</time></trkpt>
<trkpt lat="46.11180866" lon="6.12437828"><ele>749.485107</ele><time>2007-04-14T12:35:20Z</time></trkpt>
<trkpt lat="46.11177622" lon="6.12455573"><ele>749.004395</ele><time>2007-04-14T12:35:25Z</time></trkpt>
<trkpt lat="46.11181470" lon="6.12470828"><ele>744.678223</ele><time>2007-04-14T12:35:31Z</time></trkpt>
<trkpt lat="46.11182719" lon="6.12483803"><ele>743.717041</ele><time>2007-04-14T12:35:33Z</time></trkpt>
<trkpt lat="46.11183289" lon="6.12498824"><ele>743.717041</ele><time>2007-04-14T12:35:35Z</time></trkpt>
<trkpt lat="46.11182735" lon="6.12514850"><ele>743.236328</ele><time>2007-04-14T12:35:37Z</time></trkpt>
<trkpt lat="46.11183112" lon="6.12547807"><ele>739.871826</ele><time>2007-04-14T12:35:41Z</time></trkpt>
<trkpt lat="46.11182048" lon="6.12568796"><ele>738.429932</ele><time>2007-04-14T12:35:43Z</time></trkpt>
<trkpt lat="46.11192735" lon="6.12601066"><ele>735.06543</ele><time>2007-04-14T12:35:48Z</time></trkpt>
<trkpt lat="46.11199868" lon="6.12608962"><ele>735.06543</ele><time>2007-04-14T12:35:50Z</time></trkpt>
<trkpt lat="46.11239389" lon="6.12615634"><ele>734.584717</ele><time>2007-04-14T12:35:57Z</time></trkpt>
<trkpt lat="46.11250754" lon="6.12615843"><ele>732.662109</ele><time>2007-04-14T12:35:59Z</time></trkpt>
<trkpt lat="46.11262724" lon="6.12613932"><ele>731.700439</ele><time>2007-04-14T12:36:01Z</time></trkpt>
<trkpt lat="46.11275942" lon="6.12610764"><ele>730.739258</ele><time>2007-04-14T12:36:03Z</time></trkpt>
<trkpt lat="46.11306167" lon="6.12606523"><ele>727.374756</ele><time>2007-04-14T12:36:08Z</time></trkpt>
<trkpt lat="46.11333727" lon="6.12588552"><ele>722.087402</ele><time>2007-04-14T12:36:13Z</time></trkpt>
<trkpt lat="46.11345923" lon="6.12575728"><ele>719.684326</ele><time>2007-04-14T12:36:15Z</time></trkpt>
<trkpt lat="46.11373348" lon="6.12548788"><ele>716.800293</ele><time>2007-04-14T12:36:19Z</time></trkpt>
<trkpt lat="46.11395703" lon="6.12522595"><ele>713.916016</ele><time>2007-04-14T12:36:23Z</time></trkpt>
<trkpt lat="46.11412978" lon="6.12505093"><ele>709.590332</ele><time>2007-04-14T12:36:26Z</time></trkpt>
<trkpt lat="46.11418267" lon="6.12499259"><ele>709.590332</ele><time>2007-04-14T12:36:27Z</time></trkpt>
<trkpt lat="46.11451518" lon="6.12492629"><ele>709.109619</ele><time>2007-04-14T12:36:35Z</time></trkpt>
<trkpt lat="46.11452834" lon="6.12497382"><ele>709.109619</ele><time>2007-04-14T12:36:36Z</time></trkpt>
<trkpt lat="46.11482933" lon="6.12559760"><ele>709.109619</ele><time>2007-04-14T12:36:51Z</time></trkpt>
<trkpt lat="46.11524885" lon="6.12637913"><ele>706.706299</ele><time>2007-04-14T12:37:05Z</time></trkpt>
<trkpt lat="46.11549695" lon="6.12674609"><ele>704.303223</ele><time>2007-04-14T12:37:10Z</time></trkpt>
<trkpt lat="46.11560818" lon="6.12691046"><ele>705.745117</ele><time>2007-04-14T12:37:13Z</time></trkpt>
<trkpt lat="46.11578713" lon="6.12713040"><ele>705.745117</ele><time>2007-04-14T12:37:19Z</time></trkpt>
<trkpt lat="46.11595955" lon="6.12700928"><ele>703.82251</ele><time>2007-04-14T12:37:24Z</time></trkpt>
<trkpt lat="46.11606223" lon="6.12681339"><ele>701.899902</ele><time>2007-04-14T12:37:27Z</time></trkpt>
<trkpt lat="46.11630916" lon="6.12640687"><ele>697.57373</ele><time>2007-04-14T12:37:33Z</time></trkpt>
<trkpt lat="46.11640840" lon="6.12628534"><ele>695.651123</ele><time>2007-04-14T12:37:35Z</time></trkpt>
<trkpt lat="46.11645659" lon="6.12623664"><ele>694.689697</ele><time>2007-04-14T12:37:36Z</time></trkpt>
<trkpt lat="46.11662356" lon="6.12612516"><ele>689.883301</ele><time>2007-04-14T12:37:39Z</time></trkpt>
<trkpt lat="46.11668970" lon="6.12608610"><ele>688.441406</ele><time>2007-04-14T12:37:40Z</time></trkpt>
<trkpt lat="46.11715565" lon="6.12589817"><ele>685.076904</ele><time>2007-04-14T12:37:46Z</time></trkpt>
<trkpt lat="46.11748665" lon="6.12559207"><ele>683.153809</ele><time>2007-04-14T12:37:52Z</time></trkpt>
<trkpt lat="46.11755219" lon="6.12553029"><ele>683.153809</ele><time>2007-04-14T12:37:53Z</time></trkpt>
<trkpt lat="46.11783332" lon="6.12532469"><ele>677.38623</ele><time>2007-04-14T12:37:57Z</time></trkpt>
<trkpt lat="46.11801739" lon="6.12520818"><ele>674.502197</ele><time>2007-04-14T12:38:00Z</time></trkpt>
<trkpt lat="46.11815334" lon="6.12514967"><ele>671.618164</ele><time>2007-04-14T12:38:02Z</time></trkpt>
<trkpt lat="46.11846842" lon="6.12501799"><ele>668.253662</ele><time>2007-04-14T12:38:06Z</time></trkpt>
<trkpt lat="46.11862415" lon="6.12501883"><ele>667.292236</ele><time>2007-04-14T12:38:09Z</time></trkpt>
<trkpt lat="46.11877193" lon="6.12517783"><ele>664.408203</ele><time>2007-04-14T12:38:13Z</time></trkpt>
<trkpt lat="46.11893336" lon="6.12531823"><ele>662.005127</ele><time>2007-04-14T12:38:17Z</time></trkpt>
<trkpt lat="46.11914258" lon="6.12539979"><ele>655.756592</ele><time>2007-04-14T12:38:21Z</time></trkpt>
<trkpt lat="46.11934005" lon="6.12554873"><ele>653.353271</ele><time>2007-04-14T12:38:29Z</time></trkpt>
<trkpt lat="46.11939118" lon="6.12569877"><ele>650.949707</ele><time>2007-04-14T12:38:32Z</time></trkpt>
<trkpt lat="46.11950694" lon="6.12603949"><ele>649.988525</ele><time>2007-04-14T12:38:38Z</time></trkpt>
<trkpt lat="46.11955086" lon="6.12622247"><ele>648.065918</ele><time>2007-04-14T12:38:41Z</time></trkpt>
<trkpt lat="46.11977692" lon="6.12672538"><ele>644.220703</ele><time>2007-04-14T12:38:49Z</time></trkpt>
<trkpt lat="46.12018989" lon="6.12712772"><ele>641.33667</ele><time>2007-04-14T12:38:56Z</time></trkpt>
<trkpt lat="46.12082633" lon="6.12743667"><ele>637.491455</ele><time>2007-04-14T12:39:05Z</time></trkpt>
<trkpt lat="46.12094577" lon="6.12749065"><ele>636.530273</ele><time>2007-04-14T12:39:07Z</time></trkpt>
<trkpt lat="46.12131776" lon="6.12774706"><ele>632.684814</ele><time>2007-04-14T12:39:14Z</time></trkpt>
<trkpt lat="46.12144659" lon="6.12783490"><ele>632.204102</ele><time>2007-04-14T12:39:16Z</time></trkpt>
<trkpt lat="46.12181657" lon="6.12807496"><ele>630.762207</ele><time>2007-04-14T12:39:21Z</time></trkpt>
<trkpt lat="46.12200726" lon="6.12829372"><ele>630.762207</ele><time>2007-04-14T12:39:24Z</time></trkpt>
<trkpt lat="46.12226148" lon="6.12849338"><ele>628.8396</ele><time>2007-04-14T12:39:28Z</time></trkpt>
<trkpt lat="46.12232728" lon="6.12854065"><ele>628.8396</ele><time>2007-04-14T12:39:29Z</time></trkpt>
<trkpt lat="46.12334023" lon="6.12942955"><ele>626.916992</ele><time>2007-04-14T12:39:46Z</time></trkpt>
<trkpt lat="46.12419879" lon="6.13019147"><ele>622.591064</ele><time>2007-04-14T12:40:01Z</time></trkpt>
<trkpt lat="46.12495635" lon="6.13089287"><ele>619.226318</ele><time>2007-04-14T12:40:13Z</time></trkpt>
<trkpt lat="46.12510957" lon="6.13101617"><ele>618.264893</ele><time>2007-04-14T12:40:15Z</time></trkpt>
<trkpt lat="46.12536480" lon="6.13119319"><ele>613.938965</ele><time>2007-04-14T12:40:18Z</time></trkpt>
<trkpt lat="46.12545423" lon="6.13125429"><ele>613.938965</ele><time>2007-04-14T12:40:19Z</time></trkpt>
<trkpt lat="46.12573645" lon="6.13145127"><ele>612.49707</ele><time>2007-04-14T12:40:22Z</time></trkpt>
<trkpt lat="46.12603887" lon="6.13166417"><ele>608.171387</ele><time>2007-04-14T12:40:25Z</time></trkpt>
<trkpt lat="46.12636166" lon="6.13189065"><ele>603.364502</ele><time>2007-04-14T12:40:28Z</time></trkpt>
<trkpt lat="46.12658562" lon="6.13203666"><ele>601.922607</ele><time>2007-04-14T12:40:30Z</time></trkpt>
<trkpt lat="46.12694328" lon="6.13216222"><ele>597.59668</ele><time>2007-04-14T12:40:33Z</time></trkpt>
<trkpt lat="46.12808255" lon="6.13233875"><ele>594.712646</ele><time>2007-04-14T12:40:43Z</time></trkpt>
<trkpt lat="46.12850533" lon="6.13241075"><ele>590.867432</ele><time>2007-04-14T12:40:47Z</time></trkpt>
<trkpt lat="46.12861195" lon="6.13243229"><ele>590.386963</ele><time>2007-04-14T12:40:48Z</time></trkpt>
<trkpt lat="46.12904144" lon="6.13253983"><ele>586.541504</ele><time>2007-04-14T12:40:52Z</time></trkpt>
<trkpt lat="46.12926146" lon="6.13260177"><ele>584.618896</ele><time>2007-04-14T12:40:54Z</time></trkpt>
<trkpt lat="46.12970746" lon="6.13271803"><ele>582.215576</ele><time>2007-04-14T12:40:58Z</time></trkpt>
<trkpt lat="46.13078789" lon="6.13287829"><ele>577.889648</ele><time>2007-04-14T12:41:08Z</time></trkpt>
<trkpt lat="46.13100029" lon="6.13289027"><ele>577.40918</ele><time>2007-04-14T12:41:10Z</time></trkpt>
<trkpt lat="46.13110682" lon="6.13288877"><ele>576.447754</ele><time>2007-04-14T12:41:11Z</time></trkpt>
<trkpt lat="46.13152843" lon="6.13270847"><ele>570.679688</ele><time>2007-04-14T12:41:15Z</time></trkpt>
<trkpt lat="46.13183839" lon="6.13247219"><ele>568.276367</ele><time>2007-04-14T12:41:18Z</time></trkpt>
<trkpt lat="46.13192917" lon="6.13239390"><ele>568.75708</ele><time>2007-04-14T12:41:19Z</time></trkpt>
<trkpt lat="46.13219429" lon="6.13228535"><ele>564.911865</ele><time>2007-04-14T12:41:22Z</time></trkpt>
<trkpt lat="46.13249319" lon="6.13233263"><ele>561.547363</ele><time>2007-04-14T12:41:25Z</time></trkpt>
<trkpt lat="46.13259612" lon="6.13236113"><ele>558.66333</ele><time>2007-04-14T12:41:26Z</time></trkpt>
<trkpt lat="46.13291136" lon="6.13247562"><ele>557.221436</ele><time>2007-04-14T12:41:29Z</time></trkpt>
<trkpt lat="46.13334797" lon="6.13263077"><ele>552.895264</ele><time>2007-04-14T12:41:33Z</time></trkpt>
<trkpt lat="46.13357202" lon="6.13270537"><ele>551.453369</ele><time>2007-04-14T12:41:35Z</time></trkpt>
<trkpt lat="46.13379749" lon="6.13278609"><ele>550.011475</ele><time>2007-04-14T12:41:37Z</time></trkpt>
<trkpt lat="46.13402364" lon="6.13287888"><ele>547.127441</ele><time>2007-04-14T12:41:39Z</time></trkpt>
<trkpt lat="46.13442723" lon="6.13320367"><ele>544.724243</ele><time>2007-04-14T12:41:43Z</time></trkpt>
<trkpt lat="46.13482595" lon="6.13357365"><ele>545.685547</ele><time>2007-04-14T12:41:50Z</time></trkpt>
<trkpt lat="46.13490785" lon="6.13361967"><ele>544.724243</ele><time>2007-04-14T12:41:59Z</time></trkpt>
<trkpt lat="46.13500985" lon="6.13362554"><ele>543.762817</ele><time>2007-04-14T12:42:02Z</time></trkpt>
<trkpt lat="46.13509770" lon="6.13358656"><ele>542.801514</ele><time>2007-04-14T12:42:04Z</time></trkpt>
<trkpt lat="46.13529534" lon="6.13370215"><ele>541.84021</ele><time>2007-04-14T12:42:12Z</time></trkpt>
<trkpt lat="46.13532065" lon="6.13372293"><ele>541.359497</ele><time>2007-04-14T12:42:13Z</time></trkpt>
<trkpt lat="46.13535644" lon="6.13376719"><ele>541.84021</ele><time>2007-04-14T12:42:15Z</time></trkpt>
<trkpt lat="46.13526793" lon="6.13413482"><ele>545.204834</ele><time>2007-04-14T12:42:25Z</time></trkpt>
<trkpt lat="46.13526039" lon="6.13419802"><ele>545.685547</ele><time>2007-04-14T12:42:27Z</time></trkpt>
<trkpt lat="46.13519233" lon="6.13448652"><ele>547.127441</ele><time>2007-04-14T12:42:41Z</time></trkpt>
<trkpt lat="46.13512234" lon="6.13466506"><ele>548.088867</ele><time>2007-04-14T12:42:57Z</time></trkpt>
<trkpt lat="46.13533046" lon="6.13508072"><ele>548.569336</ele><time>2007-04-14T12:43:11Z</time></trkpt>
<trkpt lat="46.13552333" lon="6.13534282"><ele>545.685547</ele><time>2007-04-14T12:43:20Z</time></trkpt>
<trkpt lat="46.13584838" lon="6.13574205"><ele>542.320923</ele><time>2007-04-14T12:43:28Z</time></trkpt>
<trkpt lat="46.13589934" lon="6.13580223"><ele>542.320923</ele><time>2007-04-14T12:43:29Z</time></trkpt>
<trkpt lat="46.13616480" lon="6.13618637"><ele>538.956299</ele><time>2007-04-14T12:43:34Z</time></trkpt>
<trkpt lat="46.13638373" lon="6.13651805"><ele>535.591553</ele><time>2007-04-14T12:43:38Z</time></trkpt>
<trkpt lat="46.13676963" lon="6.13712825"><ele>532.227051</ele><time>2007-04-14T12:43:45Z</time></trkpt>
<trkpt lat="46.13682353" lon="6.13721936"><ele>532.707764</ele><time>2007-04-14T12:43:46Z</time></trkpt>
<trkpt lat="46.13692939" lon="6.13740594"><ele>530.785156</ele><time>2007-04-14T12:43:48Z</time></trkpt>
<trkpt lat="46.13728395" lon="6.13809275"><ele>529.82373</ele><time>2007-04-14T12:43:56Z</time></trkpt>
<trkpt lat="46.13745326" lon="6.13846122"><ele>529.82373</ele><time>2007-04-14T12:44:01Z</time></trkpt>
<trkpt lat="46.13808928" lon="6.13910328"><ele>528.381836</ele><time>2007-04-14T12:44:19Z</time></trkpt>
<trkpt lat="46.13808123" lon="6.13909557"><ele>528.381836</ele><time>2007-04-14T12:44:52Z</time></trkpt>
<trkpt lat="46.13807042" lon="6.13910579"><ele>528.381836</ele><time>2007-04-14T12:45:34Z</time></trkpt>
<trkpt lat="46.13821367" lon="6.13923026"><ele>526.939819</ele><time>2007-04-14T12:46:01Z</time></trkpt>
<trkpt lat="46.13872304" lon="6.13953134"><ele>524.536499</ele><time>2007-04-14T12:46:14Z</time></trkpt>
<trkpt lat="46.13906753" lon="6.13988925"><ele>520.691284</ele><time>2007-04-14T12:46:21Z</time></trkpt>
<trkpt lat="46.13919184" lon="6.14007524"><ele>516.845947</ele><time>2007-04-14T12:46:23Z</time></trkpt>
<trkpt lat="46.13925998" lon="6.14018127"><ele>513.000732</ele><time>2007-04-14T12:46:24Z</time></trkpt>
<trkpt lat="46.13933064" lon="6.14029652"><ele>513.000732</ele><time>2007-04-14T12:46:25Z</time></trkpt>
<trkpt lat="46.13940214" lon="6.14043114"><ele>509.155396</ele><time>2007-04-14T12:46:26Z</time></trkpt>
<trkpt lat="46.13955008" lon="6.14071394"><ele>505.310181</ele><time>2007-04-14T12:46:28Z</time></trkpt>
<trkpt lat="46.13971822" lon="6.14101536"><ele>500.50354</ele><time>2007-04-14T12:46:30Z</time></trkpt>
<trkpt lat="46.13989424" lon="6.14132649"><ele>497.619629</ele><time>2007-04-14T12:46:32Z</time></trkpt>
<trkpt lat="46.13997873" lon="6.14148273"><ele>497.138916</ele><time>2007-04-14T12:46:33Z</time></trkpt>
<trkpt lat="46.14027067" lon="6.14207709"><ele>499.542236</ele><time>2007-04-14T12:46:37Z</time></trkpt>
<trkpt lat="46.14086017" lon="6.14281747"><ele>501.464844</ele><time>2007-04-14T12:46:45Z</time></trkpt>
<trkpt lat="46.14117214" lon="6.14312684"><ele>503.387451</ele><time>2007-04-14T12:46:52Z</time></trkpt>
<trkpt lat="46.14127809" lon="6.14300488"><ele>502.426147</ele><time>2007-04-14T12:46:57Z</time></trkpt>
<trkpt lat="46.14139100" lon="6.14270180"><ele>500.50354</ele><time>2007-04-14T12:47:02Z</time></trkpt>
<trkpt lat="46.14147356" lon="6.14248789"><ele>499.061523</ele><time>2007-04-14T12:47:05Z</time></trkpt>
<trkpt lat="46.14152284" lon="6.14199897"><ele>496.658325</ele><time>2007-04-14T12:47:10Z</time></trkpt>
<trkpt lat="46.14149258" lon="6.14163428"><ele>495.216187</ele><time>2007-04-14T12:47:13Z</time></trkpt>
<trkpt lat="46.14158370" lon="6.14110328"><ele>490.890381</ele><time>2007-04-14T12:47:17Z</time></trkpt>
<trkpt lat="46.14169652" lon="6.14090404"><ele>490.40979</ele><time>2007-04-14T12:47:19Z</time></trkpt>
<trkpt lat="46.14182048" lon="6.14072425"><ele>490.40979</ele><time>2007-04-14T12:47:21Z</time></trkpt>
<trkpt lat="46.14217060" lon="6.14022285"><ele>490.40979</ele><time>2007-04-14T12:47:30Z</time></trkpt>
<trkpt lat="46.14227294" lon="6.14019150"><ele>489.448364</ele><time>2007-04-14T12:47:41Z</time></trkpt>
<trkpt lat="46.14227244" lon="6.14019234"><ele>489.448364</ele><time>2007-04-14T12:47:45Z</time></trkpt>
<trkpt lat="46.14248785" lon="6.13981423"><ele>487.525635</ele><time>2007-04-14T12:47:56Z</time></trkpt>
<trkpt lat="46.14263864" lon="6.13959806"><ele>486.08374</ele><time>2007-04-14T12:48:00Z</time></trkpt>
<trkpt lat="46.14276127" lon="6.13943637"><ele>486.08374</ele><time>2007-04-14T12:48:03Z</time></trkpt>
<trkpt lat="46.14325748" lon="6.13869927"><ele>486.08374</ele><time>2007-04-14T12:48:17Z</time></trkpt>
<trkpt lat="46.14353752" lon="6.13834388"><ele>486.564453</ele><time>2007-04-14T12:48:25Z</time></trkpt>
<trkpt lat="46.14383298" lon="6.13797247"><ele>487.045044</ele><time>2007-04-14T12:48:33Z</time></trkpt>
<trkpt lat="46.14387556" lon="6.13792143"><ele>486.564453</ele><time>2007-04-14T12:48:34Z</time></trkpt>
<trkpt lat="46.14443053" lon="6.13712959"><ele>486.564453</ele><time>2007-04-14T12:48:51Z</time></trkpt>
</trkseg></trk></gpx>